Time,TemperatureF,DewpointF,PressureIn,WindDirection,WindDirectionDegrees,WindSpeedMPH,WindSpeedGustMPH,Humidity,HourlyPrecipIn,Conditions,Clouds,dailyrainin,SoftwareType,DateUTC
2013-07-26 00:00:00,78.2,65.1,30.06,SE,135,0.0,0.0,64,0.00,,---,0.00,VWS V14.01,2013-07-26 05:00:00,
2013-07-26 00:01:00,78.2,65.1,30.06,ESE,112,0.0,0.0,64,0.00,,---,0.00,VWS V14.01,2013-07-26 05:01:00,
2013-07-26 00:02:00,78.2,65.1,30.06,SE,135,0.0,0.0,64,0.00,,---,0.00,VWS V14.01,2013-07-26 05:02:00,
2013-07-26 00:03:00,78.2,65.1,30.06,East,90,0.0,0.0,64,0.00,,---,0.00,VWS V14.01,2013-07-26 05:03:00,
2013-07-26 00:04:00,78.1,64.9,30.06,ESE,112,0.0,0.0,64,0.00,,---,0.00,VWS V14.01,2013-07-26 05:04:00,
2013-07-26 00:05:00,78.1,64.9,30.06,East,90,0.0,0.0,64,0.00,,---,0.00,VWS V14.01,2013-07-26 05:05:00,
2013-07-26 00:06:00,78.1,64.9,30.06,ESE,112,0.0,0.0,64,0.00,,---,0.00,VWS V14.01,2013-07-26 05:06:00,
2013-07-26 00:07:00,78.1,64.9,30.06,ESE,112,0.0,0.0,64,0.00,,---,0.00,VWS V14.01,2013-07-26 05:07:00,
2013-07-26 00:08:00,77.9,65.2,30.06,SE,135,0.0,0.0,65,0.00,,---,0.00,VWS V14.01,2013-07-26 05:08:00,
2013-07-26 00:09:00,77.9,65.6,30.06,SE,135,0.0,0.0,66,0.00,,---,0.00,VWS V14.01,2013-07-26 05:09:00,
2013-07-26 00:10:00,77.9,65.6,30.06,ESE,112,0.0,0.0,66,0.00,,---,0.00,VWS V14.01,2013-07-26 05:10:00,
2013-07-26 00:11:00,78.1,65.8,30.06,ESE,112,0.0,0.0,66,0.00,,---,0.00,VWS V14.01,2013-07-26 05:11:00,
2013-07-26 00:12:00,78.1,66.2,30.06,East,90,0.0,0.0,67,0.00,,---,0.00,VWS V14.01,2013-07-26 05:12:00,
2013-07-26 00:13:00,78.1,66.2,30.06,SW,225,0.0,0.0,67,0.00,,---,0.00,VWS V14.01,2013-07-26 05:13:00,
2013-07-26 00:14:00,78.1,66.2,30.06,SE,135,0.0,0.0,67,0.00,,---,0.00,VWS V14.01,2013-07-26 05:14:00,
2013-07-26 00:15:00,78.1,66.2,30.06,ESE,112,0.0,0.0,67,0.00,,---,0.00,VWS V14.01,2013-07-26 05:15:00,
2013-07-26 00:16:00,78.2,66.4,30.06,SE,135,0.0,0.0,67,0.00,,---,0.00,VWS V14.01,2013-07-26 05:16:00,
2013-07-26 00:17:00,78.2,66.4,30.06,SE,135,0.0,0.0,67,0.00,,---,0.00,VWS V14.01,2013-07-26 05:17:00,
2013-07-26 00:18:00,78.2,66.4,30.06,SE,135,0.0,0.0,67,0.00,,---,0.00,VWS V14.01,2013-07-26 05:18:00,
2013-07-26 00:19:00,78.4,67.0,30.06,ENE,68,0.0,0.0,68,0.00,,---,0.00,VWS V14.01,2013-07-26 05:19:00,
2013-07-26 00:20:00,78.4,67.0,30.06,East,90,0.0,0.0,68,0.00,,---,0.00,VWS V14.01,2013-07-26 05:20:00,
2013-07-26 00:21:00,78.6,67.2,30.06,ESE,112,0.0,0.0,68,0.00,,---,0.00,VWS V14.01,2013-07-26 05:21:00,
2013-07-26 00:22:00,78.6,67.2,30.06,SE,135,0.0,0.0,68,0.00,,---,0.00,VWS V14.01,2013-07-26 05:22:00,
2013-07-26 00:23:00,78.6,67.2,30.06,ESE,112,0.0,0.0,68,0.00,,---,0.00,VWS V14.01,2013-07-26 05:23:00,
2013-07-26 00:24:00,78.6,67.2,30.06,SSW,202,0.0,0.0,68,0.00,,---,0.00,VWS V14.01,2013-07-26 05:24:00,
2013-07-26 00:25:00,78.6,67.2,30.06,South,180,0.0,0.0,68,0.00,,---,0.00,VWS V14.01,2013-07-26 05:25:00,
2013-07-26 00:26:00,78.6,67.6,30.06,East,90,0.0,0.0,69,0.00,,---,0.00,VWS V14.01,2013-07-26 05:26:00,
2013-07-26 00:27:00,78.6,68.0,30.06,North,0,0.0,0.0,70,0.00,,---,0.00,VWS V14.01,2013-07-26 05:27:00,
2013-07-26 00:28:00,78.4,67.4,30.06,WSW,248,0.0,0.0,69,0.00,,---,0.00,VWS V14.01,2013-07-26 05:28:00,
2013-07-26 00:29:00,78.4,67.4,30.06,SE,135,0.0,0.0,69,0.00,,---,0.00,VWS V14.01,2013-07-26 05:29:00,
2013-07-26 00:30:00,78.6,67.6,30.06,South,180,0.0,0.0,69,0.00,,---,0.00,VWS V14.01,2013-07-26 05:30:00,
2013-07-26 00:31:00,78.6,67.6,30.03,SSW,202,0.0,0.0,69,0.00,,---,0.00,VWS V14.01,2013-07-26 05:31:00,
2013-07-26 00:32:00,78.6,67.6,30.03,SSE,158,0.0,0.0,69,0.00,,---,0.00,VWS V14.01,2013-07-26 05:32:00,
2013-07-26 00:33:00,78.6,68.0,30.03,WSW,248,0.0,0.0,70,0.00,,---,0.00,VWS V14.01,2013-07-26 05:33:00,
2013-07-26 00:34:00,78.6,68.0,30.03,ESE,112,0.0,0.0,70,0.00,,---,0.00,VWS V14.01,2013-07-26 05:34:00,
2013-07-26 00:35:00,78.6,67.6,30.03,East,90,0.0,0.0,69,0.00,,---,0.00,VWS V14.01,2013-07-26 05:35:00,
2013-07-26 00:36:00,78.8,68.2,30.03,SSE,158,0.0,0.0,70,0.00,,---,0.00,VWS V14.01,2013-07-26 05:36:00,
2013-07-26 00:37:00,78.8,67.8,30.03,SE,135,0.0,0.0,69,0.00,,---,0.00,VWS V14.01,2013-07-26 05:37:00,
2013-07-26 00:38:00,78.8,68.2,30.03,SE,135,0.0,0.0,70,0.00,,---,0.00,VWS V14.01,2013-07-26 05:38:00,
2013-07-26 00:39:00,78.9,68.3,30.03,SSW,202,0.0,0.0,70,0.00,,---,0.00,VWS V14.01,2013-07-26 05:39:00,
2013-07-26 00:40:00,78.9,67.9,30.03,East,90,0.0,0.0,69,0.00,,---,0.00,VWS V14.01,2013-07-26 05:40:00,
2013-07-26 00:41:00,78.9,67.9,30.03,SW,225,0.0,0.0,69,0.00,,---,0.00,VWS V14.01,2013-07-26 05:41:00,
2013-07-26 00:42:00,78.9,67.9,30.03,South,180,0.0,0.0,69,0.00,,---,0.00,VWS V14.01,2013-07-26 05:42:00,
2013-07-26 00:43:00,78.9,67.9,30.03,East,90,0.0,0.0,69,0.00,,---,0.00,VWS V14.01,2013-07-26 05:43:00,
2013-07-26 00:44:00,78.9,67.9,30.03,SSW,202,0.0,0.0,69,0.00,,---,0.00,VWS V14.01,2013-07-26 05:44:00,
2013-07-26 00:45:00,79.1,68.1,30.03,South,180,0.0,0.0,69,0.00,,---,0.00,VWS V14.01,2013-07-26 05:45:00,
2013-07-26 00:46:00,79.1,68.1,30.03,South,180,0.0,0.0,69,0.00,,---,0.00,VWS V14.01,2013-07-26 05:46:00,
2013-07-26 00:47:00,79.1,68.1,30.03,SE,135,0.0,0.0,69,0.00,,---,0.00,VWS V14.01,2013-07-26 05:47:00,
2013-07-26 00:48:00,79.1,68.1,30.03,SE,135,0.0,0.0,69,0.00,,---,0.00,VWS V14.01,2013-07-26 05:48:00,
2013-07-26 00:49:00,79.1,68.1,30.03,SE,135,0.0,0.0,69,0.00,,---,0.00,VWS V14.01,2013-07-26 05:49:00,
2013-07-26 00:50:00,79.1,68.1,30.03,ENE,68,0.0,0.0,69,0.00,,---,0.00,VWS V14.01,2013-07-26 05:50:00,
2013-07-26 00:51:00,78.9,67.9,30.03,SSW,202,0.0,0.0,69,0.00,,---,0.00,VWS V14.01,2013-07-26 05:51:00,
2013-07-26 00:52:00,78.9,67.9,30.03,SSE,158,0.0,0.0,69,0.00,,---,0.00,VWS V14.01,2013-07-26 05:52:00,
2013-07-26 00:53:00,78.9,67.9,30.03,SE,135,0.0,0.0,69,0.00,,---,0.00,VWS V14.01,2013-07-26 05:53:00,
2013-07-26 00:54:00,78.9,67.9,30.03,East,90,0.0,0.0,69,0.00,,---,0.00,VWS V14.01,2013-07-26 05:54:00,
2013-07-26 00:55:00,78.9,67.9,30.03,East,90,0.0,0.0,69,0.00,,---,0.00,VWS V14.01,2013-07-26 05:55:00,
2013-07-26 00:56:00,78.9,67.9,30.03,SE,135,0.0,0.0,69,0.00,,---,0.00,VWS V14.01,2013-07-26 05:56:00,
2013-07-26 00:57:00,78.9,67.9,30.03,East,90,0.0,0.0,69,0.00,,---,0.00,VWS V14.01,2013-07-26 05:57:00,
2013-07-26 00:58:00,78.9,67.9,30.03,SSE,158,0.0,0.0,69,0.00,,---,0.00,VWS V14.01,2013-07-26 05:58:00,
2013-07-26 00:59:00,78.9,67.9,30.03,ENE,68,0.0,0.0,69,0.00,,---,0.00,VWS V14.01,2013-07-26 05:59:00,
2013-07-26 01:00:00,78.9,67.9,30.03,SSW,202,0.0,0.0,69,0.00,,---,0.29,VWS V14.01,2013-07-26 06:00:00,
2013-07-26 01:01:00,78.8,67.3,30.03,South,180,0.0,0.0,68,0.00,,---,0.00,VWS V14.01,2013-07-26 06:01:00,
2013-07-26 01:02:00,78.8,67.3,30.03,SE,135,0.0,0.0,68,0.00,,---,0.00,VWS V14.01,2013-07-26 06:02:00,
2013-07-26 01:03:00,78.8,67.8,30.03,SE,135,0.0,0.0,69,0.00,,---,0.00,VWS V14.01,2013-07-26 06:03:00,
2013-07-26 01:04:00,78.8,67.8,30.03,ESE,112,0.0,0.0,69,0.00,,---,0.00,VWS V14.01,2013-07-26 06:04:00,
2013-07-26 01:05:00,78.8,67.8,30.03,SE,135,0.0,0.0,69,0.00,,---,0.00,VWS V14.01,2013-07-26 06:05:00,
2013-07-26 01:06:00,78.8,67.8,30.03,South,180,0.0,0.0,69,0.00,,---,0.00,VWS V14.01,2013-07-26 06:06:00,
2013-07-26 01:07:00,78.8,67.8,30.03,SE,135,0.0,0.0,69,0.00,,---,0.00,VWS V14.01,2013-07-26 06:07:00,
2013-07-26 01:08:00,78.8,67.8,30.03,SSW,202,0.0,0.0,69,0.00,,---,0.00,VWS V14.01,2013-07-26 06:08:00,
2013-07-26 01:09:00,78.8,67.8,30.03,SSE,158,0.0,0.0,69,0.00,,---,0.00,VWS V14.01,2013-07-26 06:09:00,
2013-07-26 01:10:00,78.6,67.6,30.03,SSE,158,0.0,0.0,69,0.00,,---,0.00,VWS V14.01,2013-07-26 06:10:00,
2013-07-26 01:11:00,78.6,67.6,30.03,South,180,0.0,0.0,69,0.00,,---,0.00,VWS V14.01,2013-07-26 06:11:00,
2013-07-26 01:12:00,78.6,67.6,30.03,SSE,158,0.0,0.0,69,0.00,,---,0.00,VWS V14.01,2013-07-26 06:12:00,
2013-07-26 01:13:00,78.6,67.6,30.03,SE,135,0.0,0.0,69,0.00,,---,0.00,VWS V14.01,2013-07-26 06:13:00,
2013-07-26 01:14:00,78.6,67.6,30.03,SSW,202,0.0,0.0,69,0.00,,---,0.00,VWS V14.01,2013-07-26 06:14:00,
2013-07-26 01:15:00,78.6,67.6,30.03,East,90,0.0,0.0,69,0.00,,---,0.00,VWS V14.01,2013-07-26 06:15:00,
2013-07-26 01:16:00,78.6,68.0,30.03,ESE,112,0.0,0.0,70,0.00,,---,0.00,VWS V14.01,2013-07-26 06:16:00,
2013-07-26 01:17:00,78.6,68.0,30.03,East,90,0.0,0.0,70,0.00,,---,0.00,VWS V14.01,2013-07-26 06:17:00,
2013-07-26 01:18:00,78.6,68.0,30.03,East,90,0.0,0.0,70,0.00,,---,0.00,VWS V14.01,2013-07-26 06:18:00,
2013-07-26 01:19:00,78.4,67.4,30.03,South,180,0.0,0.0,69,0.00,,---,0.00,VWS V14.01,2013-07-26 06:19:00,
2013-07-26 01:20:00,78.4,68.2,30.03,SSW,202,0.0,0.0,71,0.00,,---,0.00,VWS V14.01,2013-07-26 06:20:00,
2013-07-26 01:21:00,78.4,67.8,30.03,SE,135,0.0,0.0,70,0.00,,---,0.00,VWS V14.01,2013-07-26 06:21:00,
2013-07-26 01:22:00,78.4,67.8,30.03,South,180,0.0,0.0,70,0.00,,---,0.00,VWS V14.01,2013-07-26 06:22:00,
2013-07-26 01:23:00,78.4,67.8,30.03,SE,135,0.0,0.0,70,0.00,,---,0.00,VWS V14.01,2013-07-26 06:23:00,
2013-07-26 01:24:00,78.4,67.8,30.03,SSW,202,0.0,0.0,70,0.00,,---,0.00,VWS V14.01,2013-07-26 06:24:00,
2013-07-26 01:25:00,78.2,67.7,30.03,NE,45,0.0,0.0,70,0.00,,---,0.00,VWS V14.01,2013-07-26 06:25:00,
2013-07-26 01:26:00,78.2,68.1,30.03,SSE,158,0.0,0.0,71,0.00,,---,0.00,VWS V14.01,2013-07-26 06:26:00,
2013-07-26 01:27:00,78.2,67.7,30.03,ESE,112,0.0,0.0,70,0.00,,---,0.00,VWS V14.01,2013-07-26 06:27:00,
2013-07-26 01:28:00,78.2,68.1,30.03,SE,135,0.0,0.0,71,0.00,,---,0.00,VWS V14.01,2013-07-26 06:28:00,
2013-07-26 01:29:00,78.2,68.1,30.03,SSW,202,0.0,0.0,71,0.00,,---,0.00,VWS V14.01,2013-07-26 06:29:00,
2013-07-26 01:30:00,78.2,68.1,30.03,SE,135,0.0,0.0,71,0.00,,---,0.00,VWS V14.01,2013-07-26 06:30:00,
2013-07-26 01:31:00,78.2,67.7,30.03,ESE,112,0.0,0.0,70,0.00,,---,0.00,VWS V14.01,2013-07-26 06:31:00,
2013-07-26 01:32:00,78.2,68.1,30.03,SE,135,0.0,0.0,71,0.00,,---,0.00,VWS V14.01,2013-07-26 06:32:00,
2013-07-26 01:33:00,78.2,68.1,30.03,ENE,68,0.0,0.0,71,0.00,,---,0.00,VWS V14.01,2013-07-26 06:33:00,
2013-07-26 01:34:00,78.2,68.1,30.03,East,90,0.0,0.0,71,0.00,,---,0.00,VWS V14.01,2013-07-26 06:34:00,
2013-07-26 01:35:00,78.1,67.9,30.03,SW,225,0.0,0.0,71,0.00,,---,0.00,VWS V14.01,2013-07-26 06:35:00,
2013-07-26 01:36:00,78.1,67.9,30.03,SE,135,0.0,0.0,71,0.00,,---,0.00,VWS V14.01,2013-07-26 06:36:00,
2013-07-26 01:37:00,78.1,67.9,30.03,ESE,112,0.0,0.0,71,0.00,,---,0.00,VWS V14.01,2013-07-26 06:37:00,
2013-07-26 01:38:00,78.1,67.9,30.03,SSW,202,0.0,0.0,71,0.00,,---,0.00,VWS V14.01,2013-07-26 06:38:00,
2013-07-26 01:39:00,78.1,67.9,30.03,South,180,0.0,0.0,71,0.00,,---,0.00,VWS V14.01,2013-07-26 06:39:00,
2013-07-26 01:40:00,78.1,67.9,30.03,East,90,0.0,0.0,71,0.00,,---,0.00,VWS V14.01,2013-07-26 06:40:00,
2013-07-26 01:41:00,78.1,67.9,30.03,SSE,158,0.0,0.0,71,0.00,,---,0.00,VWS V14.01,2013-07-26 06:41:00,
2013-07-26 01:42:00,78.1,68.3,30.03,NE,45,0.0,0.0,72,0.00,,---,0.00,VWS V14.01,2013-07-26 06:42:00,
2013-07-26 01:43:00,77.9,67.7,30.03,SW,225,0.0,0.0,71,0.00,,---,0.00,VWS V14.01,2013-07-26 06:43:00,
2013-07-26 01:44:00,77.9,67.7,30.03,ESE,112,0.0,0.0,71,0.00,,---,0.00,VWS V14.01,2013-07-26 06:44:00,
2013-07-26 01:45:00,77.9,68.2,30.03,ESE,112,0.0,0.0,72,0.00,,---,0.00,VWS V14.01,2013-07-26 06:45:00,
2013-07-26 01:46:00,77.9,68.2,30.03,South,180,0.0,0.0,72,0.00,,---,0.00,VWS V14.01,2013-07-26 06:46:00,
2013-07-26 01:47:00,77.7,68.0,30.03,SE,135,0.0,0.0,72,0.00,,---,0.00,VWS V14.01,2013-07-26 06:47:00,
2013-07-26 01:48:00,77.7,68.0,30.03,SE,135,0.0,0.0,72,0.00,,---,0.00,VWS V14.01,2013-07-26 06:48:00,
2013-07-26 01:49:00,77.7,68.0,30.03,South,180,0.0,0.0,72,0.00,,---,0.00,VWS V14.01,2013-07-26 06:49:00,
2013-07-26 01:50:00,77.7,68.4,30.03,SSE,158,0.0,0.0,73,0.00,,---,0.00,VWS V14.01,2013-07-26 06:50:00,
2013-07-26 01:51:00,77.7,68.0,30.03,South,180,0.0,0.0,72,0.00,,---,0.00,VWS V14.01,2013-07-26 06:51:00,
2013-07-26 01:52:00,77.7,68.0,30.03,South,180,0.0,0.0,72,0.00,,---,0.00,VWS V14.01,2013-07-26 06:52:00,
2013-07-26 01:53:00,77.5,68.2,30.03,South,180,0.0,0.0,73,0.00,,---,0.00,VWS V14.01,2013-07-26 06:53:00,
2013-07-26 01:54:00,77.7,68.4,30.03,SE,135,0.0,0.0,73,0.00,,---,0.00,VWS V14.01,2013-07-26 06:54:00,
2013-07-26 01:55:00,77.5,68.2,30.03,SSE,158,0.0,0.0,73,0.00,,---,0.00,VWS V14.01,2013-07-26 06:55:00,
2013-07-26 01:56:00,77.5,68.2,30.03,ESE,112,0.0,0.0,73,0.00,,---,0.00,VWS V14.01,2013-07-26 06:56:00,
2013-07-26 01:57:00,77.5,68.2,30.03,South,180,0.0,0.0,73,0.00,,---,0.00,VWS V14.01,2013-07-26 06:57:00,
2013-07-26 01:58:00,77.4,68.0,30.03,ESE,112,0.0,0.0,73,0.00,,---,0.00,VWS V14.01,2013-07-26 06:58:00,
2013-07-26 01:59:00,77.4,68.0,30.03,SSW,202,0.0,0.0,73,0.00,,---,0.00,VWS V14.01,2013-07-26 06:59:00,
2013-07-26 02:00:00,77.4,68.0,30.03,East,90,0.0,0.0,73,0.00,,---,0.00,VWS V14.01,2013-07-26 07:00:00,
2013-07-26 02:01:00,77.4,68.0,30.03,SSE,158,0.0,0.0,73,0.00,,---,0.00,VWS V14.01,2013-07-26 07:01:00,
2013-07-26 02:02:00,77.4,68.0,30.03,SSE,158,0.0,0.0,73,0.00,,---,0.00,VWS V14.01,2013-07-26 07:02:00,
2013-07-26 02:03:00,77.2,67.9,30.03,SE,135,0.0,0.0,73,0.00,,---,0.00,VWS V14.01,2013-07-26 07:03:00,
2013-07-26 02:04:00,77.2,67.9,30.03,ESE,112,0.0,0.0,73,0.00,,---,0.00,VWS V14.01,2013-07-26 07:04:00,
2013-07-26 02:05:00,77.2,67.9,30.03,South,180,0.0,0.0,73,0.00,,---,0.00,VWS V14.01,2013-07-26 07:05:00,
2013-07-26 02:06:00,77.2,67.9,30.03,ENE,68,0.0,0.0,73,0.00,,---,0.00,VWS V14.01,2013-07-26 07:06:00,
2013-07-26 02:07:00,77.2,67.9,30.03,East,90,0.0,0.0,73,0.00,,---,0.00,VWS V14.01,2013-07-26 07:07:00,
2013-07-26 02:08:00,77.2,68.3,30.03,SSW,202,0.0,0.0,74,0.00,,---,0.00,VWS V14.01,2013-07-26 07:08:00,
2013-07-26 02:09:00,77.2,68.3,30.03,SSW,202,0.0,0.0,74,0.00,,---,0.00,VWS V14.01,2013-07-26 07:09:00,
2013-07-26 02:10:00,77.2,68.3,30.03,South,180,0.0,0.0,74,0.00,,---,0.00,VWS V14.01,2013-07-26 07:10:00,
2013-07-26 02:11:00,77.2,68.3,30.03,SSW,202,0.0,0.0,74,0.00,,---,0.00,VWS V14.01,2013-07-26 07:11:00,
2013-07-26 02:12:00,77.2,68.3,30.03,WNW,292,0.0,0.0,74,0.00,,---,0.00,VWS V14.01,2013-07-26 07:12:00,
2013-07-26 02:13:00,77.0,68.1,30.03,NE,45,0.0,0.0,74,0.00,,---,0.00,VWS V14.01,2013-07-26 07:13:00,
2013-07-26 02:14:00,77.0,68.1,30.03,NNE,22,0.0,0.0,74,0.00,,---,0.00,VWS V14.01,2013-07-26 07:14:00,
2013-07-26 02:15:00,76.8,67.5,30.03,South,180,0.0,0.0,73,0.00,,---,0.00,VWS V14.01,2013-07-26 07:15:00,
2013-07-26 02:16:00,76.8,67.5,30.03,East,90,0.0,0.0,73,0.00,,---,0.00,VWS V14.01,2013-07-26 07:16:00,
2013-07-26 02:17:00,76.8,67.5,30.03,East,90,0.0,0.0,73,0.00,,---,0.00,VWS V14.01,2013-07-26 07:17:00,
2013-07-26 02:18:00,76.7,67.3,30.03,East,90,0.0,0.0,73,0.00,,---,0.00,VWS V14.01,2013-07-26 07:18:00,
2013-07-26 02:19:00,76.7,67.8,30.03,SSW,202,0.0,0.0,74,0.00,,---,0.00,VWS V14.01,2013-07-26 07:19:00,
2013-07-26 02:20:00,76.7,67.3,30.03,SW,225,0.0,0.0,73,0.00,,---,0.00,VWS V14.01,2013-07-26 07:20:00,
2013-07-26 02:21:00,76.5,67.6,30.03,South,180,0.0,0.0,74,0.00,,---,0.00,VWS V14.01,2013-07-26 07:21:00,
2013-07-26 02:22:00,76.5,67.2,30.03,South,180,0.0,0.0,73,0.00,,---,0.00,VWS V14.01,2013-07-26 07:22:00,
2013-07-26 02:23:00,76.5,67.2,30.03,North,0,0.0,0.0,73,0.00,,---,0.00,VWS V14.01,2013-07-26 07:23:00,
2013-07-26 02:24:00,76.3,67.4,30.03,NE,45,0.0,0.0,74,0.00,,---,0.00,VWS V14.01,2013-07-26 07:24:00,
2013-07-26 02:25:00,76.3,67.4,30.03,NNE,22,0.0,0.0,74,0.00,,---,0.00,VWS V14.01,2013-07-26 07:25:00,
2013-07-26 02:26:00,76.3,67.4,30.03,East,90,0.0,0.0,74,0.00,,---,0.00,VWS V14.01,2013-07-26 07:26:00,
2013-07-26 02:27:00,76.3,67.4,30.03,NNE,22,0.0,0.0,74,0.00,,---,0.00,VWS V14.01,2013-07-26 07:27:00,
2013-07-26 02:28:00,76.1,67.2,30.03,NE,45,0.0,0.0,74,0.00,,---,0.00,VWS V14.01,2013-07-26 07:28:00,
2013-07-26 02:29:00,76.1,67.2,30.03,NE,45,0.0,0.0,74,0.00,,---,0.00,VWS V14.01,2013-07-26 07:29:00,
2013-07-26 02:30:00,76.1,67.2,30.03,North,0,0.0,0.0,74,0.00,,---,0.00,VWS V14.01,2013-07-26 07:30:00,
2013-07-26 02:31:00,76.1,67.2,30.00,North,0,0.0,0.0,74,0.00,,---,0.00,VWS V14.01,2013-07-26 07:31:00,
2013-07-26 02:32:00,76.1,67.2,30.00,NE,45,0.0,0.0,74,0.00,,---,0.00,VWS V14.01,2013-07-26 07:32:00,
2013-07-26 02:33:00,76.1,67.2,30.00,SSW,202,0.0,0.0,74,0.00,,---,0.00,VWS V14.01,2013-07-26 07:33:00,
2013-07-26 02:34:00,76.1,67.2,30.00,South,180,0.0,0.0,74,0.00,,---,0.00,VWS V14.01,2013-07-26 07:34:00,
2013-07-26 02:35:00,76.1,67.6,30.00,East,90,0.0,0.0,75,0.00,,---,0.00,VWS V14.01,2013-07-26 07:35:00,
2013-07-26 02:36:00,76.1,67.6,30.00,ESE,112,0.0,0.0,75,0.00,,---,0.00,VWS V14.01,2013-07-26 07:36:00,
2013-07-26 02:37:00,75.9,67.4,30.00,South,180,0.0,0.0,75,0.00,,---,0.00,VWS V14.01,2013-07-26 07:37:00,
2013-07-26 02:38:00,76.1,67.6,30.00,East,90,0.0,0.0,75,0.00,,---,0.00,VWS V14.01,2013-07-26 07:38:00,
2013-07-26 02:39:00,75.9,67.4,30.00,South,180,0.0,0.0,75,0.00,,---,0.00,VWS V14.01,2013-07-26 07:39:00,
2013-07-26 02:40:00,75.9,67.4,30.00,SW,225,0.0,0.0,75,0.00,,---,0.00,VWS V14.01,2013-07-26 07:40:00,
2013-07-26 02:41:00,75.9,67.4,30.00,NE,45,0.0,0.0,75,0.00,,---,0.00,VWS V14.01,2013-07-26 07:41:00,
2013-07-26 02:42:00,75.9,67.4,30.00,East,90,0.0,0.0,75,0.00,,---,0.00,VWS V14.01,2013-07-26 07:42:00,
2013-07-26 02:43:00,75.8,67.3,30.00,East,90,0.0,0.0,75,0.00,,---,0.00,VWS V14.01,2013-07-26 07:43:00,
2013-07-26 02:44:00,75.9,67.8,30.00,SSE,158,0.0,0.0,76,0.00,,---,0.00,VWS V14.01,2013-07-26 07:44:00,
2013-07-26 02:45:00,75.9,67.8,30.00,SE,135,0.0,0.0,76,0.00,,---,0.00,VWS V14.01,2013-07-26 07:45:00,
2013-07-26 02:46:00,75.9,67.8,30.00,ESE,112,0.0,0.0,76,0.00,,---,0.00,VWS V14.01,2013-07-26 07:46:00,
2013-07-26 02:47:00,75.9,67.4,30.00,SW,225,0.0,0.0,75,0.00,,---,0.00,VWS V14.01,2013-07-26 07:47:00,
2013-07-26 02:48:00,75.9,67.4,30.00,South,180,0.0,0.0,75,0.00,,---,0.00,VWS V14.01,2013-07-26 07:48:00,
2013-07-26 02:49:00,75.8,67.3,30.00,SE,135,0.0,0.0,75,0.00,,---,0.00,VWS V14.01,2013-07-26 07:49:00,
2013-07-26 02:50:00,75.8,67.3,30.00,SE,135,0.0,0.0,75,0.00,,---,0.00,VWS V14.01,2013-07-26 07:50:00,
2013-07-26 02:51:00,75.8,67.3,30.00,South,180,0.0,0.0,75,0.00,,---,0.00,VWS V14.01,2013-07-26 07:51:00,
2013-07-26 02:52:00,75.8,67.3,30.00,ENE,68,0.0,0.0,75,0.00,,---,0.00,VWS V14.01,2013-07-26 07:52:00,
2013-07-26 02:53:00,75.8,67.3,30.00,ESE,112,0.0,0.0,75,0.00,,---,0.00,VWS V14.01,2013-07-26 07:53:00,
2013-07-26 02:54:00,75.6,67.1,30.00,South,180,0.0,0.0,75,0.00,,---,0.00,VWS V14.01,2013-07-26 07:54:00,
2013-07-26 02:55:00,75.6,66.7,30.00,South,180,0.0,0.0,74,0.00,,---,0.00,VWS V14.01,2013-07-26 07:55:00,
2013-07-26 02:56:00,75.6,66.7,30.00,NNE,22,0.0,0.0,74,0.00,,---,0.00,VWS V14.01,2013-07-26 07:56:00,
2013-07-26 02:57:00,75.6,66.7,30.00,SW,225,0.0,0.0,74,0.00,,---,0.00,VWS V14.01,2013-07-26 07:57:00,
2013-07-26 02:58:00,75.6,66.7,30.00,North,0,0.0,0.0,74,0.00,,---,0.00,VWS V14.01,2013-07-26 07:58:00,
2013-07-26 02:59:00,75.6,66.7,30.00,SE,135,0.0,0.0,74,0.00,,---,0.00,VWS V14.01,2013-07-26 07:59:00,
2013-07-26 03:00:00,75.6,66.7,30.00,South,180,0.0,0.0,74,0.00,,---,0.00,VWS V14.01,2013-07-26 08:00:00,
2013-07-26 03:01:00,75.6,66.7,30.00,East,90,0.0,0.0,74,0.00,,---,0.00,VWS V14.01,2013-07-26 08:01:00,
2013-07-26 03:02:00,75.6,66.7,30.00,SE,135,0.0,0.0,74,0.00,,---,0.00,VWS V14.01,2013-07-26 08:02:00,
2013-07-26 03:03:00,75.6,66.7,30.00,SE,135,0.0,0.0,74,0.00,,---,0.00,VWS V14.01,2013-07-26 08:03:00,
2013-07-26 03:04:00,75.6,66.7,30.00,ESE,112,0.0,0.0,74,0.00,,---,0.00,VWS V14.01,2013-07-26 08:04:00,
2013-07-26 03:05:00,75.6,66.7,30.00,NE,45,0.0,0.0,74,0.00,,---,0.00,VWS V14.01,2013-07-26 08:05:00,
2013-07-26 03:06:00,75.4,66.6,30.00,SSE,158,0.0,0.0,74,0.00,,---,0.00,VWS V14.01,2013-07-26 08:06:00,
2013-07-26 03:07:00,75.6,67.1,30.00,South,180,0.0,0.0,75,0.00,,---,0.00,VWS V14.01,2013-07-26 08:07:00,
2013-07-26 03:08:00,75.6,67.1,30.00,East,90,0.0,0.0,75,0.00,,---,0.00,VWS V14.01,2013-07-26 08:08:00,
2013-07-26 03:09:00,75.6,67.1,30.00,East,90,0.0,0.0,75,0.00,,---,0.00,VWS V14.01,2013-07-26 08:09:00,
2013-07-26 03:10:00,75.6,67.1,30.00,SE,135,0.0,0.0,75,0.00,,---,0.00,VWS V14.01,2013-07-26 08:10:00,
2013-07-26 03:11:00,75.6,67.1,30.00,East,90,0.0,0.0,75,0.00,,---,0.00,VWS V14.01,2013-07-26 08:11:00,
2013-07-26 03:12:00,75.6,67.1,30.00,SSW,202,0.0,0.0,75,0.00,,---,0.00,VWS V14.01,2013-07-26 08:12:00,
2013-07-26 03:13:00,75.6,67.1,30.00,ESE,112,0.0,0.0,75,0.00,,---,0.00,VWS V14.01,2013-07-26 08:13:00,
2013-07-26 03:14:00,75.8,66.9,30.00,ESE,112,0.0,0.0,74,0.00,,---,0.00,VWS V14.01,2013-07-26 08:14:00,
2013-07-26 03:15:00,75.6,66.7,30.00,ESE,112,0.0,0.0,74,0.00,,---,0.00,VWS V14.01,2013-07-26 08:15:00,
2013-07-26 03:16:00,75.6,66.7,30.03,ESE,112,0.0,0.0,74,0.00,,---,0.00,VWS V14.01,2013-07-26 08:16:00,
2013-07-26 03:17:00,75.6,66.7,30.03,ESE,112,0.0,0.0,74,0.00,,---,0.00,VWS V14.01,2013-07-26 08:17:00,
2013-07-26 03:18:00,75.6,66.7,30.03,ESE,112,0.0,0.0,74,0.00,,---,0.00,VWS V14.01,2013-07-26 08:18:00,
2013-07-26 03:19:00,75.4,66.6,30.03,South,180,0.0,0.0,74,0.00,,---,0.00,VWS V14.01,2013-07-26 08:19:00,
2013-07-26 03:20:00,75.4,66.6,30.03,WSW,248,0.0,0.0,74,0.00,,---,0.00,VWS V14.01,2013-07-26 08:20:00,
2013-07-26 03:21:00,75.6,66.7,30.03,NW,315,0.0,0.0,74,0.00,,---,0.00,VWS V14.01,2013-07-26 08:21:00,
2013-07-26 03:22:00,75.6,66.7,30.03,SSW,202,0.0,0.0,74,0.00,,---,0.00,VWS V14.01,2013-07-26 08:22:00,
2013-07-26 03:23:00,75.6,66.7,30.03,SE,135,0.0,0.0,74,0.00,,---,0.00,VWS V14.01,2013-07-26 08:23:00,
2013-07-26 03:24:00,75.6,66.7,30.03,ESE,112,0.0,0.0,74,0.00,,---,0.00,VWS V14.01,2013-07-26 08:24:00,
2013-07-26 03:25:00,75.6,67.1,30.03,ENE,68,0.0,0.0,75,0.00,,---,0.00,VWS V14.01,2013-07-26 08:25:00,
2013-07-26 03:26:00,75.6,67.1,30.03,South,180,0.0,0.0,75,0.00,,---,0.00,VWS V14.01,2013-07-26 08:26:00,
2013-07-26 03:27:00,75.6,67.1,30.03,South,180,0.0,0.0,75,0.00,,---,0.00,VWS V14.01,2013-07-26 08:27:00,
2013-07-26 03:28:00,75.6,67.1,30.03,South,180,0.0,0.0,75,0.00,,---,0.00,VWS V14.01,2013-07-26 08:28:00,
2013-07-26 03:29:00,75.6,67.1,30.03,South,180,0.0,0.0,75,0.00,,---,0.00,VWS V14.01,2013-07-26 08:29:00,
2013-07-26 03:30:00,75.6,67.1,30.03,SSW,202,0.0,0.0,75,0.00,,---,0.00,VWS V14.01,2013-07-26 08:30:00,
2013-07-26 03:31:00,75.6,67.1,30.03,SSE,158,0.0,0.0,75,0.00,,---,0.00,VWS V14.01,2013-07-26 08:31:00,
2013-07-26 03:32:00,75.6,67.1,30.03,SE,135,0.0,0.0,75,0.00,,---,0.00,VWS V14.01,2013-07-26 08:32:00,
2013-07-26 03:33:00,75.6,66.7,30.03,ESE,112,0.0,0.0,74,0.00,,---,0.00,VWS V14.01,2013-07-26 08:33:00,
2013-07-26 03:34:00,75.6,66.7,30.03,South,180,0.0,0.0,74,0.00,,---,0.00,VWS V14.01,2013-07-26 08:34:00,
2013-07-26 03:35:00,75.6,66.7,30.03,SSW,202,0.0,0.0,74,0.00,,---,0.00,VWS V14.01,2013-07-26 08:35:00,
2013-07-26 03:36:00,75.6,67.1,30.03,South,180,0.0,0.0,75,0.00,,---,0.00,VWS V14.01,2013-07-26 08:36:00,
2013-07-26 03:37:00,75.6,67.1,30.03,SW,225,0.0,0.0,75,0.00,,---,0.00,VWS V14.01,2013-07-26 08:37:00,
2013-07-26 03:38:00,75.6,67.1,30.03,SSW,202,0.0,0.0,75,0.00,,---,0.00,VWS V14.01,2013-07-26 08:38:00,
2013-07-26 03:39:00,75.6,67.1,30.03,South,180,0.0,0.0,75,0.00,,---,0.00,VWS V14.01,2013-07-26 08:39:00,
2013-07-26 03:40:00,75.6,67.1,30.03,East,90,0.0,0.0,75,0.00,,---,0.00,VWS V14.01,2013-07-26 08:40:00,
2013-07-26 03:41:00,75.6,67.1,30.03,South,180,0.0,0.0,75,0.00,,---,0.00,VWS V14.01,2013-07-26 08:41:00,
2013-07-26 03:42:00,75.4,66.9,30.03,East,90,0.0,0.0,75,0.00,,---,0.00,VWS V14.01,2013-07-26 08:42:00,
2013-07-26 03:43:00,75.4,66.9,30.03,South,180,0.0,0.0,75,0.00,,---,0.00,VWS V14.01,2013-07-26 08:43:00,
2013-07-26 03:44:00,75.4,66.9,30.03,South,180,0.0,0.0,75,0.00,,---,0.00,VWS V14.01,2013-07-26 08:44:00,
2013-07-26 03:45:00,75.4,66.9,30.03,South,180,0.0,0.0,75,0.00,,---,0.00,VWS V14.01,2013-07-26 08:45:00,
2013-07-26 03:46:00,75.4,66.9,30.03,SSE,158,0.0,0.0,75,0.00,,---,0.00,VWS V14.01,2013-07-26 08:46:00,
2013-07-26 03:47:00,75.4,66.9,30.03,SSW,202,0.0,0.0,75,0.00,,---,0.00,VWS V14.01,2013-07-26 08:47:00,
2013-07-26 03:48:00,75.4,66.9,30.03,SE,135,0.0,0.0,75,0.00,,---,0.00,VWS V14.01,2013-07-26 08:48:00,
2013-07-26 03:49:00,75.4,66.9,30.03,SE,135,0.0,0.0,75,0.00,,---,0.00,VWS V14.01,2013-07-26 08:49:00,
2013-07-26 03:50:00,75.4,66.9,30.03,SE,135,0.0,0.0,75,0.00,,---,0.00,VWS V14.01,2013-07-26 08:50:00,
2013-07-26 03:51:00,75.4,66.9,30.03,SE,135,0.0,0.0,75,0.00,,---,0.00,VWS V14.01,2013-07-26 08:51:00,
2013-07-26 03:52:00,75.4,66.9,30.03,NE,45,0.0,0.0,75,0.00,,---,0.00,VWS V14.01,2013-07-26 08:52:00,
2013-07-26 03:53:00,75.4,66.9,30.03,East,90,0.0,0.0,75,0.00,,---,0.00,VWS V14.01,2013-07-26 08:53:00,
2013-07-26 03:54:00,75.2,66.4,30.03,ESE,112,0.0,0.0,74,0.00,,---,0.00,VWS V14.01,2013-07-26 08:54:00,
2013-07-26 03:55:00,75.2,66.4,30.03,SE,135,0.0,0.0,74,0.00,,---,0.00,VWS V14.01,2013-07-26 08:55:00,
2013-07-26 03:56:00,75.2,66.4,30.03,SE,135,0.0,0.0,74,0.00,,---,0.00,VWS V14.01,2013-07-26 08:56:00,
2013-07-26 03:57:00,75.2,66.4,30.03,ENE,68,0.0,0.0,74,0.00,,---,0.00,VWS V14.01,2013-07-26 08:57:00,
2013-07-26 03:58:00,75.2,66.8,30.03,South,180,0.0,0.0,75,0.00,,---,0.00,VWS V14.01,2013-07-26 08:58:00,
2013-07-26 03:59:00,75.2,66.8,30.03,South,180,0.0,0.0,75,0.00,,---,0.00,VWS V14.01,2013-07-26 08:59:00,
2013-07-26 04:00:00,75.2,66.8,30.03,East,90,0.0,0.0,75,0.00,,---,0.29,VWS V14.01,2013-07-26 09:00:00,
2013-07-26 04:01:00,75.2,66.8,30.03,South,180,0.0,0.0,75,0.00,,---,0.00,VWS V14.01,2013-07-26 09:01:00,
2013-07-26 04:02:00,75.2,66.8,30.03,South,180,0.0,0.0,75,0.00,,---,0.00,VWS V14.01,2013-07-26 09:02:00,
2013-07-26 04:03:00,75.2,66.8,30.03,SE,135,0.0,0.0,75,0.00,,---,0.00,VWS V14.01,2013-07-26 09:03:00,
2013-07-26 04:04:00,75.2,66.8,30.03,SW,225,0.0,0.0,75,0.00,,---,0.00,VWS V14.01,2013-07-26 09:04:00,
2013-07-26 04:05:00,75.2,66.8,30.03,ESE,112,0.0,0.0,75,0.00,,---,0.00,VWS V14.01,2013-07-26 09:05:00,
2013-07-26 04:06:00,75.1,66.6,30.03,South,180,0.0,0.0,75,0.00,,---,0.00,VWS V14.01,2013-07-26 09:06:00,
2013-07-26 04:07:00,75.1,66.6,30.03,SSE,158,0.0,0.0,75,0.00,,---,0.00,VWS V14.01,2013-07-26 09:07:00,
2013-07-26 04:08:00,75.1,66.6,30.03,East,90,0.0,0.0,75,0.00,,---,0.00,VWS V14.01,2013-07-26 09:08:00,
2013-07-26 04:09:00,75.1,66.6,30.03,East,90,0.0,0.0,75,0.00,,---,0.00,VWS V14.01,2013-07-26 09:09:00,
2013-07-26 04:10:00,75.1,66.6,30.03,SSW,202,0.0,0.0,75,0.00,,---,0.00,VWS V14.01,2013-07-26 09:10:00,
2013-07-26 04:11:00,74.9,66.4,30.03,South,180,0.0,0.0,75,0.00,,---,0.00,VWS V14.01,2013-07-26 09:11:00,
2013-07-26 04:12:00,75.1,66.6,30.03,SE,135,0.0,0.0,75,0.00,,---,0.00,VWS V14.01,2013-07-26 09:12:00,
2013-07-26 04:13:00,74.9,66.4,30.03,ESE,112,0.0,0.0,75,0.00,,---,0.00,VWS V14.01,2013-07-26 09:13:00,
2013-07-26 04:14:00,74.9,66.4,30.03,East,90,0.0,0.0,75,0.00,,---,0.00,VWS V14.01,2013-07-26 09:14:00,
2013-07-26 04:15:00,74.9,66.4,30.03,SSE,158,0.0,0.0,75,0.00,,---,0.00,VWS V14.01,2013-07-26 09:15:00,
2013-07-26 04:16:00,74.9,66.4,30.00,East,90,0.0,0.0,75,0.00,,---,0.00,VWS V14.01,2013-07-26 09:16:00,
2013-07-26 04:17:00,74.9,66.4,30.00,SE,135,0.0,0.0,75,0.00,,---,0.00,VWS V14.01,2013-07-26 09:17:00,
2013-07-26 04:18:00,74.7,66.3,30.00,South,180,0.0,0.0,75,0.00,,---,0.00,VWS V14.01,2013-07-26 09:18:00,
2013-07-26 04:19:00,74.7,66.3,30.00,SSW,202,0.0,0.0,75,0.00,,---,0.00,VWS V14.01,2013-07-26 09:19:00,
2013-07-26 04:20:00,74.7,66.3,30.00,ESE,112,0.0,0.0,75,0.00,,---,0.00,VWS V14.01,2013-07-26 09:20:00,
2013-07-26 04:21:00,74.7,66.3,30.00,ESE,112,0.0,0.0,75,0.00,,---,0.00,VWS V14.01,2013-07-26 09:21:00,
2013-07-26 04:22:00,74.7,66.3,30.00,South,180,0.0,0.0,75,0.00,,---,0.00,VWS V14.01,2013-07-26 09:22:00,
2013-07-26 04:23:00,74.7,66.6,30.00,SE,135,0.0,0.0,76,0.00,,---,0.00,VWS V14.01,2013-07-26 09:23:00,
2013-07-26 04:24:00,74.7,66.6,30.00,NE,45,0.0,0.0,76,0.00,,---,0.00,VWS V14.01,2013-07-26 09:24:00,
2013-07-26 04:25:00,74.7,66.3,30.00,SE,135,0.0,0.0,75,0.00,,---,0.00,VWS V14.01,2013-07-26 09:25:00,
2013-07-26 04:26:00,74.7,66.3,30.00,SSE,158,0.0,0.0,75,0.00,,---,0.00,VWS V14.01,2013-07-26 09:26:00,
2013-07-26 04:27:00,74.5,66.1,30.00,SE,135,0.0,0.0,75,0.00,,---,0.00,VWS V14.01,2013-07-26 09:27:00,
2013-07-26 04:28:00,74.5,66.1,30.00,South,180,0.0,0.0,75,0.00,,---,0.00,VWS V14.01,2013-07-26 09:28:00,
2013-07-26 04:29:00,74.5,66.1,30.00,SSE,158,0.0,0.0,75,0.00,,---,0.00,VWS V14.01,2013-07-26 09:29:00,
2013-07-26 04:30:00,74.5,66.1,30.00,East,90,0.0,0.0,75,0.00,,---,0.00,VWS V14.01,2013-07-26 09:30:00,
2013-07-26 04:31:00,74.5,66.5,30.00,ESE,112,0.0,0.0,76,0.00,,---,0.00,VWS V14.01,2013-07-26 09:31:00,
2013-07-26 04:32:00,74.5,66.5,30.00,SE,135,0.0,0.0,76,0.00,,---,0.00,VWS V14.01,2013-07-26 09:32:00,
2013-07-26 04:33:00,74.3,66.3,30.00,SE,135,0.0,0.0,76,0.00,,---,0.00,VWS V14.01,2013-07-26 09:33:00,
2013-07-26 04:34:00,74.3,66.3,30.00,SSE,158,0.0,0.0,76,0.00,,---,0.00,VWS V14.01,2013-07-26 09:34:00,
2013-07-26 04:35:00,74.3,66.3,30.00,ESE,112,0.0,0.0,76,0.00,,---,0.00,VWS V14.01,2013-07-26 09:35:00,
2013-07-26 04:36:00,74.3,66.3,30.00,SSE,158,0.0,0.0,76,0.00,,---,0.00,VWS V14.01,2013-07-26 09:36:00,
2013-07-26 04:37:00,74.3,66.3,30.00,SSW,202,0.0,0.0,76,0.00,,---,0.00,VWS V14.01,2013-07-26 09:37:00,
2013-07-26 04:38:00,74.3,66.3,30.00,South,180,0.0,0.0,76,0.00,,---,0.00,VWS V14.01,2013-07-26 09:38:00,
2013-07-26 04:39:00,74.3,66.3,30.00,East,90,0.0,0.0,76,0.00,,---,0.00,VWS V14.01,2013-07-26 09:39:00,
2013-07-26 04:40:00,74.3,66.3,30.00,SSW,202,0.0,0.0,76,0.00,,---,0.00,VWS V14.01,2013-07-26 09:40:00,
2013-07-26 04:41:00,74.3,66.7,30.00,South,180,0.0,0.0,77,0.00,,---,0.00,VWS V14.01,2013-07-26 09:41:00,
2013-07-26 04:42:00,74.3,66.7,30.00,ESE,112,0.0,0.0,77,0.00,,---,0.00,VWS V14.01,2013-07-26 09:42:00,
2013-07-26 04:43:00,74.3,66.3,30.00,South,180,0.0,0.0,76,0.00,,---,0.00,VWS V14.01,2013-07-26 09:43:00,
2013-07-26 04:44:00,74.2,66.5,30.00,South,180,0.0,0.0,77,0.00,,---,0.00,VWS V14.01,2013-07-26 09:44:00,
2013-07-26 04:45:00,74.2,66.5,30.00,SSE,158,0.0,0.0,77,0.00,,---,0.00,VWS V14.01,2013-07-26 09:45:00,
2013-07-26 04:46:00,74.2,66.5,30.00,SE,135,0.0,0.0,77,0.00,,---,0.00,VWS V14.01,2013-07-26 09:46:00,
2013-07-26 04:47:00,74.2,66.5,30.00,SSE,158,0.0,0.0,77,0.00,,---,0.00,VWS V14.01,2013-07-26 09:47:00,
2013-07-26 04:48:00,74.2,66.5,30.00,SW,225,0.0,0.0,77,0.00,,---,0.00,VWS V14.01,2013-07-26 09:48:00,
2013-07-26 04:49:00,74.2,66.5,30.00,South,180,0.0,0.0,77,0.00,,---,0.00,VWS V14.01,2013-07-26 09:49:00,
2013-07-26 04:50:00,74.2,66.5,30.00,SE,135,0.0,0.0,77,0.00,,---,0.00,VWS V14.01,2013-07-26 09:50:00,
2013-07-26 04:51:00,74.2,66.5,30.00,SE,135,0.0,0.0,77,0.00,,---,0.00,VWS V14.01,2013-07-26 09:51:00,
2013-07-26 04:52:00,74.2,66.5,30.00,SSE,158,0.0,0.0,77,0.00,,---,0.00,VWS V14.01,2013-07-26 09:52:00,
2013-07-26 04:53:00,74.2,66.5,30.00,SE,135,0.0,0.0,77,0.00,,---,0.00,VWS V14.01,2013-07-26 09:53:00,
2013-07-26 04:54:00,74.2,66.5,30.00,SSE,158,0.0,0.0,77,0.00,,---,0.00,VWS V14.01,2013-07-26 09:54:00,
2013-07-26 04:55:00,74.2,66.5,30.00,East,90,0.0,0.0,77,0.00,,---,0.00,VWS V14.01,2013-07-26 09:55:00,
2013-07-26 04:56:00,74.2,66.9,30.00,SSE,158,0.0,0.0,78,0.00,,---,0.00,VWS V14.01,2013-07-26 09:56:00,
2013-07-26 04:57:00,74.2,66.5,30.00,South,180,0.0,0.0,77,0.00,,---,0.00,VWS V14.01,2013-07-26 09:57:00,
2013-07-26 04:58:00,74.0,66.3,30.00,ESE,112,0.0,0.0,77,0.00,,---,0.00,VWS V14.01,2013-07-26 09:58:00,
2013-07-26 04:59:00,74.0,66.3,30.00,SW,225,0.0,0.0,77,0.00,,---,0.00,VWS V14.01,2013-07-26 09:59:00,
2013-07-26 05:00:00,74.0,66.7,30.00,ENE,68,0.0,0.0,78,0.00,,---,0.00,VWS V14.01,2013-07-26 10:00:00,
2013-07-26 05:01:00,74.0,66.7,30.00,East,90,0.0,0.0,78,0.00,,---,0.00,VWS V14.01,2013-07-26 10:01:00,
2013-07-26 05:02:00,74.0,66.3,30.00,East,90,0.0,0.0,77,0.00,,---,0.00,VWS V14.01,2013-07-26 10:02:00,
2013-07-26 05:03:00,74.0,66.7,30.00,ESE,112,0.0,0.0,78,0.00,,---,0.00,VWS V14.01,2013-07-26 10:03:00,
2013-07-26 05:04:00,74.0,66.7,30.00,SE,135,0.0,0.0,78,0.00,,---,0.00,VWS V14.01,2013-07-26 10:04:00,
2013-07-26 05:05:00,74.0,66.7,30.00,SE,135,0.0,0.0,78,0.00,,---,0.00,VWS V14.01,2013-07-26 10:05:00,
2013-07-26 05:06:00,73.8,66.5,30.00,East,90,0.0,0.0,78,0.00,,---,0.00,VWS V14.01,2013-07-26 10:06:00,
2013-07-26 05:07:00,73.8,66.5,30.00,East,90,0.0,0.0,78,0.00,,---,0.00,VWS V14.01,2013-07-26 10:07:00,
2013-07-26 05:08:00,73.8,66.5,30.00,SE,135,0.0,0.0,78,0.00,,---,0.00,VWS V14.01,2013-07-26 10:08:00,
2013-07-26 05:09:00,73.8,66.5,30.00,ESE,112,0.0,0.0,78,0.00,,---,0.00,VWS V14.01,2013-07-26 10:09:00,
2013-07-26 05:10:00,73.6,66.4,30.00,East,90,0.0,0.0,78,0.00,,---,0.00,VWS V14.01,2013-07-26 10:10:00,
2013-07-26 05:11:00,73.6,66.4,30.00,East,90,0.0,0.0,78,0.00,,---,0.00,VWS V14.01,2013-07-26 10:11:00,
2013-07-26 05:12:00,73.6,66.4,30.00,East,90,0.0,0.0,78,0.00,,---,0.00,VWS V14.01,2013-07-26 10:12:00,
2013-07-26 05:13:00,73.6,66.4,30.00,ESE,112,0.0,0.0,78,0.00,,---,0.00,VWS V14.01,2013-07-26 10:13:00,
2013-07-26 05:14:00,73.6,66.4,30.00,ESE,112,0.0,0.0,78,0.00,,---,0.00,VWS V14.01,2013-07-26 10:14:00,
2013-07-26 05:15:00,73.6,66.4,30.00,ESE,112,0.0,0.0,78,0.00,,---,0.00,VWS V14.01,2013-07-26 10:15:00,
2013-07-26 05:16:00,73.6,66.4,30.03,ESE,112,0.0,0.0,78,0.00,,---,0.00,VWS V14.01,2013-07-26 10:16:00,
2013-07-26 05:17:00,73.5,66.2,30.03,SE,135,0.0,0.0,78,0.00,,---,0.00,VWS V14.01,2013-07-26 10:17:00,
2013-07-26 05:18:00,73.5,66.2,30.03,ESE,112,0.0,0.0,78,0.00,,---,0.00,VWS V14.01,2013-07-26 10:18:00,
2013-07-26 05:19:00,73.5,66.6,30.03,SE,135,0.0,0.0,79,0.00,,---,0.00,VWS V14.01,2013-07-26 10:19:00,
2013-07-26 05:20:00,73.5,66.6,30.03,SE,135,0.0,0.0,79,0.00,,---,0.00,VWS V14.01,2013-07-26 10:20:00,
2013-07-26 05:21:00,73.5,66.6,30.03,South,180,0.0,0.0,79,0.00,,---,0.00,VWS V14.01,2013-07-26 10:21:00,
2013-07-26 05:22:00,73.5,66.6,30.03,ESE,112,0.0,0.0,79,0.00,,---,0.00,VWS V14.01,2013-07-26 10:22:00,
2013-07-26 05:23:00,73.5,66.6,30.03,ESE,112,0.0,0.0,79,0.00,,---,0.00,VWS V14.01,2013-07-26 10:23:00,
2013-07-26 05:24:00,73.5,66.6,30.03,South,180,0.0,0.0,79,0.00,,---,0.00,VWS V14.01,2013-07-26 10:24:00,
2013-07-26 05:25:00,73.3,66.4,30.03,ESE,112,0.0,0.0,79,0.00,,---,0.00,VWS V14.01,2013-07-26 10:25:00,
2013-07-26 05:26:00,73.3,66.4,30.03,SE,135,0.0,0.0,79,0.00,,---,0.00,VWS V14.01,2013-07-26 10:26:00,
2013-07-26 05:27:00,73.3,66.4,30.03,SE,135,0.0,0.0,79,0.00,,---,0.00,VWS V14.01,2013-07-26 10:27:00,
2013-07-26 05:28:00,73.3,66.4,30.03,SE,135,0.0,0.0,79,0.00,,---,0.00,VWS V14.01,2013-07-26 10:28:00,
2013-07-26 05:29:00,73.3,66.4,30.03,SE,135,0.0,0.0,79,0.00,,---,0.00,VWS V14.01,2013-07-26 10:29:00,
2013-07-26 05:30:00,73.3,66.4,30.03,SSE,158,0.0,0.0,79,0.00,,---,0.00,VWS V14.01,2013-07-26 10:30:00,
2013-07-26 05:31:00,73.3,66.4,30.03,SSE,158,0.0,0.0,79,0.00,,---,0.00,VWS V14.01,2013-07-26 10:31:00,
2013-07-26 05:32:00,73.3,66.4,30.03,ESE,112,0.0,0.0,79,0.00,,---,0.00,VWS V14.01,2013-07-26 10:32:00,
2013-07-26 05:33:00,73.3,66.8,30.03,SE,135,0.0,0.0,80,0.00,,---,0.00,VWS V14.01,2013-07-26 10:33:00,
2013-07-26 05:34:00,73.3,66.8,30.03,East,90,0.0,0.0,80,0.00,,---,0.00,VWS V14.01,2013-07-26 10:34:00,
2013-07-26 05:35:00,73.3,66.8,30.03,East,90,0.0,0.0,80,0.00,,---,0.00,VWS V14.01,2013-07-26 10:35:00,
2013-07-26 05:36:00,73.3,66.8,30.03,ESE,112,0.0,0.0,80,0.00,,---,0.00,VWS V14.01,2013-07-26 10:36:00,
2013-07-26 05:37:00,73.3,66.8,30.03,SE,135,0.0,0.0,80,0.00,,---,0.00,VWS V14.01,2013-07-26 10:37:00,
2013-07-26 05:38:00,73.3,66.8,30.03,ESE,112,0.0,0.0,80,0.00,,---,0.00,VWS V14.01,2013-07-26 10:38:00,
2013-07-26 05:39:00,73.3,66.8,30.03,ESE,112,0.0,0.0,80,0.00,,---,0.00,VWS V14.01,2013-07-26 10:39:00,
2013-07-26 05:40:00,73.3,66.8,30.03,SSE,158,0.0,0.0,80,0.00,,---,0.00,VWS V14.01,2013-07-26 10:40:00,
2013-07-26 05:41:00,73.3,66.8,30.03,SE,135,0.0,0.0,80,0.00,,---,0.00,VWS V14.01,2013-07-26 10:41:00,
2013-07-26 05:42:00,73.3,66.8,30.03,East,90,0.0,0.0,80,0.00,,---,0.00,VWS V14.01,2013-07-26 10:42:00,
2013-07-26 05:43:00,73.3,66.8,30.03,SE,135,0.0,0.0,80,0.00,,---,0.00,VWS V14.01,2013-07-26 10:43:00,
2013-07-26 05:44:00,73.3,66.8,30.03,SE,135,0.0,0.0,80,0.00,,---,0.00,VWS V14.01,2013-07-26 10:44:00,
2013-07-26 05:45:00,73.3,66.8,30.03,SSE,158,0.0,0.0,80,0.00,,---,0.00,VWS V14.01,2013-07-26 10:45:00,
2013-07-26 05:46:00,73.3,66.8,30.03,ESE,112,0.0,0.0,80,0.00,,---,0.00,VWS V14.01,2013-07-26 10:46:00,
2013-07-26 05:47:00,73.3,66.8,30.03,ESE,112,0.0,0.0,80,0.00,,---,0.00,VWS V14.01,2013-07-26 10:47:00,
2013-07-26 05:48:00,73.3,66.8,30.03,ESE,112,0.0,0.0,80,0.00,,---,0.00,VWS V14.01,2013-07-26 10:48:00,
2013-07-26 05:49:00,73.1,66.6,30.03,SSE,158,0.0,0.0,80,0.00,,---,0.00,VWS V14.01,2013-07-26 10:49:00,
2013-07-26 05:50:00,73.1,66.6,30.03,ESE,112,0.0,0.0,80,0.00,,---,0.00,VWS V14.01,2013-07-26 10:50:00,
2013-07-26 05:51:00,73.1,66.6,30.03,ESE,112,0.0,0.0,80,0.00,,---,0.00,VWS V14.01,2013-07-26 10:51:00,
2013-07-26 05:52:00,73.1,66.6,30.03,ESE,112,0.0,0.0,80,0.00,,---,0.00,VWS V14.01,2013-07-26 10:52:00,
2013-07-26 05:53:00,73.1,66.6,30.03,ESE,112,0.0,0.0,80,0.00,,---,0.00,VWS V14.01,2013-07-26 10:53:00,
2013-07-26 05:54:00,73.1,66.6,30.03,ESE,112,0.0,0.0,80,0.00,,---,0.00,VWS V14.01,2013-07-26 10:54:00,
2013-07-26 05:55:00,73.1,66.6,30.03,ESE,112,0.0,0.0,80,0.00,,---,0.00,VWS V14.01,2013-07-26 10:55:00,
2013-07-26 05:56:00,73.1,66.6,30.03,SE,135,0.0,0.0,80,0.00,,---,0.00,VWS V14.01,2013-07-26 10:56:00,
2013-07-26 05:57:00,73.1,66.6,30.03,SE,135,0.0,0.0,80,0.00,,---,0.00,VWS V14.01,2013-07-26 10:57:00,
2013-07-26 05:58:00,73.1,66.6,30.03,East,90,0.0,0.0,80,0.00,,---,0.00,VWS V14.01,2013-07-26 10:58:00,
2013-07-26 05:59:00,73.1,66.6,30.03,SE,135,0.0,0.0,80,0.00,,---,0.00,VWS V14.01,2013-07-26 10:59:00,
2013-07-26 06:00:00,73.1,66.6,30.03,SE,135,0.0,0.0,80,0.00,,---,0.00,VWS V14.01,2013-07-26 11:00:00,
2013-07-26 06:01:00,73.1,66.6,30.03,SE,135,0.0,0.0,80,0.00,,---,0.00,VWS V14.01,2013-07-26 11:01:00,
2013-07-26 06:02:00,73.1,66.6,30.03,SE,135,0.0,0.0,80,0.00,,---,0.00,VWS V14.01,2013-07-26 11:02:00,
2013-07-26 06:03:00,73.1,66.9,30.03,SSE,158,0.0,0.0,81,0.00,,---,0.00,VWS V14.01,2013-07-26 11:03:00,
2013-07-26 06:04:00,73.1,66.9,30.03,South,180,0.0,0.0,81,0.00,,---,0.00,VWS V14.01,2013-07-26 11:04:00,
2013-07-26 06:05:00,73.1,66.9,30.03,SE,135,0.0,0.0,81,0.00,,---,0.00,VWS V14.01,2013-07-26 11:05:00,
2013-07-26 06:06:00,73.1,66.9,30.03,ESE,112,0.0,0.0,81,0.00,,---,0.00,VWS V14.01,2013-07-26 11:06:00,
2013-07-26 06:07:00,73.1,66.9,30.03,South,180,0.0,0.0,81,0.00,,---,0.00,VWS V14.01,2013-07-26 11:07:00,
2013-07-26 06:08:00,73.3,67.1,30.03,SE,135,0.0,0.0,81,0.00,,---,0.00,VWS V14.01,2013-07-26 11:08:00,
2013-07-26 06:09:00,73.3,67.1,30.03,ESE,112,0.0,0.0,81,0.00,,---,0.00,VWS V14.01,2013-07-26 11:09:00,
2013-07-26 06:10:00,73.3,67.1,30.03,ESE,112,0.0,0.0,81,0.00,,---,0.00,VWS V14.01,2013-07-26 11:10:00,
2013-07-26 06:11:00,73.3,67.1,30.03,SE,135,0.0,0.0,81,0.00,,---,0.00,VWS V14.01,2013-07-26 11:11:00,
2013-07-26 06:12:00,73.3,67.1,30.03,East,90,0.0,0.0,81,0.00,,---,0.00,VWS V14.01,2013-07-26 11:12:00,
2013-07-26 06:13:00,73.3,67.1,30.03,ESE,112,0.0,0.0,81,0.00,,---,0.00,VWS V14.01,2013-07-26 11:13:00,
2013-07-26 06:14:00,73.3,67.1,30.03,ESE,112,0.0,0.0,81,0.00,,---,0.00,VWS V14.01,2013-07-26 11:14:00,
2013-07-26 06:15:00,73.3,67.1,30.03,East,90,0.0,0.0,81,0.00,,---,0.00,VWS V14.01,2013-07-26 11:15:00,
2013-07-26 06:16:00,73.3,67.5,30.03,ESE,112,0.0,0.0,82,0.00,,---,0.00,VWS V14.01,2013-07-26 11:16:00,
2013-07-26 06:17:00,73.3,67.5,30.03,East,90,0.0,0.0,82,0.00,,---,0.00,VWS V14.01,2013-07-26 11:17:00,
2013-07-26 06:18:00,73.5,67.6,30.03,SE,135,0.0,0.0,82,0.00,,---,0.00,VWS V14.01,2013-07-26 11:18:00,
2013-07-26 06:19:00,73.5,67.6,30.03,SSE,158,0.0,0.0,82,0.00,,---,0.00,VWS V14.01,2013-07-26 11:19:00,
2013-07-26 06:20:00,73.5,67.6,30.03,SE,135,0.0,0.0,82,0.00,,---,0.00,VWS V14.01,2013-07-26 11:20:00,
2013-07-26 06:21:00,73.5,67.6,30.03,SE,135,0.0,0.0,82,0.00,,---,0.00,VWS V14.01,2013-07-26 11:21:00,
2013-07-26 06:22:00,73.5,67.6,30.03,SE,135,0.0,0.0,82,0.00,,---,0.00,VWS V14.01,2013-07-26 11:22:00,
2013-07-26 06:23:00,73.5,67.6,30.03,SE,135,0.0,0.0,82,0.00,,---,0.00,VWS V14.01,2013-07-26 11:23:00,
2013-07-26 06:24:00,73.5,67.6,30.03,ESE,112,0.0,0.0,82,0.00,,---,0.00,VWS V14.01,2013-07-26 11:24:00,
2013-07-26 06:25:00,73.5,67.3,30.03,East,90,0.0,0.0,81,0.00,,---,0.00,VWS V14.01,2013-07-26 11:25:00,
2013-07-26 06:26:00,73.5,67.3,30.03,SE,135,0.0,0.0,81,0.00,,---,0.00,VWS V14.01,2013-07-26 11:26:00,
2013-07-26 06:27:00,73.5,67.3,30.03,East,90,0.0,0.0,81,0.00,,---,0.00,VWS V14.01,2013-07-26 11:27:00,
2013-07-26 06:28:00,73.5,67.3,30.03,East,90,0.0,0.0,81,0.00,,---,0.00,VWS V14.01,2013-07-26 11:28:00,
2013-07-26 06:29:00,73.5,67.3,30.03,East,90,0.0,0.0,81,0.00,,---,0.00,VWS V14.01,2013-07-26 11:29:00,
2013-07-26 06:30:00,73.5,67.3,30.03,East,90,0.0,0.0,81,0.00,,---,0.00,VWS V14.01,2013-07-26 11:30:00,
2013-07-26 06:31:00,73.5,67.3,30.06,ESE,112,0.0,0.0,81,0.00,,---,0.00,VWS V14.01,2013-07-26 11:31:00,
2013-07-26 06:32:00,73.5,67.3,30.06,East,90,0.0,0.0,81,0.00,,---,0.00,VWS V14.01,2013-07-26 11:32:00,
2013-07-26 06:33:00,73.5,67.3,30.06,ENE,68,0.0,0.0,81,0.00,,---,0.00,VWS V14.01,2013-07-26 11:33:00,
2013-07-26 06:34:00,73.5,67.3,30.06,East,90,0.0,0.0,81,0.00,,---,0.00,VWS V14.01,2013-07-26 11:34:00,
2013-07-26 06:35:00,73.5,67.3,30.06,East,90,0.0,0.0,81,0.00,,---,0.00,VWS V14.01,2013-07-26 11:35:00,
2013-07-26 06:36:00,73.3,67.1,30.06,SE,135,0.0,0.0,81,0.00,,---,0.00,VWS V14.01,2013-07-26 11:36:00,
2013-07-26 06:37:00,73.3,67.1,30.06,ESE,112,0.0,0.0,81,0.00,,---,0.00,VWS V14.01,2013-07-26 11:37:00,
2013-07-26 06:38:00,73.3,67.1,30.06,ENE,68,0.0,0.0,81,0.00,,---,0.00,VWS V14.01,2013-07-26 11:38:00,
2013-07-26 06:39:00,73.3,67.1,30.06,ESE,112,0.0,0.0,81,0.00,,---,0.00,VWS V14.01,2013-07-26 11:39:00,
2013-07-26 06:40:00,73.3,67.1,30.06,SSE,158,0.0,0.0,81,0.00,,---,0.00,VWS V14.01,2013-07-26 11:40:00,
2013-07-26 06:41:00,73.3,67.1,30.06,East,90,0.0,0.0,81,0.00,,---,0.00,VWS V14.01,2013-07-26 11:41:00,
2013-07-26 06:42:00,73.3,67.1,30.06,SSE,158,0.0,0.0,81,0.00,,---,0.00,VWS V14.01,2013-07-26 11:42:00,
2013-07-26 06:43:00,73.3,67.1,30.06,SE,135,0.0,0.0,81,0.00,,---,0.00,VWS V14.01,2013-07-26 11:43:00,
2013-07-26 06:44:00,73.3,67.1,30.06,East,90,0.0,0.0,81,0.00,,---,0.00,VWS V14.01,2013-07-26 11:44:00,
2013-07-26 06:45:00,73.3,67.1,30.06,ESE,112,0.0,0.0,81,0.00,,---,0.00,VWS V14.01,2013-07-26 11:45:00,
2013-07-26 06:46:00,73.3,67.5,30.03,East,90,0.0,0.0,82,0.00,,---,0.00,VWS V14.01,2013-07-26 11:46:00,
2013-07-26 06:47:00,73.3,67.5,30.03,East,90,0.0,0.0,82,0.00,,---,0.00,VWS V14.01,2013-07-26 11:47:00,
2013-07-26 06:48:00,73.1,67.3,30.03,East,90,0.0,0.0,82,0.00,,---,0.00,VWS V14.01,2013-07-26 11:48:00,
2013-07-26 06:49:00,73.1,67.3,30.03,East,90,0.0,0.0,82,0.00,,---,0.00,VWS V14.01,2013-07-26 11:49:00,
2013-07-26 06:50:00,73.3,67.5,30.03,ENE,68,0.0,0.0,82,0.00,,---,0.00,VWS V14.01,2013-07-26 11:50:00,
2013-07-26 06:51:00,73.1,67.3,30.03,East,90,0.0,0.0,82,0.00,,---,0.00,VWS V14.01,2013-07-26 11:51:00,
2013-07-26 06:52:00,73.1,67.3,30.03,East,90,0.0,0.0,82,0.00,,---,0.00,VWS V14.01,2013-07-26 11:52:00,
2013-07-26 06:53:00,73.1,67.3,30.03,ESE,112,0.0,0.0,82,0.00,,---,0.00,VWS V14.01,2013-07-26 11:53:00,
2013-07-26 06:54:00,73.1,67.3,30.03,ESE,112,0.0,0.0,82,0.00,,---,0.00,VWS V14.01,2013-07-26 11:54:00,
2013-07-26 06:55:00,73.1,67.3,30.03,SE,135,0.0,0.0,82,0.00,,---,0.00,VWS V14.01,2013-07-26 11:55:00,
2013-07-26 06:56:00,73.1,67.3,30.03,SE,135,0.0,0.0,82,0.00,,---,0.00,VWS V14.01,2013-07-26 11:56:00,
2013-07-26 06:57:00,73.3,67.5,30.03,ESE,112,0.0,0.0,82,0.00,,---,0.00,VWS V14.01,2013-07-26 11:57:00,
2013-07-26 06:58:00,73.3,67.5,30.03,ESE,112,0.0,0.0,82,0.00,,---,0.00,VWS V14.01,2013-07-26 11:58:00,
2013-07-26 06:59:00,73.3,67.5,30.03,SE,135,0.0,0.0,82,0.00,,---,0.00,VWS V14.01,2013-07-26 11:59:00,
2013-07-26 07:00:00,73.3,67.5,30.03,SE,135,0.0,0.0,82,0.00,,---,0.00,VWS V14.01,2013-07-26 12:00:00,
2013-07-26 07:01:00,73.3,67.8,30.03,ESE,112,0.0,0.0,83,0.00,,---,0.00,VWS V14.01,2013-07-26 12:01:00,
2013-07-26 07:02:00,73.3,67.8,30.03,SE,135,0.0,0.0,83,0.00,,---,0.00,VWS V14.01,2013-07-26 12:02:00,
2013-07-26 07:03:00,73.3,67.8,30.03,ESE,112,0.0,0.0,83,0.00,,---,0.00,VWS V14.01,2013-07-26 12:03:00,
2013-07-26 07:04:00,73.3,67.8,30.03,SE,135,0.0,0.0,83,0.00,,---,0.00,VWS V14.01,2013-07-26 12:04:00,
2013-07-26 07:05:00,73.5,68.0,30.03,East,90,0.0,0.0,83,0.00,,---,0.00,VWS V14.01,2013-07-26 12:05:00,
2013-07-26 07:06:00,73.5,68.0,30.03,SE,135,0.0,0.0,83,0.00,,---,0.00,VWS V14.01,2013-07-26 12:06:00,
2013-07-26 07:07:00,73.5,68.0,30.03,East,90,0.0,0.0,83,0.00,,---,0.00,VWS V14.01,2013-07-26 12:07:00,
2013-07-26 07:08:00,73.5,68.0,30.03,SE,135,0.0,0.0,83,0.00,,---,0.00,VWS V14.01,2013-07-26 12:08:00,
2013-07-26 07:09:00,73.5,68.0,30.03,SE,135,0.0,0.0,83,0.00,,---,0.00,VWS V14.01,2013-07-26 12:09:00,
2013-07-26 07:10:00,73.5,68.0,30.03,East,90,0.0,0.0,83,0.00,,---,0.00,VWS V14.01,2013-07-26 12:10:00,
2013-07-26 07:11:00,73.6,68.2,30.03,ESE,112,0.0,0.0,83,0.00,,---,0.00,VWS V14.01,2013-07-26 12:11:00,
2013-07-26 07:12:00,73.6,68.2,30.03,ESE,112,0.0,0.0,83,0.00,,---,0.00,VWS V14.01,2013-07-26 12:12:00,
2013-07-26 07:13:00,73.6,68.2,30.03,ESE,112,0.0,0.0,83,0.00,,---,0.00,VWS V14.01,2013-07-26 12:13:00,
2013-07-26 07:14:00,73.6,68.2,30.03,East,90,0.0,0.0,83,0.00,,---,0.00,VWS V14.01,2013-07-26 12:14:00,
2013-07-26 07:15:00,73.8,68.3,30.03,ESE,112,0.0,0.0,83,0.00,,---,0.00,VWS V14.01,2013-07-26 12:15:00,
2013-07-26 07:16:00,74.0,68.5,30.03,SE,135,0.0,0.0,83,0.00,,---,0.00,VWS V14.01,2013-07-26 12:16:00,
2013-07-26 07:17:00,74.2,68.7,30.03,East,90,0.0,0.0,83,0.00,,---,0.00,VWS V14.01,2013-07-26 12:17:00,
2013-07-26 07:18:00,74.3,68.8,30.03,SE,135,0.0,0.0,83,0.00,,---,0.00,VWS V14.01,2013-07-26 12:18:00,
2013-07-26 07:19:00,74.5,69.0,30.03,ESE,112,0.0,0.0,83,0.00,,---,0.00,VWS V14.01,2013-07-26 12:19:00,
2013-07-26 07:20:00,74.5,69.0,30.03,SE,135,0.0,0.0,83,0.00,,---,0.00,VWS V14.01,2013-07-26 12:20:00,
2013-07-26 07:21:00,74.7,68.8,30.03,SE,135,0.0,0.0,82,0.00,,---,0.00,VWS V14.01,2013-07-26 12:21:00,
2013-07-26 07:22:00,74.9,69.0,30.03,South,180,0.0,0.0,82,0.00,,---,0.00,VWS V14.01,2013-07-26 12:22:00,
2013-07-26 07:23:00,75.1,69.2,30.03,East,90,0.0,0.0,82,0.00,,---,0.00,VWS V14.01,2013-07-26 12:23:00,
2013-07-26 07:24:00,75.2,69.4,30.03,SSW,202,0.0,0.0,82,0.00,,---,0.00,VWS V14.01,2013-07-26 12:24:00,
2013-07-26 07:25:00,75.4,69.2,30.03,South,180,0.0,0.0,81,0.00,,---,0.00,VWS V14.01,2013-07-26 12:25:00,
2013-07-26 07:26:00,75.6,69.3,30.03,SE,135,0.0,0.0,81,0.00,,---,0.00,VWS V14.01,2013-07-26 12:26:00,
2013-07-26 07:27:00,75.9,69.7,30.03,ESE,112,0.0,0.0,81,0.00,,---,0.00,VWS V14.01,2013-07-26 12:27:00,
2013-07-26 07:28:00,75.9,69.7,30.03,ESE,112,0.0,0.0,81,0.00,,---,0.00,VWS V14.01,2013-07-26 12:28:00,
2013-07-26 07:29:00,76.3,69.7,30.03,SSW,202,0.0,0.0,80,0.00,,---,0.00,VWS V14.01,2013-07-26 12:29:00,
2013-07-26 07:30:00,76.5,69.8,30.03,SE,135,0.0,0.0,80,0.00,,---,0.00,VWS V14.01,2013-07-26 12:30:00,
2013-07-26 07:31:00,76.7,69.7,30.06,SE,135,0.0,0.0,79,0.00,,---,0.00,VWS V14.01,2013-07-26 12:31:00,
2013-07-26 07:32:00,76.8,69.8,30.06,ESE,112,0.0,0.0,79,0.00,,---,0.00,VWS V14.01,2013-07-26 12:32:00,
2013-07-26 07:33:00,77.0,70.0,30.06,ESE,112,0.0,0.0,79,0.00,,---,0.00,VWS V14.01,2013-07-26 12:33:00,
2013-07-26 07:34:00,77.0,70.0,30.06,East,90,0.0,0.0,79,0.00,,---,0.00,VWS V14.01,2013-07-26 12:34:00,
2013-07-26 07:35:00,77.2,70.2,30.06,SE,135,0.0,0.0,79,0.00,,---,0.00,VWS V14.01,2013-07-26 12:35:00,
2013-07-26 07:36:00,77.2,70.2,30.06,SSE,158,0.0,0.0,79,0.00,,---,0.00,VWS V14.01,2013-07-26 12:36:00,
2013-07-26 07:37:00,77.4,70.0,30.06,ENE,68,0.0,0.0,78,0.00,,---,0.00,VWS V14.01,2013-07-26 12:37:00,
2013-07-26 07:38:00,77.4,70.0,30.06,East,90,0.0,0.0,78,0.00,,---,0.00,VWS V14.01,2013-07-26 12:38:00,
2013-07-26 07:39:00,77.4,70.0,30.06,South,180,0.0,0.0,78,0.00,,---,0.00,VWS V14.01,2013-07-26 12:39:00,
2013-07-26 07:40:00,77.4,70.0,30.06,South,180,0.0,0.0,78,0.00,,---,0.00,VWS V14.01,2013-07-26 12:40:00,
2013-07-26 07:41:00,77.4,69.6,30.06,ESE,112,0.0,0.0,77,0.00,,---,0.00,VWS V14.01,2013-07-26 12:41:00,
2013-07-26 07:42:00,77.5,69.8,30.06,SE,135,0.0,0.0,77,0.00,,---,0.00,VWS V14.01,2013-07-26 12:42:00,
2013-07-26 07:43:00,77.5,69.8,30.06,South,180,0.0,0.0,77,0.00,,---,0.00,VWS V14.01,2013-07-26 12:43:00,
2013-07-26 07:44:00,77.5,69.8,30.06,East,90,0.0,0.0,77,0.00,,---,0.00,VWS V14.01,2013-07-26 12:44:00,
2013-07-26 07:45:00,77.5,69.8,30.06,South,180,0.0,0.0,77,0.00,,---,0.00,VWS V14.01,2013-07-26 12:45:00,
2013-07-26 07:46:00,77.5,69.8,30.06,SE,135,0.0,0.0,77,0.00,,---,0.00,VWS V14.01,2013-07-26 12:46:00,
2013-07-26 07:47:00,77.5,69.8,30.06,East,90,0.0,0.0,77,0.00,,---,0.00,VWS V14.01,2013-07-26 12:47:00,
2013-07-26 07:48:00,77.5,69.4,30.06,East,90,0.0,0.0,76,0.00,,---,0.00,VWS V14.01,2013-07-26 12:48:00,
2013-07-26 07:49:00,77.4,69.2,30.06,ESE,112,0.0,0.0,76,0.00,,---,0.00,VWS V14.01,2013-07-26 12:49:00,
2013-07-26 07:50:00,77.4,69.2,30.06,SSW,202,0.0,0.0,76,0.00,,---,0.00,VWS V14.01,2013-07-26 12:50:00,
2013-07-26 07:51:00,77.2,69.0,30.06,SSW,202,0.0,0.0,76,0.00,,---,0.00,VWS V14.01,2013-07-26 12:51:00,
2013-07-26 07:52:00,77.2,69.0,30.06,East,90,0.0,0.0,76,0.00,,---,0.00,VWS V14.01,2013-07-26 12:52:00,
2013-07-26 07:53:00,77.2,69.0,30.06,SE,135,0.0,0.0,76,0.00,,---,0.00,VWS V14.01,2013-07-26 12:53:00,
2013-07-26 07:54:00,77.0,68.9,30.06,SSW,202,0.0,0.0,76,0.00,,---,0.00,VWS V14.01,2013-07-26 12:54:00,
2013-07-26 07:55:00,76.8,68.7,30.06,South,180,0.0,0.0,76,0.00,,---,0.00,VWS V14.01,2013-07-26 12:55:00,
2013-07-26 07:56:00,76.8,68.7,30.06,East,90,0.0,0.0,76,0.00,,---,0.00,VWS V14.01,2013-07-26 12:56:00,
2013-07-26 07:57:00,76.8,68.7,30.06,South,180,0.0,0.0,76,0.00,,---,0.00,VWS V14.01,2013-07-26 12:57:00,
2013-07-26 07:58:00,76.8,69.1,30.06,South,180,0.0,0.0,77,0.00,,---,0.00,VWS V14.01,2013-07-26 12:58:00,
2013-07-26 07:59:00,77.0,69.2,30.06,South,180,0.0,0.0,77,0.00,,---,0.00,VWS V14.01,2013-07-26 12:59:00,
2013-07-26 08:00:00,77.0,69.2,30.06,South,180,0.0,0.0,77,0.00,,---,0.00,VWS V14.01,2013-07-26 13:00:00,
2013-07-26 08:01:00,77.0,69.2,30.06,SSW,202,0.0,0.0,77,0.00,,---,0.00,VWS V14.01,2013-07-26 13:01:00,
2013-07-26 08:02:00,77.0,69.2,30.06,South,180,0.0,0.0,77,0.00,,---,0.00,VWS V14.01,2013-07-26 13:02:00,
2013-07-26 08:03:00,77.0,69.2,30.06,SE,135,0.0,0.0,77,0.00,,---,0.00,VWS V14.01,2013-07-26 13:03:00,
2013-07-26 08:04:00,77.2,69.4,30.06,SE,135,0.0,0.0,77,0.00,,---,0.00,VWS V14.01,2013-07-26 13:04:00,
2013-07-26 08:05:00,77.2,69.4,30.06,East,90,0.0,0.0,77,0.00,,---,0.00,VWS V14.01,2013-07-26 13:05:00,
2013-07-26 08:06:00,77.4,69.6,30.06,SSW,202,0.0,0.0,77,0.00,,---,0.00,VWS V14.01,2013-07-26 13:06:00,
2013-07-26 08:07:00,77.4,69.2,30.06,South,180,0.0,0.0,76,0.00,,---,0.00,VWS V14.01,2013-07-26 13:07:00,
2013-07-26 08:08:00,77.4,69.2,30.06,SE,135,0.0,0.0,76,0.00,,---,0.00,VWS V14.01,2013-07-26 13:08:00,
2013-07-26 08:09:00,77.5,69.8,30.06,SSE,158,0.0,0.0,77,0.00,,---,0.00,VWS V14.01,2013-07-26 13:09:00,
2013-07-26 08:10:00,77.5,69.8,30.06,SE,135,0.0,0.0,77,0.00,,---,0.00,VWS V14.01,2013-07-26 13:10:00,
2013-07-26 08:11:00,77.7,69.6,30.06,SSE,158,0.0,0.0,76,0.00,,---,0.00,VWS V14.01,2013-07-26 13:11:00,
2013-07-26 08:12:00,77.9,69.7,30.06,ESE,112,0.0,0.0,76,0.00,,---,0.00,VWS V14.01,2013-07-26 13:12:00,
2013-07-26 08:13:00,77.9,69.7,30.06,SSW,202,0.0,0.0,76,0.00,,---,0.00,VWS V14.01,2013-07-26 13:13:00,
2013-07-26 08:14:00,78.1,69.9,30.06,SW,225,0.0,0.0,76,0.00,,---,0.00,VWS V14.01,2013-07-26 13:14:00,
2013-07-26 08:15:00,78.1,69.9,30.06,NE,45,0.0,0.0,76,0.00,,---,0.00,VWS V14.01,2013-07-26 13:15:00,
2013-07-26 08:16:00,78.1,69.9,30.06,SE,135,0.0,0.0,76,0.00,,---,0.00,VWS V14.01,2013-07-26 13:16:00,
2013-07-26 08:17:00,78.2,69.7,30.06,South,180,0.0,0.0,75,0.00,,---,0.00,VWS V14.01,2013-07-26 13:17:00,
2013-07-26 08:18:00,78.4,69.8,30.06,South,180,0.0,0.0,75,0.00,,---,0.00,VWS V14.01,2013-07-26 13:18:00,
2013-07-26 08:19:00,78.4,69.8,30.06,SE,135,0.0,0.0,75,0.00,,---,0.00,VWS V14.01,2013-07-26 13:19:00,
2013-07-26 08:20:00,78.4,69.8,30.06,SW,225,0.0,0.0,75,0.00,,---,0.00,VWS V14.01,2013-07-26 13:20:00,
2013-07-26 08:21:00,78.4,69.8,30.06,East,90,0.0,0.0,75,0.00,,---,0.00,VWS V14.01,2013-07-26 13:21:00,
2013-07-26 08:22:00,78.6,70.0,30.06,SSE,158,0.0,0.0,75,0.00,,---,0.00,VWS V14.01,2013-07-26 13:22:00,
2013-07-26 08:23:00,78.6,69.6,30.06,WSW,248,0.0,0.0,74,0.00,,---,0.00,VWS V14.01,2013-07-26 13:23:00,
2013-07-26 08:24:00,78.8,69.8,30.06,East,90,0.0,0.0,74,0.00,,---,0.00,VWS V14.01,2013-07-26 13:24:00,
2013-07-26 08:25:00,78.8,69.8,30.06,ESE,112,0.0,0.0,74,0.00,,---,0.00,VWS V14.01,2013-07-26 13:25:00,
2013-07-26 08:26:00,78.8,69.8,30.06,ESE,112,0.0,0.0,74,0.00,,---,0.00,VWS V14.01,2013-07-26 13:26:00,
2013-07-26 08:27:00,78.8,69.8,30.06,South,180,0.0,0.0,74,0.00,,---,0.00,VWS V14.01,2013-07-26 13:27:00,
2013-07-26 08:28:00,78.8,69.8,30.06,South,180,0.0,0.0,74,0.00,,---,0.00,VWS V14.01,2013-07-26 13:28:00,
2013-07-26 08:29:00,78.8,69.8,30.06,SE,135,0.0,0.0,74,0.00,,---,0.00,VWS V14.01,2013-07-26 13:29:00,
2013-07-26 08:30:00,78.9,70.0,30.06,East,90,0.0,0.0,74,0.00,,---,0.00,VWS V14.01,2013-07-26 13:30:00,
2013-07-26 08:31:00,78.9,69.6,30.06,South,180,0.0,0.0,73,0.00,,---,0.00,VWS V14.01,2013-07-26 13:31:00,
2013-07-26 08:32:00,79.1,69.7,30.06,South,180,0.0,0.0,73,0.00,,---,0.00,VWS V14.01,2013-07-26 13:32:00,
2013-07-26 08:33:00,79.3,69.9,30.06,SW,225,0.0,0.0,73,0.00,,---,0.00,VWS V14.01,2013-07-26 13:33:00,
2013-07-26 08:34:00,79.3,69.9,30.06,SSW,202,0.0,0.0,73,0.00,,---,0.00,VWS V14.01,2013-07-26 13:34:00,
2013-07-26 08:35:00,79.5,70.1,30.06,SSW,202,0.0,0.0,73,0.00,,---,0.00,VWS V14.01,2013-07-26 13:35:00,
2013-07-26 08:36:00,79.3,69.9,30.06,SW,225,0.0,0.0,73,0.00,,---,0.00,VWS V14.01,2013-07-26 13:36:00,
2013-07-26 08:37:00,79.5,70.1,30.06,ESE,112,0.0,0.0,73,0.00,,---,0.00,VWS V14.01,2013-07-26 13:37:00,
2013-07-26 08:38:00,79.7,69.8,30.06,SE,135,0.0,0.0,72,0.00,,---,0.00,VWS V14.01,2013-07-26 13:38:00,
2013-07-26 08:39:00,79.8,70.0,30.06,East,90,0.0,0.0,72,0.00,,---,0.00,VWS V14.01,2013-07-26 13:39:00,
2013-07-26 08:40:00,80.0,70.2,30.06,SE,135,0.0,0.0,72,0.00,,---,0.00,VWS V14.01,2013-07-26 13:40:00,
2013-07-26 08:41:00,80.0,70.2,30.06,ESE,112,0.0,0.0,72,0.00,,---,0.00,VWS V14.01,2013-07-26 13:41:00,
2013-07-26 08:42:00,80.2,70.4,30.06,South,180,0.0,0.0,72,0.00,,---,0.00,VWS V14.01,2013-07-26 13:42:00,
2013-07-26 08:43:00,80.2,69.9,30.06,South,180,0.0,0.0,71,0.00,,---,0.00,VWS V14.01,2013-07-26 13:43:00,
2013-07-26 08:44:00,80.2,69.9,30.06,South,180,0.0,0.0,71,0.00,,---,0.00,VWS V14.01,2013-07-26 13:44:00,
2013-07-26 08:45:00,80.2,69.9,30.06,SSE,158,0.0,0.0,71,0.00,,---,0.00,VWS V14.01,2013-07-26 13:45:00,
2013-07-26 08:46:00,80.4,70.1,30.06,ESE,112,0.0,0.0,71,0.00,,---,0.00,VWS V14.01,2013-07-26 13:46:00,
2013-07-26 08:47:00,80.6,69.9,30.06,South,180,0.0,0.0,70,0.00,,---,0.00,VWS V14.01,2013-07-26 13:47:00,
2013-07-26 08:48:00,80.6,69.9,30.06,East,90,0.0,0.0,70,0.00,,---,0.00,VWS V14.01,2013-07-26 13:48:00,
2013-07-26 08:49:00,80.6,69.9,30.06,East,90,0.0,0.0,70,0.00,,---,0.00,VWS V14.01,2013-07-26 13:49:00,
2013-07-26 08:50:00,80.7,70.0,30.06,SSE,158,0.0,0.0,70,0.00,,---,0.00,VWS V14.01,2013-07-26 13:50:00,
2013-07-26 08:51:00,80.7,69.6,30.06,SW,225,0.0,0.0,69,0.00,,---,0.00,VWS V14.01,2013-07-26 13:51:00,
2013-07-26 08:52:00,80.7,69.6,30.06,SW,225,0.0,0.0,69,0.00,,---,0.00,VWS V14.01,2013-07-26 13:52:00,
2013-07-26 08:53:00,80.7,70.0,30.06,SW,225,0.0,0.0,70,0.00,,---,0.00,VWS V14.01,2013-07-26 13:53:00,
2013-07-26 08:54:00,81.1,70.4,30.06,East,90,0.0,0.0,70,0.00,,---,0.00,VWS V14.01,2013-07-26 13:54:00,
2013-07-26 08:55:00,81.3,70.6,30.06,SSE,158,0.0,0.0,70,0.00,,---,0.00,VWS V14.01,2013-07-26 13:55:00,
2013-07-26 08:56:00,81.4,70.7,30.06,SSE,158,0.0,0.0,70,0.00,,---,0.00,VWS V14.01,2013-07-26 13:56:00,
2013-07-26 08:57:00,81.6,70.9,30.06,SSW,202,0.0,0.0,70,0.00,,---,0.00,VWS V14.01,2013-07-26 13:57:00,
2013-07-26 08:58:00,81.6,70.9,30.06,SE,135,0.0,0.0,70,0.00,,---,0.00,VWS V14.01,2013-07-26 13:58:00,
2013-07-26 08:59:00,81.8,70.6,30.06,SSE,158,0.0,0.0,69,0.00,,---,0.00,VWS V14.01,2013-07-26 13:59:00,
2013-07-26 09:00:00,82.0,70.8,30.06,SSE,158,0.0,0.0,69,0.00,,---,0.00,VWS V14.01,2013-07-26 14:00:00,
2013-07-26 09:01:00,82.2,71.0,30.06,SSE,158,0.0,0.0,69,0.00,,---,0.00,VWS V14.01,2013-07-26 14:01:00,
2013-07-26 09:02:00,82.3,70.3,30.06,SSW,202,0.0,0.0,67,0.00,,---,0.00,VWS V14.01,2013-07-26 14:02:00,
2013-07-26 09:03:00,82.2,70.1,30.06,SSE,158,0.0,0.0,67,0.00,,---,0.00,VWS V14.01,2013-07-26 14:03:00,
2013-07-26 09:04:00,82.3,70.3,30.06,SSE,158,0.0,0.0,67,0.00,,---,0.00,VWS V14.01,2013-07-26 14:04:00,
2013-07-26 09:05:00,82.5,70.4,30.06,ESE,112,0.0,0.0,67,0.00,,---,0.00,VWS V14.01,2013-07-26 14:05:00,
2013-07-26 09:06:00,82.7,70.6,30.06,ESE,112,0.0,0.0,67,0.00,,---,0.00,VWS V14.01,2013-07-26 14:06:00,
2013-07-26 09:07:00,82.7,70.2,30.06,SW,225,0.0,0.0,66,0.00,,---,0.00,VWS V14.01,2013-07-26 14:07:00,
2013-07-26 09:08:00,82.9,70.8,30.06,South,180,0.0,0.0,67,0.00,,---,0.00,VWS V14.01,2013-07-26 14:08:00,
2013-07-26 09:09:00,82.9,70.3,30.06,ESE,112,0.0,0.0,66,0.00,,---,0.00,VWS V14.01,2013-07-26 14:09:00,
2013-07-26 09:10:00,82.9,70.3,30.06,ENE,68,0.0,0.0,66,0.00,,---,0.00,VWS V14.01,2013-07-26 14:10:00,
2013-07-26 09:11:00,83.0,70.5,30.06,East,90,0.0,0.0,66,0.00,,---,0.00,VWS V14.01,2013-07-26 14:11:00,
2013-07-26 09:12:00,83.0,70.1,30.06,SSW,202,0.0,0.0,65,0.00,,---,0.00,VWS V14.01,2013-07-26 14:12:00,
2013-07-26 09:13:00,83.0,70.1,30.06,ESE,112,0.0,0.0,65,0.00,,---,0.00,VWS V14.01,2013-07-26 14:13:00,
2013-07-26 09:14:00,83.2,70.2,30.06,ESE,112,0.0,0.0,65,0.00,,---,0.00,VWS V14.01,2013-07-26 14:14:00,
2013-07-26 09:15:00,83.4,70.4,30.06,East,90,0.0,0.0,65,0.00,,---,0.00,VWS V14.01,2013-07-26 14:15:00,
2013-07-26 09:16:00,83.4,70.4,30.06,SE,135,0.0,0.0,65,0.00,,---,0.00,VWS V14.01,2013-07-26 14:16:00,
2013-07-26 09:17:00,83.6,70.6,30.06,SSW,202,0.0,0.0,65,0.00,,---,0.00,VWS V14.01,2013-07-26 14:17:00,
2013-07-26 09:18:00,83.7,70.3,30.06,SE,135,0.0,0.0,64,0.00,,---,0.00,VWS V14.01,2013-07-26 14:18:00,
2013-07-26 09:19:00,83.9,70.9,30.06,East,90,0.0,0.0,65,0.00,,---,0.00,VWS V14.01,2013-07-26 14:19:00,
2013-07-26 09:20:00,83.9,70.4,30.06,SSE,158,0.0,0.0,64,0.00,,---,0.00,VWS V14.01,2013-07-26 14:20:00,
2013-07-26 09:21:00,84.1,70.6,30.06,ESE,112,0.0,0.0,64,0.00,,---,0.00,VWS V14.01,2013-07-26 14:21:00,
2013-07-26 09:22:00,84.3,70.8,30.06,SSE,158,0.0,0.0,64,0.00,,---,0.00,VWS V14.01,2013-07-26 14:22:00,
2013-07-26 09:23:00,84.3,70.8,30.06,East,90,0.0,0.0,64,0.00,,---,0.00,VWS V14.01,2013-07-26 14:23:00,
2013-07-26 09:24:00,84.4,70.9,30.06,ESE,112,0.0,0.0,64,0.00,,---,0.00,VWS V14.01,2013-07-26 14:24:00,
2013-07-26 09:25:00,84.6,70.7,30.06,SE,135,0.0,0.0,63,0.00,,---,0.00,VWS V14.01,2013-07-26 14:25:00,
2013-07-26 09:26:00,84.6,70.7,30.06,WSW,248,0.0,0.0,63,0.00,,---,0.00,VWS V14.01,2013-07-26 14:26:00,
2013-07-26 09:27:00,84.6,70.7,30.06,NNW,338,0.0,0.0,63,0.00,,---,0.00,VWS V14.01,2013-07-26 14:27:00,
2013-07-26 09:28:00,84.6,70.2,30.06,SE,135,0.0,0.0,62,0.00,,---,0.00,VWS V14.01,2013-07-26 14:28:00,
2013-07-26 09:29:00,84.8,70.3,30.06,SSE,158,0.0,0.0,62,0.00,,---,0.00,VWS V14.01,2013-07-26 14:29:00,
2013-07-26 09:30:00,85.0,70.5,30.06,SSW,202,0.0,0.0,62,0.00,,---,0.00,VWS V14.01,2013-07-26 14:30:00,
2013-07-26 09:31:00,85.0,70.0,30.06,SSW,202,0.0,0.0,61,0.00,,---,0.00,VWS V14.01,2013-07-26 14:31:00,
2013-07-26 09:32:00,84.8,69.9,30.06,SSW,202,0.0,0.0,61,0.00,,---,0.00,VWS V14.01,2013-07-26 14:32:00,
2013-07-26 09:33:00,84.8,69.9,30.06,SE,135,0.0,0.0,61,0.00,,---,0.00,VWS V14.01,2013-07-26 14:33:00,
2013-07-26 09:34:00,84.8,69.9,30.06,South,180,0.0,0.0,61,0.00,,---,0.00,VWS V14.01,2013-07-26 14:34:00,
2013-07-26 09:35:00,84.8,69.9,30.06,East,90,0.0,0.0,61,0.00,,---,0.00,VWS V14.01,2013-07-26 14:35:00,
2013-07-26 09:36:00,85.0,70.0,30.06,East,90,0.0,0.0,61,0.00,,---,0.00,VWS V14.01,2013-07-26 14:36:00,
2013-07-26 09:37:00,85.0,70.0,30.06,East,90,0.0,0.0,61,0.00,,---,0.00,VWS V14.01,2013-07-26 14:37:00,
2013-07-26 09:38:00,85.2,70.2,30.06,South,180,0.0,0.0,61,0.00,,---,0.00,VWS V14.01,2013-07-26 14:38:00,
2013-07-26 09:39:00,85.2,69.7,30.06,South,180,0.0,0.0,60,0.00,,---,0.00,VWS V14.01,2013-07-26 14:39:00,
2013-07-26 09:40:00,85.3,69.9,30.06,South,180,0.0,0.0,60,0.00,,---,0.00,VWS V14.01,2013-07-26 14:40:00,
2013-07-26 09:41:00,85.3,69.9,30.06,SE,135,0.0,0.0,60,0.00,,---,0.00,VWS V14.01,2013-07-26 14:41:00,
2013-07-26 09:42:00,85.5,70.1,30.06,SSW,202,0.0,0.0,60,0.00,,---,0.00,VWS V14.01,2013-07-26 14:42:00,
2013-07-26 09:43:00,85.5,70.1,30.06,SSW,202,0.0,0.0,60,0.00,,---,0.00,VWS V14.01,2013-07-26 14:43:00,
2013-07-26 09:44:00,85.7,69.7,30.06,SSW,202,0.0,0.0,59,0.00,,---,0.00,VWS V14.01,2013-07-26 14:44:00,
2013-07-26 09:45:00,85.9,70.4,30.06,SE,135,0.0,0.0,60,0.00,,---,0.00,VWS V14.01,2013-07-26 14:45:00,
2013-07-26 09:46:00,85.9,70.4,30.03,East,90,0.0,0.0,60,0.00,,---,0.00,VWS V14.01,2013-07-26 14:46:00,
2013-07-26 09:47:00,85.9,69.9,30.03,South,180,0.0,0.0,59,0.00,,---,0.00,VWS V14.01,2013-07-26 14:47:00,
2013-07-26 09:48:00,86.2,70.2,30.03,SSW,202,0.0,0.0,59,0.00,,---,0.00,VWS V14.01,2013-07-26 14:48:00,
2013-07-26 09:49:00,86.2,69.7,30.03,SSW,202,0.0,0.0,58,0.00,,---,0.00,VWS V14.01,2013-07-26 14:49:00,
2013-07-26 09:50:00,86.2,68.7,30.03,SW,225,0.0,0.0,56,0.00,,---,0.00,VWS V14.01,2013-07-26 14:50:00,
2013-07-26 09:51:00,86.1,68.5,30.03,SE,135,0.0,0.0,56,0.00,,---,0.00,VWS V14.01,2013-07-26 14:51:00,
2013-07-26 09:52:00,86.1,69.1,30.03,SE,135,0.0,0.0,57,0.00,,---,0.00,VWS V14.01,2013-07-26 14:52:00,
2013-07-26 09:53:00,86.2,69.2,30.03,SSE,158,0.0,0.0,57,0.00,,---,0.00,VWS V14.01,2013-07-26 14:53:00,
2013-07-26 09:54:00,86.1,68.0,30.03,South,180,0.0,0.0,55,0.00,,---,0.00,VWS V14.01,2013-07-26 14:54:00,
2013-07-26 09:55:00,86.2,68.2,30.03,SE,135,0.0,0.0,55,0.00,,---,0.00,VWS V14.01,2013-07-26 14:55:00,
2013-07-26 09:56:00,86.8,69.2,30.03,South,180,0.0,0.0,56,0.00,,---,0.00,VWS V14.01,2013-07-26 14:56:00,
2013-07-26 09:57:00,86.9,69.9,30.03,SE,135,0.0,0.0,57,0.00,,---,0.00,VWS V14.01,2013-07-26 14:57:00,
2013-07-26 09:58:00,86.9,69.9,30.03,SE,135,0.0,0.0,57,0.00,,---,0.00,VWS V14.01,2013-07-26 14:58:00,
2013-07-26 09:59:00,86.9,69.4,30.03,SE,135,0.0,0.0,56,0.00,,---,0.00,VWS V14.01,2013-07-26 14:59:00,
2013-07-26 10:00:00,86.9,68.8,30.03,ESE,112,0.0,0.0,55,0.00,,---,0.00,VWS V14.01,2013-07-26 15:00:00,
2013-07-26 10:01:00,86.8,68.7,30.06,ESE,112,0.0,0.0,55,0.00,,---,0.00,VWS V14.01,2013-07-26 15:01:00,
2013-07-26 10:02:00,86.9,68.8,30.06,SE,135,0.0,0.0,55,0.00,,---,0.00,VWS V14.01,2013-07-26 15:02:00,
2013-07-26 10:03:00,87.3,69.2,30.06,ESE,112,0.0,0.0,55,0.00,,---,0.00,VWS V14.01,2013-07-26 15:03:00,
2013-07-26 10:04:00,87.3,69.2,30.06,South,180,0.0,0.0,55,0.00,,---,0.00,VWS V14.01,2013-07-26 15:04:00,
2013-07-26 10:05:00,87.3,69.2,30.06,SSW,202,0.0,0.0,55,0.00,,---,0.00,VWS V14.01,2013-07-26 15:05:00,
2013-07-26 10:06:00,87.3,69.2,30.06,SSW,202,0.0,0.0,55,0.00,,---,0.00,VWS V14.01,2013-07-26 15:06:00,
2013-07-26 10:07:00,87.5,69.3,30.06,SE,135,0.0,0.0,55,0.00,,---,0.00,VWS V14.01,2013-07-26 15:07:00,
2013-07-26 10:08:00,87.6,69.5,30.06,SE,135,0.0,0.0,55,0.00,,---,0.00,VWS V14.01,2013-07-26 15:08:00,
2013-07-26 10:09:00,87.8,69.7,30.06,SE,135,0.0,0.0,55,0.00,,---,0.00,VWS V14.01,2013-07-26 15:09:00,
2013-07-26 10:10:00,88.0,69.3,30.06,ESE,112,0.0,0.0,54,0.00,,---,0.00,VWS V14.01,2013-07-26 15:10:00,
2013-07-26 10:11:00,88.2,69.4,30.06,SE,135,0.0,0.0,54,0.00,,---,0.00,VWS V14.01,2013-07-26 15:11:00,
2013-07-26 10:12:00,88.2,69.4,30.06,SE,135,0.0,0.0,54,0.00,,---,0.00,VWS V14.01,2013-07-26 15:12:00,
2013-07-26 10:13:00,88.3,69.6,30.06,South,180,0.0,0.0,54,0.00,,---,0.00,VWS V14.01,2013-07-26 15:13:00,
2013-07-26 10:14:00,88.3,69.1,30.06,South,180,0.0,0.0,53,0.00,,---,0.00,VWS V14.01,2013-07-26 15:14:00,
2013-07-26 10:15:00,88.3,69.1,30.06,SSE,158,0.0,0.0,53,0.00,,---,0.00,VWS V14.01,2013-07-26 15:15:00,
2013-07-26 10:16:00,88.2,68.9,30.06,SE,135,0.0,0.0,53,0.00,,---,0.00,VWS V14.01,2013-07-26 15:16:00,
2013-07-26 10:17:00,88.3,69.1,30.06,ESE,112,0.0,0.0,53,0.00,,---,0.00,VWS V14.01,2013-07-26 15:17:00,
2013-07-26 10:18:00,88.5,68.7,30.06,ESE,112,0.0,0.0,52,0.00,,---,0.00,VWS V14.01,2013-07-26 15:18:00,
2013-07-26 10:19:00,88.5,68.7,30.06,East,90,0.0,0.0,52,0.00,,---,0.00,VWS V14.01,2013-07-26 15:19:00,
2013-07-26 10:20:00,88.5,68.7,30.06,South,180,0.0,0.0,52,0.00,,---,0.00,VWS V14.01,2013-07-26 15:20:00,
2013-07-26 10:21:00,88.3,68.5,30.06,South,180,0.0,0.0,52,0.00,,---,0.00,VWS V14.01,2013-07-26 15:21:00,
2013-07-26 10:22:00,88.3,68.5,30.06,South,180,0.0,0.0,52,0.00,,---,0.00,VWS V14.01,2013-07-26 15:22:00,
2013-07-26 10:23:00,88.3,68.5,30.06,SSW,202,0.0,0.0,52,0.00,,---,0.00,VWS V14.01,2013-07-26 15:23:00,
2013-07-26 10:24:00,88.3,68.5,30.06,SSW,202,0.0,0.0,52,0.00,,---,0.00,VWS V14.01,2013-07-26 15:24:00,
2013-07-26 10:25:00,88.9,69.0,30.06,ESE,112,0.0,0.0,52,0.00,,---,0.00,VWS V14.01,2013-07-26 15:25:00,
2013-07-26 10:26:00,88.9,69.0,30.06,South,180,0.0,0.0,52,0.00,,---,0.00,VWS V14.01,2013-07-26 15:26:00,
2013-07-26 10:27:00,89.1,69.2,30.06,ESE,112,0.0,0.0,52,0.00,,---,0.00,VWS V14.01,2013-07-26 15:27:00,
2013-07-26 10:28:00,89.2,69.3,30.06,South,180,0.0,0.0,52,0.00,,---,0.00,VWS V14.01,2013-07-26 15:28:00,
2013-07-26 10:29:00,89.2,68.8,30.06,SSW,202,0.0,0.0,51,0.00,,---,0.00,VWS V14.01,2013-07-26 15:29:00,
2013-07-26 10:30:00,89.1,68.0,30.06,SW,225,0.0,0.0,50,0.00,,---,0.00,VWS V14.01,2013-07-26 15:30:00,
2013-07-26 10:31:00,89.1,68.0,30.06,South,180,0.0,0.0,50,0.00,,---,0.00,VWS V14.01,2013-07-26 15:31:00,
2013-07-26 10:32:00,88.9,67.9,30.06,South,180,0.0,0.0,50,0.00,,---,0.00,VWS V14.01,2013-07-26 15:32:00,
2013-07-26 10:33:00,89.1,68.0,30.06,SSW,202,0.0,0.0,50,0.00,,---,0.00,VWS V14.01,2013-07-26 15:33:00,
2013-07-26 10:34:00,89.2,68.2,30.06,SSE,158,0.0,0.0,50,0.00,,---,0.00,VWS V14.01,2013-07-26 15:34:00,
2013-07-26 10:35:00,89.4,68.3,30.06,SSE,158,0.0,0.0,50,0.00,,---,0.00,VWS V14.01,2013-07-26 15:35:00,
2013-07-26 10:36:00,89.6,68.5,30.06,South,180,0.0,0.0,50,0.00,,---,0.00,VWS V14.01,2013-07-26 15:36:00,
2013-07-26 10:37:00,89.6,68.5,30.06,SE,135,0.0,0.0,50,0.00,,---,0.00,VWS V14.01,2013-07-26 15:37:00,
2013-07-26 10:38:00,89.8,68.7,30.06,South,180,0.0,0.0,50,0.00,,---,0.00,VWS V14.01,2013-07-26 15:38:00,
2013-07-26 10:39:00,89.8,68.1,30.06,SE,135,0.0,0.0,49,0.00,,---,0.00,VWS V14.01,2013-07-26 15:39:00,
2013-07-26 10:40:00,90.1,68.4,30.06,South,180,0.0,0.0,49,0.00,,---,0.00,VWS V14.01,2013-07-26 15:40:00,
2013-07-26 10:41:00,90.3,68.6,30.06,South,180,0.0,0.0,49,0.00,,---,0.00,VWS V14.01,2013-07-26 15:41:00,
2013-07-26 10:42:00,90.5,68.7,30.06,South,180,0.0,0.0,49,0.00,,---,0.00,VWS V14.01,2013-07-26 15:42:00,
2013-07-26 10:43:00,90.8,69.1,30.06,SSW,202,0.0,0.0,49,0.00,,---,0.00,VWS V14.01,2013-07-26 15:43:00,
2013-07-26 10:44:00,91.0,68.6,30.06,SE,135,0.0,0.0,48,0.00,,---,0.00,VWS V14.01,2013-07-26 15:44:00,
2013-07-26 10:45:00,91.0,68.6,30.06,SE,135,4.7,6.3,48,0.00,,---,0.00,VWS V14.01,2013-07-26 15:45:00,
2013-07-26 10:46:00,91.0,68.6,30.06,South,180,3.1,5.8,48,0.00,,---,0.00,VWS V14.01,2013-07-26 15:46:00,
2013-07-26 10:47:00,91.0,68.0,30.06,SSE,158,4.5,4.5,47,0.00,,---,0.00,VWS V14.01,2013-07-26 15:47:00,
2013-07-26 10:48:00,90.8,68.4,30.06,SE,135,2.7,4.5,48,0.00,,---,0.00,VWS V14.01,2013-07-26 15:48:00,
2013-07-26 10:49:00,90.7,67.7,30.06,South,180,5.6,5.6,47,0.00,,---,0.00,VWS V14.01,2013-07-26 15:49:00,
2013-07-26 10:50:00,90.5,67.5,30.06,South,180,2.9,5.6,47,0.00,,---,0.00,VWS V14.01,2013-07-26 15:50:00,
2013-07-26 10:51:00,90.5,67.5,30.06,SW,225,2.9,3.1,47,0.00,,---,0.00,VWS V14.01,2013-07-26 15:51:00,
2013-07-26 10:52:00,90.5,67.5,30.06,SE,135,6.0,6.0,47,0.00,,---,0.00,VWS V14.01,2013-07-26 15:52:00,
2013-07-26 10:53:00,90.3,66.7,30.06,South,180,3.4,6.0,46,0.00,,---,0.00,VWS V14.01,2013-07-26 15:53:00,
2013-07-26 10:54:00,90.3,66.7,30.06,ESE,112,0.9,3.6,46,0.00,,---,0.00,VWS V14.01,2013-07-26 15:54:00,
2013-07-26 10:55:00,90.7,67.7,30.06,SSE,158,0.0,0.9,47,0.00,,---,0.00,VWS V14.01,2013-07-26 15:55:00,
2013-07-26 10:56:00,91.2,68.2,30.06,SE,135,0.0,1.6,47,0.00,,---,0.00,VWS V14.01,2013-07-26 15:56:00,
2013-07-26 10:57:00,91.2,68.2,30.06,West,270,2.7,6.5,47,0.00,,---,0.00,VWS V14.01,2013-07-26 15:57:00,
2013-07-26 10:58:00,91.2,67.5,30.06,SE,135,5.6,6.5,46,0.00,,---,0.00,VWS V14.01,2013-07-26 15:58:00,
2013-07-26 10:59:00,91.2,67.5,30.06,South,180,2.7,5.6,46,0.00,,---,0.00,VWS V14.01,2013-07-26 15:59:00,
2013-07-26 11:00:00,91.7,68.0,30.06,South,180,3.4,3.4,46,0.00,,---,0.00,VWS V14.01,2013-07-26 16:00:00,
2013-07-26 11:01:00,91.5,67.2,30.06,NNE,22,0.0,5.4,45,0.00,,---,0.00,VWS V14.01,2013-07-26 16:01:00,
2013-07-26 11:02:00,91.4,67.7,30.06,South,180,5.8,8.5,46,0.00,,---,0.00,VWS V14.01,2013-07-26 16:02:00,
2013-07-26 11:03:00,90.8,66.6,30.06,South,180,3.6,7.2,45,0.00,,---,0.00,VWS V14.01,2013-07-26 16:03:00,
2013-07-26 11:04:00,90.7,66.4,30.06,East,90,3.1,4.0,45,0.00,,---,0.00,VWS V14.01,2013-07-26 16:04:00,
2013-07-26 11:05:00,90.7,66.4,30.06,South,180,2.9,4.0,45,0.00,,---,0.00,VWS V14.01,2013-07-26 16:05:00,
2013-07-26 11:06:00,90.3,66.1,30.06,NW,315,4.3,8.1,45,0.00,,---,0.00,VWS V14.01,2013-07-26 16:06:00,
2013-07-26 11:07:00,90.1,66.6,30.06,South,180,0.0,4.3,46,0.00,,---,0.00,VWS V14.01,2013-07-26 16:07:00,
2013-07-26 11:08:00,90.1,66.6,30.06,South,180,0.0,3.6,46,0.00,,---,0.00,VWS V14.01,2013-07-26 16:08:00,
2013-07-26 11:09:00,90.1,65.9,30.06,SW,225,2.9,5.8,45,0.00,,---,0.00,VWS V14.01,2013-07-26 16:09:00,
2013-07-26 11:10:00,90.1,65.9,30.06,SSE,158,2.9,2.9,45,0.00,,---,0.00,VWS V14.01,2013-07-26 16:10:00,
2013-07-26 11:11:00,90.3,66.1,30.06,South,180,3.8,4.9,45,0.00,,---,0.00,VWS V14.01,2013-07-26 16:11:00,
2013-07-26 11:12:00,90.3,66.1,30.06,South,180,2.7,5.6,45,0.00,,---,0.00,VWS V14.01,2013-07-26 16:12:00,
2013-07-26 11:13:00,90.1,65.3,30.06,South,180,6.3,7.2,44,0.00,,---,0.00,VWS V14.01,2013-07-26 16:13:00,
2013-07-26 11:14:00,90.1,65.3,30.06,SE,135,5.8,8.5,44,0.00,,---,0.00,VWS V14.01,2013-07-26 16:14:00,
2013-07-26 11:15:00,90.3,65.4,30.06,SE,135,2.9,5.8,44,0.00,,---,0.00,VWS V14.01,2013-07-26 16:15:00,
2013-07-26 11:16:00,90.7,65.8,30.06,SE,135,0.0,4.0,44,0.00,,---,0.00,VWS V14.01,2013-07-26 16:16:00,
2013-07-26 11:17:00,90.8,66.6,30.06,South,180,1.3,3.1,45,0.00,,---,0.00,VWS V14.01,2013-07-26 16:17:00,
2013-07-26 11:18:00,91.0,66.1,30.06,SSW,202,7.2,7.2,44,0.00,,---,0.00,VWS V14.01,2013-07-26 16:18:00,
2013-07-26 11:19:00,91.0,66.7,30.06,NNW,338,1.1,7.2,45,0.00,,---,0.00,VWS V14.01,2013-07-26 16:19:00,
2013-07-26 11:20:00,90.8,65.9,30.06,South,180,4.9,4.9,44,0.00,,---,0.00,VWS V14.01,2013-07-26 16:20:00,
2013-07-26 11:21:00,91.0,66.1,30.06,SE,135,1.6,4.9,44,0.00,,---,0.00,VWS V14.01,2013-07-26 16:21:00,
2013-07-26 11:22:00,91.2,66.9,30.06,SE,135,0.0,2.0,45,0.00,,---,0.00,VWS V14.01,2013-07-26 16:22:00,
2013-07-26 11:23:00,91.2,66.2,30.06,East,90,8.7,10.1,44,0.00,,---,0.00,VWS V14.01,2013-07-26 16:23:00,
2013-07-26 11:24:00,91.2,66.2,30.06,SE,135,1.1,8.7,44,0.00,,---,0.00,VWS V14.01,2013-07-26 16:24:00,
2013-07-26 11:25:00,91.5,66.6,30.06,SE,135,4.0,6.5,44,0.00,,---,0.00,VWS V14.01,2013-07-26 16:25:00,
2013-07-26 11:26:00,91.5,66.6,30.06,SE,135,6.0,6.0,44,0.00,,---,0.00,VWS V14.01,2013-07-26 16:26:00,
2013-07-26 11:27:00,91.7,66.7,30.06,South,180,3.6,6.0,44,0.00,,---,0.00,VWS V14.01,2013-07-26 16:27:00,
2013-07-26 11:28:00,91.7,66.7,30.06,SSW,202,4.0,4.3,44,0.00,,---,0.00,VWS V14.01,2013-07-26 16:28:00,
2013-07-26 11:29:00,91.7,66.7,30.06,SE,135,1.1,4.0,44,0.00,,---,0.00,VWS V14.01,2013-07-26 16:29:00,
2013-07-26 11:30:00,91.9,66.9,30.06,SE,135,2.5,3.4,44,0.00,,---,0.00,VWS V14.01,2013-07-26 16:30:00,
2013-07-26 11:31:00,92.2,67.2,30.03,East,90,3.8,6.5,44,0.00,,---,0.00,VWS V14.01,2013-07-26 16:31:00,
2013-07-26 11:32:00,92.1,67.1,30.03,ESE,112,1.6,7.6,44,0.00,,---,0.00,VWS V14.01,2013-07-26 16:32:00,
2013-07-26 11:33:00,92.2,67.2,30.03,SSE,158,1.6,3.1,44,0.00,,---,0.00,VWS V14.01,2013-07-26 16:33:00,
2013-07-26 11:34:00,92.4,67.4,30.03,SE,135,2.7,4.0,44,0.00,,---,0.00,VWS V14.01,2013-07-26 16:34:00,
2013-07-26 11:35:00,92.4,67.4,30.03,SSE,158,3.6,5.4,44,0.00,,---,0.00,VWS V14.01,2013-07-26 16:35:00,
2013-07-26 11:36:00,92.2,66.5,30.03,ESE,112,5.8,5.8,43,0.00,,---,0.00,VWS V14.01,2013-07-26 16:36:00,
2013-07-26 11:37:00,92.1,66.4,30.03,SE,135,4.9,6.3,43,0.00,,---,0.00,VWS V14.01,2013-07-26 16:37:00,
2013-07-26 11:38:00,92.1,66.4,30.03,SSW,202,3.1,4.9,43,0.00,,---,0.00,VWS V14.01,2013-07-26 16:38:00,
2013-07-26 11:39:00,91.9,66.2,30.03,South,180,3.8,6.5,43,0.00,,---,0.00,VWS V14.01,2013-07-26 16:39:00,
2013-07-26 11:40:00,91.9,65.6,30.03,South,180,4.0,4.0,42,0.00,,---,0.00,VWS V14.01,2013-07-26 16:40:00,
2013-07-26 11:41:00,92.2,66.5,30.03,SE,135,3.1,4.0,43,0.00,,---,0.00,VWS V14.01,2013-07-26 16:41:00,
2013-07-26 11:42:00,92.4,66.0,30.03,East,90,1.3,4.3,42,0.00,,---,0.00,VWS V14.01,2013-07-26 16:42:00,
2013-07-26 11:43:00,92.4,66.0,30.03,ESE,112,2.2,6.3,42,0.00,,---,0.00,VWS V14.01,2013-07-26 16:43:00,
2013-07-26 11:44:00,92.4,65.3,30.03,SSW,202,6.3,6.3,41,0.00,,---,0.00,VWS V14.01,2013-07-26 16:44:00,
2013-07-26 11:45:00,92.4,66.0,30.03,SE,135,2.7,6.3,42,0.00,,---,0.00,VWS V14.01,2013-07-26 16:45:00,
2013-07-26 11:46:00,93.0,67.2,30.03,SE,135,2.2,2.7,43,0.00,,---,0.00,VWS V14.01,2013-07-26 16:46:00,
2013-07-26 11:47:00,93.3,67.5,30.03,ESE,112,2.7,3.1,43,0.00,,---,0.00,VWS V14.01,2013-07-26 16:47:00,
2013-07-26 11:48:00,93.5,67.0,30.03,SE,135,2.0,5.6,42,0.00,,---,0.00,VWS V14.01,2013-07-26 16:48:00,
2013-07-26 11:49:00,93.7,67.1,30.03,South,180,4.9,8.1,42,0.00,,---,0.00,VWS V14.01,2013-07-26 16:49:00,
2013-07-26 11:50:00,93.7,67.1,30.03,SE,135,3.6,5.6,42,0.00,,---,0.00,VWS V14.01,2013-07-26 16:50:00,
2013-07-26 11:51:00,93.7,67.1,30.03,ESE,112,3.1,7.2,42,0.00,,---,0.00,VWS V14.01,2013-07-26 16:51:00,
2013-07-26 11:52:00,93.8,66.6,30.03,SSE,158,5.4,5.4,41,0.00,,---,0.00,VWS V14.01,2013-07-26 16:52:00,
2013-07-26 11:53:00,93.5,66.3,30.03,SE,135,4.0,7.4,41,0.00,,---,0.00,VWS V14.01,2013-07-26 16:53:00,
2013-07-26 11:54:00,93.5,66.3,30.03,South,180,8.5,8.7,41,0.00,,---,0.00,VWS V14.01,2013-07-26 16:54:00,
2013-07-26 11:55:00,93.0,65.8,30.03,SE,135,5.8,8.5,41,0.00,,---,0.00,VWS V14.01,2013-07-26 16:55:00,
2013-07-26 11:56:00,93.3,66.8,30.03,West,270,2.0,5.8,42,0.00,,---,0.00,VWS V14.01,2013-07-26 16:56:00,
2013-07-26 11:57:00,93.5,66.3,30.03,SE,135,3.1,4.9,41,0.00,,---,0.00,VWS V14.01,2013-07-26 16:57:00,
2013-07-26 11:58:00,93.7,67.1,30.03,South,180,2.2,4.9,42,0.00,,---,0.00,VWS V14.01,2013-07-26 16:58:00,
2013-07-26 11:59:00,94.0,67.4,30.03,SE,135,2.7,3.4,42,0.00,,---,0.00,VWS V14.01,2013-07-26 16:59:00,
2013-07-26 12:00:00,94.0,66.8,30.03,SE,135,6.0,6.5,41,0.00,,---,0.00,VWS V14.01,2013-07-26 17:00:00,
2013-07-26 12:01:00,94.2,66.9,30.03,ESE,112,6.5,6.5,41,0.00,,---,0.00,VWS V14.01,2013-07-26 17:01:00,
2013-07-26 12:02:00,94.2,66.9,30.03,South,180,3.1,8.7,41,0.00,,---,0.00,VWS V14.01,2013-07-26 17:02:00,
2013-07-26 12:03:00,94.4,67.8,30.03,SSW,202,3.8,3.8,42,0.00,,---,0.00,VWS V14.01,2013-07-26 17:03:00,
2013-07-26 12:04:00,94.4,67.8,30.03,South,180,3.6,4.3,42,0.00,,---,0.00,VWS V14.01,2013-07-26 17:04:00,
2013-07-26 12:05:00,94.6,67.9,30.03,East,90,2.2,3.8,42,0.00,,---,0.00,VWS V14.01,2013-07-26 17:05:00,
2013-07-26 12:06:00,94.6,67.2,30.03,South,180,2.7,2.7,41,0.00,,---,0.00,VWS V14.01,2013-07-26 17:06:00,
2013-07-26 12:07:00,94.6,67.2,30.03,ESE,112,3.4,3.8,41,0.00,,---,0.00,VWS V14.01,2013-07-26 17:07:00,
2013-07-26 12:08:00,94.6,67.2,30.03,SSW,202,1.1,4.9,41,0.00,,---,0.00,VWS V14.01,2013-07-26 17:08:00,
2013-07-26 12:09:00,94.6,67.2,30.03,ESE,112,3.6,4.0,41,0.00,,---,0.00,VWS V14.01,2013-07-26 17:09:00,
2013-07-26 12:10:00,94.4,66.4,30.03,ESE,112,3.8,4.0,40,0.00,,---,0.00,VWS V14.01,2013-07-26 17:10:00,
2013-07-26 12:11:00,94.6,67.2,30.03,East,90,6.0,6.0,41,0.00,,---,0.00,VWS V14.01,2013-07-26 17:11:00,
2013-07-26 12:12:00,94.0,66.0,30.03,SW,225,6.5,7.4,40,0.00,,---,0.00,VWS V14.01,2013-07-26 17:12:00,
2013-07-26 12:13:00,94.0,66.8,30.03,ESE,112,3.1,6.5,41,0.00,,---,0.00,VWS V14.01,2013-07-26 17:13:00,
2013-07-26 12:14:00,93.8,65.9,30.03,South,180,7.2,7.2,40,0.00,,---,0.00,VWS V14.01,2013-07-26 17:14:00,
2013-07-26 12:15:00,93.7,65.7,30.03,SSE,158,6.3,8.7,40,0.00,,---,0.00,VWS V14.01,2013-07-26 17:15:00,
2013-07-26 12:16:00,93.7,65.7,30.00,SSE,158,4.7,6.3,40,0.00,,---,0.00,VWS V14.01,2013-07-26 17:16:00,
2013-07-26 12:17:00,93.7,65.7,30.00,ESE,112,2.5,4.7,40,0.00,,---,0.00,VWS V14.01,2013-07-26 17:17:00,
2013-07-26 12:18:00,94.2,66.2,30.00,SSE,158,1.6,3.1,40,0.00,,---,0.00,VWS V14.01,2013-07-26 17:18:00,
2013-07-26 12:19:00,94.7,67.4,30.00,ESE,112,2.2,4.9,41,0.00,,---,0.00,VWS V14.01,2013-07-26 17:19:00,
2013-07-26 12:20:00,94.9,67.6,30.00,SSW,202,1.6,2.2,41,0.00,,---,0.00,VWS V14.01,2013-07-26 17:20:00,
2013-07-26 12:21:00,95.4,68.0,30.00,SSW,202,2.7,2.7,41,0.00,,---,0.00,VWS V14.01,2013-07-26 17:21:00,
2013-07-26 12:22:00,95.3,67.9,30.00,South,180,3.6,4.7,41,0.00,,---,0.00,VWS V14.01,2013-07-26 17:22:00,
2013-07-26 12:23:00,95.4,68.0,30.00,SE,135,0.9,4.3,41,0.00,,---,0.00,VWS V14.01,2013-07-26 17:23:00,
2013-07-26 12:24:00,95.4,68.0,30.00,SSE,158,1.3,2.9,41,0.00,,---,0.00,VWS V14.01,2013-07-26 17:24:00,
2013-07-26 12:25:00,96.0,68.5,30.00,SSW,202,1.3,3.6,41,0.00,,---,0.00,VWS V14.01,2013-07-26 17:25:00,
2013-07-26 12:26:00,96.0,68.5,30.00,SE,135,1.1,3.4,41,0.00,,---,0.00,VWS V14.01,2013-07-26 17:26:00,
2013-07-26 12:27:00,96.2,68.7,30.00,ESE,112,2.0,2.5,41,0.00,,---,0.00,VWS V14.01,2013-07-26 17:27:00,
2013-07-26 12:28:00,96.2,67.9,30.00,SE,135,1.6,4.7,40,0.00,,---,0.00,VWS V14.01,2013-07-26 17:28:00,
2013-07-26 12:29:00,96.0,67.1,30.00,SSW,202,3.8,3.8,39,0.00,,---,0.00,VWS V14.01,2013-07-26 17:29:00,
2013-07-26 12:30:00,95.6,66.7,30.00,SE,135,2.7,3.1,39,0.00,,---,0.00,VWS V14.01,2013-07-26 17:30:00,
2013-07-26 12:31:00,95.6,66.7,29.97,SE,135,4.3,4.3,39,0.00,,---,0.00,VWS V14.01,2013-07-26 17:31:00,
2013-07-26 12:32:00,95.6,66.7,29.97,South,180,2.2,4.3,39,0.00,,---,0.00,VWS V14.01,2013-07-26 17:32:00,
2013-07-26 12:33:00,95.6,66.7,29.97,SSE,158,2.0,6.3,39,0.00,,---,0.00,VWS V14.01,2013-07-26 17:33:00,
2013-07-26 12:34:00,96.0,67.1,29.97,South,180,3.6,4.0,39,0.00,,---,0.00,VWS V14.01,2013-07-26 17:34:00,
2013-07-26 12:35:00,96.0,67.8,29.97,SE,135,2.5,3.6,40,0.00,,---,0.00,VWS V14.01,2013-07-26 17:35:00,
2013-07-26 12:36:00,96.2,67.9,29.97,East,90,4.0,4.9,40,0.00,,---,0.00,VWS V14.01,2013-07-26 17:36:00,
2013-07-26 12:37:00,96.2,67.9,29.97,SE,135,6.5,9.8,40,0.00,,---,0.00,VWS V14.01,2013-07-26 17:37:00,
2013-07-26 12:38:00,96.0,67.1,29.97,ESE,112,3.8,8.7,39,0.00,,---,0.00,VWS V14.01,2013-07-26 17:38:00,
2013-07-26 12:39:00,95.6,66.7,29.97,ESE,112,3.6,7.2,39,0.00,,---,0.00,VWS V14.01,2013-07-26 17:39:00,
2013-07-26 12:40:00,95.8,66.9,29.97,SSW,202,6.5,6.9,39,0.00,,---,0.00,VWS V14.01,2013-07-26 17:40:00,
2013-07-26 12:41:00,95.8,66.9,29.97,SE,135,4.0,6.5,39,0.00,,---,0.00,VWS V14.01,2013-07-26 17:41:00,
2013-07-26 12:42:00,95.6,66.7,29.97,SSW,202,6.0,6.0,39,0.00,,---,0.00,VWS V14.01,2013-07-26 17:42:00,
2013-07-26 12:43:00,96.0,67.1,29.97,SE,135,2.5,6.0,39,0.00,,---,0.00,VWS V14.01,2013-07-26 17:43:00,
2013-07-26 12:44:00,96.2,67.2,29.97,SE,135,3.8,3.8,39,0.00,,---,0.00,VWS V14.01,2013-07-26 17:44:00,
2013-07-26 12:45:00,96.2,67.2,29.97,East,90,3.6,5.4,39,0.00,,---,0.00,VWS V14.01,2013-07-26 17:45:00,
2013-07-26 12:46:00,96.0,67.1,30.00,South,180,4.0,5.6,39,0.00,,---,0.00,VWS V14.01,2013-07-26 17:46:00,
2013-07-26 12:47:00,96.0,67.1,30.00,SSE,158,2.7,7.4,39,0.00,,---,0.00,VWS V14.01,2013-07-26 17:47:00,
2013-07-26 12:48:00,96.0,67.1,30.00,East,90,7.4,7.6,39,0.00,,---,0.00,VWS V14.01,2013-07-26 17:48:00,
2013-07-26 12:49:00,96.2,67.2,30.00,SE,135,6.3,7.4,39,0.00,,---,0.00,VWS V14.01,2013-07-26 17:49:00,
2013-07-26 12:50:00,96.3,67.4,30.00,South,180,5.6,6.3,39,0.00,,---,0.00,VWS V14.01,2013-07-26 17:50:00,
2013-07-26 12:51:00,96.5,67.5,30.00,SE,135,4.3,5.6,39,0.00,,---,0.00,VWS V14.01,2013-07-26 17:51:00,
2013-07-26 12:52:00,96.7,67.7,30.00,SSW,202,3.4,6.0,39,0.00,,---,0.00,VWS V14.01,2013-07-26 17:52:00,
2013-07-26 12:53:00,96.7,67.7,30.00,SSE,158,2.5,3.4,39,0.00,,---,0.00,VWS V14.01,2013-07-26 17:53:00,
2013-07-26 12:54:00,97.0,68.0,30.00,South,180,5.4,5.4,39,0.00,,---,0.00,VWS V14.01,2013-07-26 17:54:00,
2013-07-26 12:55:00,97.0,68.0,30.00,SSW,202,2.9,5.4,39,0.00,,---,0.00,VWS V14.01,2013-07-26 17:55:00,
2013-07-26 12:56:00,97.0,68.0,30.00,ESE,112,8.5,8.5,39,0.00,,---,0.00,VWS V14.01,2013-07-26 17:56:00,
2013-07-26 12:57:00,96.7,66.9,30.00,SE,135,2.7,8.5,38,0.00,,---,0.00,VWS V14.01,2013-07-26 17:57:00,
2013-07-26 12:58:00,96.3,66.6,30.00,South,180,6.0,6.0,38,0.00,,---,0.00,VWS V14.01,2013-07-26 17:58:00,
2013-07-26 12:59:00,96.3,66.6,30.00,South,180,0.9,6.0,38,0.00,,---,0.00,VWS V14.01,2013-07-26 17:59:00,
2013-07-26 13:00:00,96.7,66.9,30.00,South,180,3.4,4.7,38,0.00,,---,0.00,VWS V14.01,2013-07-26 18:00:00,
2013-07-26 13:01:00,96.7,67.7,30.00,South,180,3.6,4.3,39,0.00,,---,0.00,VWS V14.01,2013-07-26 18:01:00,
2013-07-26 13:02:00,96.9,67.8,30.00,South,180,1.1,3.6,39,0.00,,---,0.00,VWS V14.01,2013-07-26 18:02:00,
2013-07-26 13:03:00,96.9,67.1,30.00,South,180,6.3,6.3,38,0.00,,---,0.00,VWS V14.01,2013-07-26 18:03:00,
2013-07-26 13:04:00,96.5,66.8,30.00,SE,135,4.7,6.5,38,0.00,,---,0.00,VWS V14.01,2013-07-26 18:04:00,
2013-07-26 13:05:00,96.5,66.8,30.00,SSW,202,3.1,4.7,38,0.00,,---,0.00,VWS V14.01,2013-07-26 18:05:00,
2013-07-26 13:06:00,96.5,66.8,30.00,South,180,1.1,4.7,38,0.00,,---,0.00,VWS V14.01,2013-07-26 18:06:00,
2013-07-26 13:07:00,96.5,66.8,30.00,SSW,202,2.5,4.3,38,0.00,,---,0.00,VWS V14.01,2013-07-26 18:07:00,
2013-07-26 13:08:00,96.5,66.8,30.00,SE,135,2.5,7.2,38,0.00,,---,0.00,VWS V14.01,2013-07-26 18:08:00,
2013-07-26 13:09:00,96.5,66.8,30.00,SSE,158,3.4,5.8,38,0.00,,---,0.00,VWS V14.01,2013-07-26 18:09:00,
2013-07-26 13:10:00,96.5,66.8,30.00,SW,225,4.9,6.5,38,0.00,,---,0.00,VWS V14.01,2013-07-26 18:10:00,
2013-07-26 13:11:00,96.5,66.8,30.00,South,180,1.6,4.9,38,0.00,,---,0.00,VWS V14.01,2013-07-26 18:11:00,
2013-07-26 13:12:00,96.9,67.1,30.00,South,180,2.9,3.6,38,0.00,,---,0.00,VWS V14.01,2013-07-26 18:12:00,
2013-07-26 13:13:00,97.2,67.4,30.00,South,180,2.0,3.1,38,0.00,,---,0.00,VWS V14.01,2013-07-26 18:13:00,
2013-07-26 13:14:00,97.8,67.9,30.00,SE,135,2.5,2.7,38,0.00,,---,0.00,VWS V14.01,2013-07-26 18:14:00,
2013-07-26 13:15:00,97.9,68.0,30.00,SE,135,3.8,3.8,38,0.00,,---,0.00,VWS V14.01,2013-07-26 18:15:00,
2013-07-26 13:16:00,98.1,68.2,30.00,SW,225,1.3,3.8,38,0.00,,---,0.00,VWS V14.01,2013-07-26 18:16:00,
2013-07-26 13:17:00,98.1,68.2,30.00,SSW,202,4.3,4.3,38,0.00,,---,0.00,VWS V14.01,2013-07-26 18:17:00,
2013-07-26 13:18:00,97.8,67.9,30.00,South,180,4.0,4.9,38,0.00,,---,0.00,VWS V14.01,2013-07-26 18:18:00,
2013-07-26 13:19:00,97.8,67.1,30.00,SSE,158,2.5,4.0,37,0.00,,---,0.00,VWS V14.01,2013-07-26 18:19:00,
2013-07-26 13:20:00,97.9,67.2,30.00,East,90,2.7,3.1,37,0.00,,---,0.00,VWS V14.01,2013-07-26 18:20:00,
2013-07-26 13:21:00,97.9,67.2,30.00,SE,135,2.5,3.8,37,0.00,,---,0.00,VWS V14.01,2013-07-26 18:21:00,
2013-07-26 13:22:00,98.1,67.4,30.00,South,180,3.1,5.4,37,0.00,,---,0.00,VWS V14.01,2013-07-26 18:22:00,
2013-07-26 13:23:00,97.9,67.2,30.00,South,180,8.1,8.1,37,0.00,,---,0.00,VWS V14.01,2013-07-26 18:23:00,
2013-07-26 13:24:00,97.6,66.9,30.00,East,90,3.1,8.1,37,0.00,,---,0.00,VWS V14.01,2013-07-26 18:24:00,
2013-07-26 13:25:00,97.6,66.9,30.00,South,180,3.1,3.4,37,0.00,,---,0.00,VWS V14.01,2013-07-26 18:25:00,
2013-07-26 13:26:00,97.6,66.9,30.00,South,180,8.7,8.7,37,0.00,,---,0.00,VWS V14.01,2013-07-26 18:26:00,
2013-07-26 13:27:00,97.2,66.6,30.00,SSW,202,3.4,8.7,37,0.00,,---,0.00,VWS V14.01,2013-07-26 18:27:00,
2013-07-26 13:28:00,97.2,66.6,30.00,East,90,3.4,5.4,37,0.00,,---,0.00,VWS V14.01,2013-07-26 18:28:00,
2013-07-26 13:29:00,97.6,66.9,30.00,ESE,112,2.7,5.4,37,0.00,,---,0.00,VWS V14.01,2013-07-26 18:29:00,
2013-07-26 13:30:00,97.8,67.1,30.00,SE,135,2.0,3.8,37,0.00,,---,0.00,VWS V14.01,2013-07-26 18:30:00,
2013-07-26 13:31:00,98.1,67.4,29.97,SSW,202,2.5,3.6,37,0.00,,---,0.00,VWS V14.01,2013-07-26 18:31:00,
2013-07-26 13:32:00,97.8,66.3,29.97,South,180,7.4,7.4,36,0.00,,---,0.00,VWS V14.01,2013-07-26 18:32:00,
2013-07-26 13:33:00,97.8,66.3,29.97,SSE,158,4.5,7.4,36,0.00,,---,0.00,VWS V14.01,2013-07-26 18:33:00,
2013-07-26 13:34:00,97.8,67.1,29.97,SE,135,4.0,4.5,37,0.00,,---,0.00,VWS V14.01,2013-07-26 18:34:00,
2013-07-26 13:35:00,97.9,67.2,29.97,SE,135,2.2,4.9,37,0.00,,---,0.00,VWS V14.01,2013-07-26 18:35:00,
2013-07-26 13:36:00,98.3,67.6,29.97,South,180,1.3,3.1,37,0.00,,---,0.00,VWS V14.01,2013-07-26 18:36:00,
2013-07-26 13:37:00,97.9,66.4,29.97,South,180,5.8,5.8,36,0.00,,---,0.00,VWS V14.01,2013-07-26 18:37:00,
2013-07-26 13:38:00,97.9,66.4,29.97,SSW,202,2.7,5.8,36,0.00,,---,0.00,VWS V14.01,2013-07-26 18:38:00,
2013-07-26 13:39:00,98.1,66.6,29.97,East,90,1.3,3.8,36,0.00,,---,0.00,VWS V14.01,2013-07-26 18:39:00,
2013-07-26 13:40:00,98.3,67.6,29.97,SE,135,2.7,4.3,37,0.00,,---,0.00,VWS V14.01,2013-07-26 18:40:00,
2013-07-26 13:41:00,98.3,66.8,29.97,East,90,2.9,6.7,36,0.00,,---,0.00,VWS V14.01,2013-07-26 18:41:00,
2013-07-26 13:42:00,98.6,67.9,29.97,South,180,1.3,2.9,37,0.00,,---,0.00,VWS V14.01,2013-07-26 18:42:00,
2013-07-26 13:43:00,98.6,67.9,29.97,SE,135,2.7,2.7,37,0.00,,---,0.00,VWS V14.01,2013-07-26 18:43:00,
2013-07-26 13:44:00,98.6,67.1,29.97,SSW,202,3.6,4.9,36,0.00,,---,0.00,VWS V14.01,2013-07-26 18:44:00,
2013-07-26 13:45:00,98.5,66.9,29.97,South,180,2.5,3.8,36,0.00,,---,0.00,VWS V14.01,2013-07-26 18:45:00,
2013-07-26 13:46:00,98.1,66.6,29.97,SSW,202,5.8,5.8,36,0.00,,---,0.00,VWS V14.01,2013-07-26 18:46:00,
2013-07-26 13:47:00,97.9,66.4,29.97,South,180,3.6,5.8,36,0.00,,---,0.00,VWS V14.01,2013-07-26 18:47:00,
2013-07-26 13:48:00,98.1,66.6,29.97,South,180,1.1,3.6,36,0.00,,---,0.00,VWS V14.01,2013-07-26 18:48:00,
2013-07-26 13:49:00,98.3,67.6,29.97,ESE,112,2.9,3.8,37,0.00,,---,0.00,VWS V14.01,2013-07-26 18:49:00,
2013-07-26 13:50:00,98.6,67.1,29.97,South,180,4.3,6.3,36,0.00,,---,0.00,VWS V14.01,2013-07-26 18:50:00,
2013-07-26 13:51:00,98.8,67.2,29.97,ESE,112,3.8,4.3,36,0.00,,---,0.00,VWS V14.01,2013-07-26 18:51:00,
2013-07-26 13:52:00,98.8,67.2,29.97,SSW,202,7.2,7.2,36,0.00,,---,0.00,VWS V14.01,2013-07-26 18:52:00,
2013-07-26 13:53:00,98.5,66.1,29.97,SSW,202,6.0,8.7,35,0.00,,---,0.00,VWS V14.01,2013-07-26 18:53:00,
2013-07-26 13:54:00,98.1,66.6,29.97,South,180,4.7,6.5,36,0.00,,---,0.00,VWS V14.01,2013-07-26 18:54:00,
2013-07-26 13:55:00,98.3,66.8,29.97,SE,135,4.0,4.7,36,0.00,,---,0.00,VWS V14.01,2013-07-26 18:55:00,
2013-07-26 13:56:00,98.5,66.9,29.97,SSW,202,3.1,4.9,36,0.00,,---,0.00,VWS V14.01,2013-07-26 18:56:00,
2013-07-26 13:57:00,98.5,66.9,29.97,SSW,202,4.9,7.2,36,0.00,,---,0.00,VWS V14.01,2013-07-26 18:57:00,
2013-07-26 13:58:00,98.6,67.1,29.97,South,180,3.1,4.9,36,0.00,,---,0.00,VWS V14.01,2013-07-26 18:58:00,
2013-07-26 13:59:00,98.8,67.2,29.97,ESE,112,2.7,4.3,36,0.00,,---,0.00,VWS V14.01,2013-07-26 18:59:00,
2013-07-26 14:00:00,99.0,67.4,29.97,SE,135,5.8,5.8,36,0.00,,---,0.00,VWS V14.01,2013-07-26 19:00:00,
2013-07-26 14:01:00,99.3,66.9,29.97,SSW,202,2.0,5.8,35,0.00,,---,0.00,VWS V14.01,2013-07-26 19:01:00,
2013-07-26 14:02:00,99.5,67.0,29.97,SE,135,3.4,5.6,35,0.00,,---,0.00,VWS V14.01,2013-07-26 19:02:00,
2013-07-26 14:03:00,99.5,67.0,29.97,ESE,112,4.3,4.7,35,0.00,,---,0.00,VWS V14.01,2013-07-26 19:03:00,
2013-07-26 14:04:00,99.7,68.0,29.97,South,180,3.4,4.3,36,0.00,,---,0.00,VWS V14.01,2013-07-26 19:04:00,
2013-07-26 14:05:00,100.2,67.7,29.97,SSW,202,1.3,1.6,35,0.00,,---,0.00,VWS V14.01,2013-07-26 19:05:00,
2013-07-26 14:06:00,99.9,67.3,29.97,SSW,202,4.9,4.9,35,0.00,,---,0.00,VWS V14.01,2013-07-26 19:06:00,
2013-07-26 14:07:00,99.9,67.3,29.97,South,180,2.9,4.9,35,0.00,,---,0.00,VWS V14.01,2013-07-26 19:07:00,
2013-07-26 14:08:00,99.7,67.2,29.97,SSW,202,5.4,6.0,35,0.00,,---,0.00,VWS V14.01,2013-07-26 19:08:00,
2013-07-26 14:09:00,99.5,67.0,29.97,East,90,2.7,5.4,35,0.00,,---,0.00,VWS V14.01,2013-07-26 19:09:00,
2013-07-26 14:10:00,99.0,66.6,29.97,SE,135,1.6,6.3,35,0.00,,---,0.00,VWS V14.01,2013-07-26 19:10:00,
2013-07-26 14:11:00,99.5,67.0,29.97,SSE,158,3.1,5.4,35,0.00,,---,0.00,VWS V14.01,2013-07-26 19:11:00,
2013-07-26 14:12:00,100.2,67.7,29.97,East,90,2.2,3.1,35,0.00,,---,0.00,VWS V14.01,2013-07-26 19:12:00,
2013-07-26 14:13:00,100.4,67.8,29.97,South,180,2.7,3.6,35,0.00,,---,0.00,VWS V14.01,2013-07-26 19:13:00,
2013-07-26 14:14:00,100.4,67.8,29.97,ESE,112,2.9,3.8,35,0.00,,---,0.00,VWS V14.01,2013-07-26 19:14:00,
2013-07-26 14:15:00,100.6,68.0,29.97,SSE,158,1.6,2.9,35,0.00,,---,0.00,VWS V14.01,2013-07-26 19:15:00,
2013-07-26 14:16:00,100.8,68.1,29.94,NE,45,4.0,4.9,35,0.00,,---,0.00,VWS V14.01,2013-07-26 19:16:00,
2013-07-26 14:17:00,100.6,68.0,29.94,South,180,2.9,4.9,35,0.00,,---,0.00,VWS V14.01,2013-07-26 19:17:00,
2013-07-26 14:18:00,100.6,68.0,29.94,SE,135,3.8,4.0,35,0.00,,---,0.00,VWS V14.01,2013-07-26 19:18:00,
2013-07-26 14:19:00,100.8,68.1,29.94,SE,135,3.6,4.5,35,0.00,,---,0.00,VWS V14.01,2013-07-26 19:19:00,
2013-07-26 14:20:00,101.1,68.4,29.94,South,180,2.0,4.9,35,0.00,,---,0.00,VWS V14.01,2013-07-26 19:20:00,
2013-07-26 14:21:00,101.1,68.4,29.94,SW,225,1.3,2.5,35,0.00,,---,0.00,VWS V14.01,2013-07-26 19:21:00,
2013-07-26 14:22:00,100.9,67.4,29.94,SSW,202,3.6,4.9,34,0.00,,---,0.00,VWS V14.01,2013-07-26 19:22:00,
2013-07-26 14:23:00,100.6,68.0,29.94,SSW,202,8.7,8.7,35,0.00,,---,0.00,VWS V14.01,2013-07-26 19:23:00,
2013-07-26 14:24:00,100.4,67.8,29.94,SSW,202,5.4,8.7,35,0.00,,---,0.00,VWS V14.01,2013-07-26 19:24:00,
2013-07-26 14:25:00,100.2,66.8,29.94,SW,225,4.0,5.8,34,0.00,,---,0.00,VWS V14.01,2013-07-26 19:25:00,
2013-07-26 14:26:00,100.2,66.8,29.94,WSW,248,5.8,7.6,34,0.00,,---,0.00,VWS V14.01,2013-07-26 19:26:00,
2013-07-26 14:27:00,100.4,67.0,29.94,South,180,2.7,5.8,34,0.00,,---,0.00,VWS V14.01,2013-07-26 19:27:00,
2013-07-26 14:28:00,100.9,67.4,29.94,South,180,0.9,2.7,34,0.00,,---,0.00,VWS V14.01,2013-07-26 19:28:00,
2013-07-26 14:29:00,101.1,67.6,29.94,West,270,2.0,2.7,34,0.00,,---,0.00,VWS V14.01,2013-07-26 19:29:00,
2013-07-26 14:30:00,101.3,67.7,29.94,East,90,3.4,4.0,34,0.00,,---,0.00,VWS V14.01,2013-07-26 19:30:00,
2013-07-26 14:31:00,101.5,67.9,29.94,SSW,202,2.9,3.8,34,0.00,,---,0.00,VWS V14.01,2013-07-26 19:31:00,
2013-07-26 14:32:00,100.9,66.6,29.94,SSE,158,7.8,8.7,33,0.00,,---,0.00,VWS V14.01,2013-07-26 19:32:00,
2013-07-26 14:33:00,100.6,66.3,29.94,South,180,7.2,7.8,33,0.00,,---,0.00,VWS V14.01,2013-07-26 19:33:00,
2013-07-26 14:34:00,100.4,66.1,29.94,SSW,202,2.9,7.2,33,0.00,,---,0.00,VWS V14.01,2013-07-26 19:34:00,
2013-07-26 14:35:00,100.4,66.1,29.94,SSW,202,3.8,7.2,33,0.00,,---,0.00,VWS V14.01,2013-07-26 19:35:00,
2013-07-26 14:36:00,100.2,66.0,29.94,SW,225,4.9,6.0,33,0.00,,---,0.00,VWS V14.01,2013-07-26 19:36:00,
2013-07-26 14:37:00,99.7,66.3,29.94,South,180,4.3,5.4,34,0.00,,---,0.00,VWS V14.01,2013-07-26 19:37:00,
2013-07-26 14:38:00,99.2,64.2,29.94,South,180,4.3,4.9,32,0.00,,---,0.00,VWS V14.01,2013-07-26 19:38:00,
2013-07-26 14:39:00,98.6,64.6,29.94,SSW,202,2.5,4.3,33,0.00,,---,0.00,VWS V14.01,2013-07-26 19:39:00,
2013-07-26 14:40:00,98.6,64.6,29.94,South,180,2.0,3.1,33,0.00,,---,0.00,VWS V14.01,2013-07-26 19:40:00,
2013-07-26 14:41:00,98.6,64.6,29.94,SSE,158,2.7,3.1,33,0.00,,---,0.00,VWS V14.01,2013-07-26 19:41:00,
2013-07-26 14:42:00,98.6,65.4,29.94,SSW,202,1.1,2.7,34,0.00,,---,0.00,VWS V14.01,2013-07-26 19:42:00,
2013-07-26 14:43:00,98.8,65.6,29.94,South,180,3.1,4.3,34,0.00,,---,0.00,VWS V14.01,2013-07-26 19:43:00,
2013-07-26 14:44:00,98.8,65.6,29.94,South,180,4.0,5.4,34,0.00,,---,0.00,VWS V14.01,2013-07-26 19:44:00,
2013-07-26 14:45:00,98.8,66.4,29.94,SE,135,2.5,4.0,35,0.00,,---,0.00,VWS V14.01,2013-07-26 19:45:00,
2013-07-26 14:46:00,99.0,66.6,29.94,SSW,202,2.0,4.3,35,0.00,,---,0.00,VWS V14.01,2013-07-26 19:46:00,
2013-07-26 14:47:00,99.0,66.6,29.94,SE,135,2.5,3.1,35,0.00,,---,0.00,VWS V14.01,2013-07-26 19:47:00,
2013-07-26 14:48:00,99.2,65.9,29.94,SE,135,3.4,3.4,34,0.00,,---,0.00,VWS V14.01,2013-07-26 19:48:00,
2013-07-26 14:49:00,99.2,65.9,29.94,ESE,112,1.3,4.0,34,0.00,,---,0.00,VWS V14.01,2013-07-26 19:49:00,
2013-07-26 14:50:00,99.3,66.1,29.94,South,180,2.0,3.6,34,0.00,,---,0.00,VWS V14.01,2013-07-26 19:50:00,
2013-07-26 14:51:00,99.3,66.1,29.94,South,180,3.6,3.6,34,0.00,,---,0.00,VWS V14.01,2013-07-26 19:51:00,
2013-07-26 14:52:00,99.3,66.1,29.94,South,180,1.6,3.6,34,0.00,,---,0.00,VWS V14.01,2013-07-26 19:52:00,
2013-07-26 14:53:00,99.5,66.2,29.94,SE,135,3.1,3.1,34,0.00,,---,0.00,VWS V14.01,2013-07-26 19:53:00,
2013-07-26 14:54:00,99.7,66.3,29.94,SE,135,1.1,3.1,34,0.00,,---,0.00,VWS V14.01,2013-07-26 19:54:00,
2013-07-26 14:55:00,99.7,66.3,29.94,SSE,158,2.2,4.0,34,0.00,,---,0.00,VWS V14.01,2013-07-26 19:55:00,
2013-07-26 14:56:00,99.9,66.5,29.94,SSE,158,3.6,4.7,34,0.00,,---,0.00,VWS V14.01,2013-07-26 19:56:00,
2013-07-26 14:57:00,99.5,66.2,29.94,East,90,0.0,3.6,34,0.00,,---,0.00,VWS V14.01,2013-07-26 19:57:00,
2013-07-26 14:58:00,99.3,66.1,29.94,South,180,4.0,4.0,34,0.00,,---,0.00,VWS V14.01,2013-07-26 19:58:00,
2013-07-26 14:59:00,99.0,65.7,29.94,ESE,112,3.4,6.3,34,0.00,,---,0.00,VWS V14.01,2013-07-26 19:59:00,
2013-07-26 15:00:00,99.0,65.7,29.94,SW,225,3.1,3.8,34,0.00,,---,0.00,VWS V14.01,2013-07-26 20:00:00,
2013-07-26 15:01:00,99.2,65.9,29.94,SSE,158,2.7,3.1,34,0.00,,---,0.00,VWS V14.01,2013-07-26 20:01:00,
2013-07-26 15:02:00,99.3,66.1,29.94,ESE,112,2.2,4.3,34,0.00,,---,0.00,VWS V14.01,2013-07-26 20:02:00,
2013-07-26 15:03:00,99.5,66.2,29.94,ESE,112,0.0,2.2,34,0.00,,---,0.00,VWS V14.01,2013-07-26 20:03:00,
2013-07-26 15:04:00,99.9,66.5,29.94,SE,135,3.4,3.4,34,0.00,,---,0.00,VWS V14.01,2013-07-26 20:04:00,
2013-07-26 15:05:00,100.1,66.7,29.94,SSW,202,3.4,4.7,34,0.00,,---,0.00,VWS V14.01,2013-07-26 20:05:00,
2013-07-26 15:06:00,100.1,65.8,29.94,SE,135,4.9,5.6,33,0.00,,---,0.00,VWS V14.01,2013-07-26 20:06:00,
2013-07-26 15:07:00,100.1,65.8,29.94,SSE,158,5.8,5.8,33,0.00,,---,0.00,VWS V14.01,2013-07-26 20:07:00,
2013-07-26 15:08:00,99.9,65.7,29.94,SE,135,1.1,5.8,33,0.00,,---,0.00,VWS V14.01,2013-07-26 20:08:00,
2013-07-26 15:09:00,99.9,66.5,29.94,South,180,4.3,4.3,34,0.00,,---,0.00,VWS V14.01,2013-07-26 20:09:00,
2013-07-26 15:10:00,99.9,66.5,29.94,South,180,0.9,4.3,34,0.00,,---,0.00,VWS V14.01,2013-07-26 20:10:00,
2013-07-26 15:11:00,99.9,66.5,29.94,SSE,158,3.8,3.8,34,0.00,,---,0.00,VWS V14.01,2013-07-26 20:11:00,
2013-07-26 15:12:00,99.9,66.5,29.94,SSW,202,3.1,3.8,34,0.00,,---,0.00,VWS V14.01,2013-07-26 20:12:00,
2013-07-26 15:13:00,99.5,64.5,29.94,SW,225,4.7,5.8,32,0.00,,---,0.00,VWS V14.01,2013-07-26 20:13:00,
2013-07-26 15:14:00,99.3,65.2,29.94,SSW,202,5.4,5.4,33,0.00,,---,0.00,VWS V14.01,2013-07-26 20:14:00,
2013-07-26 15:15:00,99.3,66.1,29.94,South,180,0.0,5.4,34,0.00,,---,0.00,VWS V14.01,2013-07-26 20:15:00,
2013-07-26 15:16:00,99.7,66.3,29.91,SW,225,1.6,2.0,34,0.00,,---,0.00,VWS V14.01,2013-07-26 20:16:00,
2013-07-26 15:17:00,99.7,65.5,29.91,SSW,202,2.7,3.6,33,0.00,,---,0.00,VWS V14.01,2013-07-26 20:17:00,
2013-07-26 15:18:00,99.9,65.7,29.91,South,180,2.5,3.6,33,0.00,,---,0.00,VWS V14.01,2013-07-26 20:18:00,
2013-07-26 15:19:00,100.1,65.8,29.91,SSE,158,1.6,2.5,33,0.00,,---,0.00,VWS V14.01,2013-07-26 20:19:00,
2013-07-26 15:20:00,100.4,66.1,29.91,SE,135,3.1,4.0,33,0.00,,---,0.00,VWS V14.01,2013-07-26 20:20:00,
2013-07-26 15:21:00,100.6,67.1,29.91,ENE,68,1.6,3.1,34,0.00,,---,0.00,VWS V14.01,2013-07-26 20:21:00,
2013-07-26 15:22:00,100.8,67.3,29.91,South,180,4.7,4.9,34,0.00,,---,0.00,VWS V14.01,2013-07-26 20:22:00,
2013-07-26 15:23:00,100.6,66.3,29.91,South,180,6.5,8.1,33,0.00,,---,0.00,VWS V14.01,2013-07-26 20:23:00,
2013-07-26 15:24:00,100.2,65.1,29.91,SE,135,5.4,7.6,32,0.00,,---,0.00,VWS V14.01,2013-07-26 20:24:00,
2013-07-26 15:25:00,100.2,66.0,29.91,South,180,2.0,5.4,33,0.00,,---,0.00,VWS V14.01,2013-07-26 20:25:00,
2013-07-26 15:26:00,100.4,66.1,29.91,South,180,4.3,4.3,33,0.00,,---,0.00,VWS V14.01,2013-07-26 20:26:00,
2013-07-26 15:27:00,100.8,67.3,29.91,ESE,112,3.4,4.3,34,0.00,,---,0.00,VWS V14.01,2013-07-26 20:27:00,
2013-07-26 15:28:00,101.1,66.7,29.91,SW,225,1.3,3.8,33,0.00,,---,0.00,VWS V14.01,2013-07-26 20:28:00,
2013-07-26 15:29:00,101.1,66.7,29.91,East,90,2.0,3.1,33,0.00,,---,0.00,VWS V14.01,2013-07-26 20:29:00,
2013-07-26 15:30:00,101.3,66.0,29.91,South,180,3.8,6.3,32,0.00,,---,0.00,VWS V14.01,2013-07-26 20:30:00,
2013-07-26 15:31:00,101.1,66.7,29.94,South,180,0.9,3.8,33,0.00,,---,0.00,VWS V14.01,2013-07-26 20:31:00,
2013-07-26 15:32:00,100.9,66.6,29.94,SSE,158,2.7,6.0,33,0.00,,---,0.00,VWS V14.01,2013-07-26 20:32:00,
2013-07-26 15:33:00,101.1,66.7,29.94,SE,135,6.7,6.7,33,0.00,,---,0.00,VWS V14.01,2013-07-26 20:33:00,
2013-07-26 15:34:00,100.9,65.7,29.94,East,90,4.9,7.2,32,0.00,,---,0.00,VWS V14.01,2013-07-26 20:34:00,
2013-07-26 15:35:00,100.8,65.5,29.94,East,90,5.6,6.0,32,0.00,,---,0.00,VWS V14.01,2013-07-26 20:35:00,
2013-07-26 15:36:00,100.8,66.4,29.94,ESE,112,3.6,6.0,33,0.00,,---,0.00,VWS V14.01,2013-07-26 20:36:00,
2013-07-26 15:37:00,101.1,65.8,29.94,ESE,112,2.5,3.6,32,0.00,,---,0.00,VWS V14.01,2013-07-26 20:37:00,
2013-07-26 15:38:00,100.8,66.4,29.94,SE,135,3.4,3.8,33,0.00,,---,0.00,VWS V14.01,2013-07-26 20:38:00,
2013-07-26 15:39:00,100.4,66.1,29.94,East,90,4.5,4.5,33,0.00,,---,0.00,VWS V14.01,2013-07-26 20:39:00,
2013-07-26 15:40:00,99.9,64.8,29.94,East,90,4.3,4.5,32,0.00,,---,0.00,VWS V14.01,2013-07-26 20:40:00,
2013-07-26 15:41:00,99.5,65.3,29.94,SW,225,6.0,6.0,33,0.00,,---,0.00,VWS V14.01,2013-07-26 20:41:00,
2013-07-26 15:42:00,99.5,65.3,29.94,SE,135,3.8,6.5,33,0.00,,---,0.00,VWS V14.01,2013-07-26 20:42:00,
2013-07-26 15:43:00,99.5,65.3,29.94,South,180,2.0,7.4,33,0.00,,---,0.00,VWS V14.01,2013-07-26 20:43:00,
2013-07-26 15:44:00,99.7,65.5,29.94,SE,135,3.4,3.4,33,0.00,,---,0.00,VWS V14.01,2013-07-26 20:44:00,
2013-07-26 15:45:00,99.7,65.5,29.94,SSE,158,6.3,6.3,33,0.00,,---,0.00,VWS V14.01,2013-07-26 20:45:00,
2013-07-26 15:46:00,99.9,65.7,29.94,East,90,2.0,6.3,33,0.00,,---,0.00,VWS V14.01,2013-07-26 20:46:00,
2013-07-26 15:47:00,99.5,65.3,29.94,ESE,112,4.9,5.6,33,0.00,,---,0.00,VWS V14.01,2013-07-26 20:47:00,
2013-07-26 15:48:00,99.3,65.2,29.94,ESE,112,2.9,5.4,33,0.00,,---,0.00,VWS V14.01,2013-07-26 20:48:00,
2013-07-26 15:49:00,99.3,65.2,29.94,South,180,3.1,5.8,33,0.00,,---,0.00,VWS V14.01,2013-07-26 20:49:00,
2013-07-26 15:50:00,99.7,65.5,29.94,ESE,112,2.5,3.1,33,0.00,,---,0.00,VWS V14.01,2013-07-26 20:50:00,
2013-07-26 15:51:00,99.7,65.5,29.94,ESE,112,6.3,8.1,33,0.00,,---,0.00,VWS V14.01,2013-07-26 20:51:00,
2013-07-26 15:52:00,99.9,65.7,29.94,ESE,112,2.9,6.3,33,0.00,,---,0.00,VWS V14.01,2013-07-26 20:52:00,
2013-07-26 15:53:00,100.1,65.8,29.94,SE,135,3.6,4.0,33,0.00,,---,0.00,VWS V14.01,2013-07-26 20:53:00,
2013-07-26 15:54:00,100.2,66.0,29.94,ESE,112,2.0,3.6,33,0.00,,---,0.00,VWS V14.01,2013-07-26 20:54:00,
2013-07-26 15:55:00,100.1,65.8,29.94,SSE,158,2.0,3.1,33,0.00,,---,0.00,VWS V14.01,2013-07-26 20:55:00,
2013-07-26 15:56:00,99.7,65.5,29.94,ESE,112,3.1,5.6,33,0.00,,---,0.00,VWS V14.01,2013-07-26 20:56:00,
2013-07-26 15:57:00,99.0,64.9,29.94,SE,135,6.0,6.0,33,0.00,,---,0.00,VWS V14.01,2013-07-26 20:57:00,
2013-07-26 15:58:00,98.8,64.7,29.94,South,180,5.8,6.3,33,0.00,,---,0.00,VWS V14.01,2013-07-26 20:58:00,
2013-07-26 15:59:00,98.3,64.3,29.94,East,90,4.9,5.8,33,0.00,,---,0.00,VWS V14.01,2013-07-26 20:59:00,
2013-07-26 16:00:00,98.3,64.3,29.94,SSE,158,6.5,6.5,33,0.00,,---,0.00,VWS V14.01,2013-07-26 21:00:00,
2013-07-26 16:01:00,97.9,64.0,29.91,ESE,112,2.9,6.5,33,0.00,,---,0.00,VWS V14.01,2013-07-26 21:01:00,
2013-07-26 16:02:00,97.6,63.7,29.91,ESE,112,2.2,2.9,33,0.00,,---,0.00,VWS V14.01,2013-07-26 21:02:00,
2013-07-26 16:03:00,97.4,63.5,29.91,SSE,158,5.6,5.6,33,0.00,,---,0.00,VWS V14.01,2013-07-26 21:03:00,
2013-07-26 16:04:00,97.4,63.5,29.91,SE,135,3.8,5.6,33,0.00,,---,0.00,VWS V14.01,2013-07-26 21:04:00,
2013-07-26 16:05:00,97.2,64.2,29.91,South,180,1.3,3.8,34,0.00,,---,0.00,VWS V14.01,2013-07-26 21:05:00,
2013-07-26 16:06:00,97.0,64.0,29.91,SSW,202,3.4,4.0,34,0.00,,---,0.00,VWS V14.01,2013-07-26 21:06:00,
2013-07-26 16:07:00,96.7,63.7,29.91,ESE,112,5.6,5.6,34,0.00,,---,0.00,VWS V14.01,2013-07-26 21:07:00,
2013-07-26 16:08:00,96.9,63.9,29.91,NE,45,1.3,7.6,34,0.00,,---,0.00,VWS V14.01,2013-07-26 21:08:00,
2013-07-26 16:09:00,97.0,64.0,29.91,East,90,4.3,7.2,34,0.00,,---,0.00,VWS V14.01,2013-07-26 21:09:00,
2013-07-26 16:10:00,96.9,63.9,29.91,East,90,3.6,6.5,34,0.00,,---,0.00,VWS V14.01,2013-07-26 21:10:00,
2013-07-26 16:11:00,96.7,63.7,29.91,ESE,112,2.9,3.6,34,0.00,,---,0.00,VWS V14.01,2013-07-26 21:11:00,
2013-07-26 16:12:00,96.5,63.6,29.91,South,180,6.3,6.3,34,0.00,,---,0.00,VWS V14.01,2013-07-26 21:12:00,
2013-07-26 16:13:00,96.3,63.4,29.91,SSW,202,4.7,6.3,34,0.00,,---,0.00,VWS V14.01,2013-07-26 21:13:00,
2013-07-26 16:14:00,96.2,63.3,29.91,SSW,202,3.6,4.7,34,0.00,,---,0.00,VWS V14.01,2013-07-26 21:14:00,
2013-07-26 16:15:00,95.8,63.0,29.91,ESE,112,2.5,8.1,34,0.00,,---,0.00,VWS V14.01,2013-07-26 21:15:00,
2013-07-26 16:16:00,95.6,62.8,29.91,SE,135,3.4,3.4,34,0.00,,---,0.00,VWS V14.01,2013-07-26 21:16:00,
2013-07-26 16:17:00,95.6,62.8,29.91,ESE,112,4.0,4.0,34,0.00,,---,0.00,VWS V14.01,2013-07-26 21:17:00,
2013-07-26 16:18:00,95.6,62.8,29.91,SE,135,1.1,4.0,34,0.00,,---,0.00,VWS V14.01,2013-07-26 21:18:00,
2013-07-26 16:19:00,96.3,64.2,29.91,ESE,112,1.3,1.3,35,0.00,,---,0.00,VWS V14.01,2013-07-26 21:19:00,
2013-07-26 16:20:00,96.7,64.6,29.91,South,180,2.7,3.4,35,0.00,,---,0.00,VWS V14.01,2013-07-26 21:20:00,
2013-07-26 16:21:00,96.7,64.6,29.91,SSW,202,2.9,3.8,35,0.00,,---,0.00,VWS V14.01,2013-07-26 21:21:00,
2013-07-26 16:22:00,96.5,64.4,29.91,SE,135,4.0,4.7,35,0.00,,---,0.00,VWS V14.01,2013-07-26 21:22:00,
2013-07-26 16:23:00,96.3,64.2,29.91,SSW,202,1.3,6.5,35,0.00,,---,0.00,VWS V14.01,2013-07-26 21:23:00,
2013-07-26 16:24:00,96.3,64.2,29.91,SSE,158,4.5,5.4,35,0.00,,---,0.00,VWS V14.01,2013-07-26 21:24:00,
2013-07-26 16:25:00,96.2,64.1,29.91,SE,135,3.6,6.0,35,0.00,,---,0.00,VWS V14.01,2013-07-26 21:25:00,
2013-07-26 16:26:00,96.0,63.9,29.91,WSW,248,2.9,4.3,35,0.00,,---,0.00,VWS V14.01,2013-07-26 21:26:00,
2013-07-26 16:27:00,96.0,63.9,29.91,ESE,112,3.1,5.6,35,0.00,,---,0.00,VWS V14.01,2013-07-26 21:27:00,
2013-07-26 16:28:00,96.2,64.1,29.91,East,90,4.3,6.5,35,0.00,,---,0.00,VWS V14.01,2013-07-26 21:28:00,
2013-07-26 16:29:00,96.5,64.4,29.91,SE,135,4.3,6.5,35,0.00,,---,0.00,VWS V14.01,2013-07-26 21:29:00,
2013-07-26 16:30:00,96.9,64.7,29.91,SE,135,1.3,4.3,35,0.00,,---,0.00,VWS V14.01,2013-07-26 21:30:00,
2013-07-26 16:31:00,97.0,64.9,29.91,South,180,3.1,3.8,35,0.00,,---,0.00,VWS V14.01,2013-07-26 21:31:00,
2013-07-26 16:32:00,97.4,65.2,29.91,ESE,112,4.0,4.9,35,0.00,,---,0.00,VWS V14.01,2013-07-26 21:32:00,
2013-07-26 16:33:00,97.8,65.5,29.91,ESE,112,2.7,4.0,35,0.00,,---,0.00,VWS V14.01,2013-07-26 21:33:00,
2013-07-26 16:34:00,97.9,64.8,29.91,East,90,2.9,5.6,34,0.00,,---,0.00,VWS V14.01,2013-07-26 21:34:00,
2013-07-26 16:35:00,97.9,65.6,29.91,South,180,2.7,4.9,35,0.00,,---,0.00,VWS V14.01,2013-07-26 21:35:00,
2013-07-26 16:36:00,98.1,65.0,29.91,SE,135,2.5,6.3,34,0.00,,---,0.00,VWS V14.01,2013-07-26 21:36:00,
2013-07-26 16:37:00,98.1,65.0,29.91,South,180,2.7,5.6,34,0.00,,---,0.00,VWS V14.01,2013-07-26 21:37:00,
2013-07-26 16:38:00,98.3,65.1,29.91,SSW,202,3.4,3.4,34,0.00,,---,0.00,VWS V14.01,2013-07-26 21:38:00,
2013-07-26 16:39:00,98.3,65.1,29.91,SE,135,5.6,6.0,34,0.00,,---,0.00,VWS V14.01,2013-07-26 21:39:00,
2013-07-26 16:40:00,98.3,64.3,29.91,East,90,5.4,7.4,33,0.00,,---,0.00,VWS V14.01,2013-07-26 21:40:00,
2013-07-26 16:41:00,98.3,64.3,29.91,ESE,112,3.6,6.3,33,0.00,,---,0.00,VWS V14.01,2013-07-26 21:41:00,
2013-07-26 16:42:00,98.3,64.3,29.91,ESE,112,6.5,6.5,33,0.00,,---,0.00,VWS V14.01,2013-07-26 21:42:00,
2013-07-26 16:43:00,98.1,64.1,29.91,East,90,1.6,6.5,33,0.00,,---,0.00,VWS V14.01,2013-07-26 21:43:00,
2013-07-26 16:44:00,98.3,65.1,29.91,South,180,2.5,4.9,34,0.00,,---,0.00,VWS V14.01,2013-07-26 21:44:00,
2013-07-26 16:45:00,98.3,64.3,29.91,South,180,6.3,6.3,33,0.00,,---,0.00,VWS V14.01,2013-07-26 21:45:00,
2013-07-26 16:46:00,98.3,65.1,29.88,SSW,202,4.0,6.3,34,0.00,,---,0.00,VWS V14.01,2013-07-26 21:46:00,
2013-07-26 16:47:00,97.9,64.8,29.88,South,180,4.9,8.7,34,0.00,,---,0.00,VWS V14.01,2013-07-26 21:47:00,
2013-07-26 16:48:00,97.9,64.8,29.88,South,180,6.5,7.8,34,0.00,,---,0.00,VWS V14.01,2013-07-26 21:48:00,
2013-07-26 16:49:00,97.9,64.8,29.88,South,180,9.4,9.4,34,0.00,,---,0.00,VWS V14.01,2013-07-26 21:49:00,
2013-07-26 16:50:00,97.8,63.8,29.88,SSW,202,6.0,9.4,33,0.00,,---,0.00,VWS V14.01,2013-07-26 21:50:00,
2013-07-26 16:51:00,97.6,63.7,29.88,South,180,2.7,6.0,33,0.00,,---,0.00,VWS V14.01,2013-07-26 21:51:00,
2013-07-26 16:52:00,97.8,64.7,29.88,WSW,248,0.9,2.7,34,0.00,,---,0.00,VWS V14.01,2013-07-26 21:52:00,
2013-07-26 16:53:00,97.9,64.8,29.88,South,180,2.5,3.8,34,0.00,,---,0.00,VWS V14.01,2013-07-26 21:53:00,
2013-07-26 16:54:00,97.9,64.8,29.88,WSW,248,3.6,3.6,34,0.00,,---,0.00,VWS V14.01,2013-07-26 21:54:00,
2013-07-26 16:55:00,98.1,65.0,29.88,SE,135,6.3,6.3,34,0.00,,---,0.00,VWS V14.01,2013-07-26 21:55:00,
2013-07-26 16:56:00,97.9,64.0,29.88,SE,135,3.8,6.3,33,0.00,,---,0.00,VWS V14.01,2013-07-26 21:56:00,
2013-07-26 16:57:00,97.9,64.0,29.88,SE,135,2.0,5.4,33,0.00,,---,0.00,VWS V14.01,2013-07-26 21:57:00,
2013-07-26 16:58:00,97.9,64.8,29.88,SE,135,2.0,4.3,34,0.00,,---,0.00,VWS V14.01,2013-07-26 21:58:00,
2013-07-26 16:59:00,98.3,65.1,29.88,East,90,1.3,6.5,34,0.00,,---,0.00,VWS V14.01,2013-07-26 21:59:00,
2013-07-26 17:00:00,98.3,65.1,29.88,SSE,158,1.3,3.8,34,0.00,,---,0.00,VWS V14.01,2013-07-26 22:00:00,
2013-07-26 17:01:00,98.1,65.0,29.88,SW,225,6.0,8.7,34,0.00,,---,0.00,VWS V14.01,2013-07-26 22:01:00,
2013-07-26 17:02:00,98.1,65.0,29.88,SE,135,2.0,6.3,34,0.00,,---,0.00,VWS V14.01,2013-07-26 22:02:00,
2013-07-26 17:03:00,97.9,64.8,29.88,SE,135,4.3,4.3,34,0.00,,---,0.00,VWS V14.01,2013-07-26 22:03:00,
2013-07-26 17:04:00,97.9,64.8,29.88,ESE,112,3.1,4.3,34,0.00,,---,0.00,VWS V14.01,2013-07-26 22:04:00,
2013-07-26 17:05:00,97.9,64.8,29.88,ESE,112,4.9,10.5,34,0.00,,---,0.00,VWS V14.01,2013-07-26 22:05:00,
2013-07-26 17:06:00,97.8,63.8,29.88,ESE,112,6.3,6.3,33,0.00,,---,0.00,VWS V14.01,2013-07-26 22:06:00,
2013-07-26 17:07:00,97.8,64.7,29.88,East,90,2.9,6.3,34,0.00,,---,0.00,VWS V14.01,2013-07-26 22:07:00,
2013-07-26 17:08:00,97.6,63.7,29.88,SSE,158,3.6,6.5,33,0.00,,---,0.00,VWS V14.01,2013-07-26 22:08:00,
2013-07-26 17:09:00,97.8,64.7,29.88,SW,225,0.0,3.6,34,0.00,,---,0.00,VWS V14.01,2013-07-26 22:09:00,
2013-07-26 17:10:00,97.8,64.7,29.88,ESE,112,2.7,3.4,34,0.00,,---,0.00,VWS V14.01,2013-07-26 22:10:00,
2013-07-26 17:11:00,97.6,63.7,29.88,SE,135,2.9,5.8,33,0.00,,---,0.00,VWS V14.01,2013-07-26 22:11:00,
2013-07-26 17:12:00,97.6,64.5,29.88,SE,135,1.1,3.4,34,0.00,,---,0.00,VWS V14.01,2013-07-26 22:12:00,
2013-07-26 17:13:00,97.6,64.5,29.88,SE,135,7.2,7.2,34,0.00,,---,0.00,VWS V14.01,2013-07-26 22:13:00,
2013-07-26 17:14:00,97.4,64.3,29.88,SE,135,4.3,8.5,34,0.00,,---,0.00,VWS V14.01,2013-07-26 22:14:00,
2013-07-26 17:15:00,97.2,64.2,29.88,SE,135,7.4,7.4,34,0.00,,---,0.00,VWS V14.01,2013-07-26 22:15:00,
2013-07-26 17:16:00,97.0,64.0,29.88,SW,225,2.9,9.6,34,0.00,,---,0.00,VWS V14.01,2013-07-26 22:16:00,
2013-07-26 17:17:00,97.0,64.0,29.88,SE,135,3.1,3.1,34,0.00,,---,0.00,VWS V14.01,2013-07-26 22:17:00,
2013-07-26 17:18:00,96.7,63.7,29.88,SW,225,5.8,5.8,34,0.00,,---,0.00,VWS V14.01,2013-07-26 22:18:00,
2013-07-26 17:19:00,96.7,63.7,29.88,WSW,248,3.8,6.5,34,0.00,,---,0.00,VWS V14.01,2013-07-26 22:19:00,
2013-07-26 17:20:00,96.7,63.7,29.88,South,180,1.1,3.8,34,0.00,,---,0.00,VWS V14.01,2013-07-26 22:20:00,
2013-07-26 17:21:00,96.9,63.9,29.88,NE,45,4.3,4.3,34,0.00,,---,0.00,VWS V14.01,2013-07-26 22:21:00,
2013-07-26 17:22:00,96.9,63.9,29.88,South,180,1.6,4.3,34,0.00,,---,0.00,VWS V14.01,2013-07-26 22:22:00,
2013-07-26 17:23:00,96.9,63.9,29.88,SSE,158,3.1,3.6,34,0.00,,---,0.00,VWS V14.01,2013-07-26 22:23:00,
2013-07-26 17:24:00,96.9,63.9,29.88,SE,135,2.0,3.8,34,0.00,,---,0.00,VWS V14.01,2013-07-26 22:24:00,
2013-07-26 17:25:00,97.0,64.0,29.88,South,180,5.4,5.4,34,0.00,,---,0.00,VWS V14.01,2013-07-26 22:25:00,
2013-07-26 17:26:00,96.9,63.9,29.88,East,90,3.4,5.4,34,0.00,,---,0.00,VWS V14.01,2013-07-26 22:26:00,
2013-07-26 17:27:00,96.9,63.9,29.88,South,180,2.5,6.0,34,0.00,,---,0.00,VWS V14.01,2013-07-26 22:27:00,
2013-07-26 17:28:00,96.9,64.7,29.88,East,90,2.5,5.6,35,0.00,,---,0.00,VWS V14.01,2013-07-26 22:28:00,
2013-07-26 17:29:00,96.7,63.7,29.88,East,90,3.6,4.3,34,0.00,,---,0.00,VWS V14.01,2013-07-26 22:29:00,
2013-07-26 17:30:00,96.7,64.6,29.88,SE,135,2.5,3.6,35,0.00,,---,0.00,VWS V14.01,2013-07-26 22:30:00,
2013-07-26 17:31:00,96.7,64.6,29.85,SE,135,2.9,7.4,35,0.00,,---,0.00,VWS V14.01,2013-07-26 22:31:00,
2013-07-26 17:32:00,96.5,63.6,29.85,South,180,5.6,5.6,34,0.00,,---,0.00,VWS V14.01,2013-07-26 22:32:00,
2013-07-26 17:33:00,96.5,63.6,29.85,SE,135,1.6,5.6,34,0.00,,---,0.00,VWS V14.01,2013-07-26 22:33:00,
2013-07-26 17:34:00,96.5,64.4,29.85,SSW,202,3.4,4.0,35,0.00,,---,0.00,VWS V14.01,2013-07-26 22:34:00,
2013-07-26 17:35:00,96.5,64.4,29.85,South,180,2.5,3.4,35,0.00,,---,0.00,VWS V14.01,2013-07-26 22:35:00,
2013-07-26 17:36:00,96.3,64.2,29.85,SE,135,4.0,6.5,35,0.00,,---,0.00,VWS V14.01,2013-07-26 22:36:00,
2013-07-26 17:37:00,96.3,64.2,29.85,South,180,2.7,6.9,35,0.00,,---,0.00,VWS V14.01,2013-07-26 22:37:00,
2013-07-26 17:38:00,96.3,64.2,29.85,SE,135,1.3,5.6,35,0.00,,---,0.00,VWS V14.01,2013-07-26 22:38:00,
2013-07-26 17:39:00,96.2,64.1,29.85,South,180,2.7,6.5,35,0.00,,---,0.00,VWS V14.01,2013-07-26 22:39:00,
2013-07-26 17:40:00,96.0,63.9,29.85,East,90,4.9,6.7,35,0.00,,---,0.00,VWS V14.01,2013-07-26 22:40:00,
2013-07-26 17:41:00,96.0,63.9,29.85,South,180,3.8,6.9,35,0.00,,---,0.00,VWS V14.01,2013-07-26 22:41:00,
2013-07-26 17:42:00,96.0,63.9,29.85,South,180,5.6,5.6,35,0.00,,---,0.00,VWS V14.01,2013-07-26 22:42:00,
2013-07-26 17:43:00,96.0,63.9,29.85,SSW,202,5.8,6.5,35,0.00,,---,0.00,VWS V14.01,2013-07-26 22:43:00,
2013-07-26 17:44:00,95.8,63.8,29.85,South,180,1.6,8.1,35,0.00,,---,0.00,VWS V14.01,2013-07-26 22:44:00,
2013-07-26 17:45:00,95.8,63.8,29.85,SE,135,2.7,2.7,35,0.00,,---,0.00,VWS V14.01,2013-07-26 22:45:00,
2013-07-26 17:46:00,95.8,63.8,29.88,NW,315,3.1,3.8,35,0.00,,---,0.00,VWS V14.01,2013-07-26 22:46:00,
2013-07-26 17:47:00,95.8,63.8,29.88,ESE,112,4.3,4.3,35,0.00,,---,0.00,VWS V14.01,2013-07-26 22:47:00,
2013-07-26 17:48:00,95.8,63.8,29.88,ESE,112,2.5,4.3,35,0.00,,---,0.00,VWS V14.01,2013-07-26 22:48:00,
2013-07-26 17:49:00,95.6,63.6,29.88,SSE,158,3.1,4.0,35,0.00,,---,0.00,VWS V14.01,2013-07-26 22:49:00,
2013-07-26 17:50:00,95.6,63.6,29.88,SW,225,2.9,4.9,35,0.00,,---,0.00,VWS V14.01,2013-07-26 22:50:00,
2013-07-26 17:51:00,95.6,63.6,29.88,South,180,2.2,4.9,35,0.00,,---,0.00,VWS V14.01,2013-07-26 22:51:00,
2013-07-26 17:52:00,95.4,64.3,29.88,South,180,3.6,3.6,36,0.00,,---,0.00,VWS V14.01,2013-07-26 22:52:00,
2013-07-26 17:53:00,95.4,64.3,29.88,NE,45,2.5,5.6,36,0.00,,---,0.00,VWS V14.01,2013-07-26 22:53:00,
2013-07-26 17:54:00,95.4,64.3,29.88,SE,135,1.3,5.8,36,0.00,,---,0.00,VWS V14.01,2013-07-26 22:54:00,
2013-07-26 17:55:00,95.4,64.3,29.88,ESE,112,7.6,7.6,36,0.00,,---,0.00,VWS V14.01,2013-07-26 22:55:00,
2013-07-26 17:56:00,95.3,64.1,29.88,South,180,5.4,10.3,36,0.00,,---,0.00,VWS V14.01,2013-07-26 22:56:00,
2013-07-26 17:57:00,95.3,64.1,29.88,SE,135,2.2,6.5,36,0.00,,---,0.00,VWS V14.01,2013-07-26 22:57:00,
2013-07-26 17:58:00,95.1,64.0,29.88,SSW,202,3.1,3.1,36,0.00,,---,0.00,VWS V14.01,2013-07-26 22:58:00,
2013-07-26 17:59:00,95.1,63.2,29.88,East,90,4.0,4.0,35,0.00,,---,0.00,VWS V14.01,2013-07-26 22:59:00,
2013-07-26 18:00:00,95.1,64.0,29.88,SSW,202,5.8,7.8,36,0.00,,---,0.00,VWS V14.01,2013-07-26 23:00:00,
2013-07-26 18:01:00,95.1,64.0,29.88,East,90,4.0,5.8,36,0.00,,---,0.00,VWS V14.01,2013-07-26 23:01:00,
2013-07-26 18:02:00,94.9,63.8,29.88,WSW,248,1.6,7.4,36,0.00,,---,0.00,VWS V14.01,2013-07-26 23:02:00,
2013-07-26 18:03:00,94.9,63.8,29.88,SSE,158,4.0,4.7,36,0.00,,---,0.00,VWS V14.01,2013-07-26 23:03:00,
2013-07-26 18:04:00,94.9,63.8,29.88,SE,135,1.3,4.7,36,0.00,,---,0.00,VWS V14.01,2013-07-26 23:04:00,
2013-07-26 18:05:00,94.9,63.8,29.88,South,180,2.5,3.8,36,0.00,,---,0.00,VWS V14.01,2013-07-26 23:05:00,
2013-07-26 18:06:00,94.9,63.8,29.88,SSW,202,2.2,2.5,36,0.00,,---,0.00,VWS V14.01,2013-07-26 23:06:00,
2013-07-26 18:07:00,95.1,64.0,29.88,NNE,22,2.7,3.1,36,0.00,,---,0.00,VWS V14.01,2013-07-26 23:07:00,
2013-07-26 18:08:00,95.1,64.0,29.88,South,180,2.7,6.3,36,0.00,,---,0.00,VWS V14.01,2013-07-26 23:08:00,
2013-07-26 18:09:00,94.9,63.8,29.88,SSW,202,4.7,4.7,36,0.00,,---,0.00,VWS V14.01,2013-07-26 23:09:00,
2013-07-26 18:10:00,94.9,63.8,29.88,NNE,22,3.1,4.7,36,0.00,,---,0.00,VWS V14.01,2013-07-26 23:10:00,
2013-07-26 18:11:00,94.9,63.8,29.88,SE,135,4.3,7.4,36,0.00,,---,0.00,VWS V14.01,2013-07-26 23:11:00,
2013-07-26 18:12:00,94.7,63.7,29.88,South,180,4.9,6.0,36,0.00,,---,0.00,VWS V14.01,2013-07-26 23:12:00,
2013-07-26 18:13:00,94.6,63.5,29.88,SSW,202,7.2,7.2,36,0.00,,---,0.00,VWS V14.01,2013-07-26 23:13:00,
2013-07-26 18:14:00,94.6,63.5,29.88,SE,135,3.4,7.4,36,0.00,,---,0.00,VWS V14.01,2013-07-26 23:14:00,
2013-07-26 18:15:00,94.6,63.5,29.88,SE,135,3.1,4.3,36,0.00,,---,0.00,VWS V14.01,2013-07-26 23:15:00,
2013-07-26 18:16:00,94.6,63.5,29.88,SSE,158,3.6,4.3,36,0.00,,---,0.00,VWS V14.01,2013-07-26 23:16:00,
2013-07-26 18:17:00,94.4,63.3,29.85,ESE,112,2.7,9.4,36,0.00,,---,0.00,VWS V14.01,2013-07-26 23:17:00,
2013-07-26 18:18:00,94.4,63.3,29.85,SSE,158,4.0,5.4,36,0.00,,---,0.00,VWS V14.01,2013-07-26 23:18:00,
2013-07-26 18:19:00,94.4,63.3,29.85,SE,135,4.7,7.2,36,0.00,,---,0.00,VWS V14.01,2013-07-26 23:19:00,
2013-07-26 18:20:00,94.4,63.3,29.85,SE,135,4.7,6.5,36,0.00,,---,0.00,VWS V14.01,2013-07-26 23:20:00,
2013-07-26 18:21:00,94.2,63.2,29.85,South,180,2.2,7.4,36,0.00,,---,0.00,VWS V14.01,2013-07-26 23:21:00,
2013-07-26 18:22:00,94.0,63.0,29.85,SSW,202,3.8,5.4,36,99.99,,---,99.99,VWS V14.01,2013-07-26 23:22:00,
2013-07-26 18:23:00,94.0,63.0,29.85,SSE,158,1.6,3.8,36,0.00,,---,0.00,VWS V14.01,2013-07-26 23:23:00,
2013-07-26 18:24:00,94.0,63.0,29.85,SW,225,2.9,4.0,36,0.00,,---,0.00,VWS V14.01,2013-07-26 23:24:00,
2013-07-26 18:25:00,94.0,63.0,29.85,East,90,3.4,4.0,36,0.00,,---,0.00,VWS V14.01,2013-07-26 23:25:00,
2013-07-26 18:26:00,94.0,63.0,29.85,East,90,3.1,3.4,36,0.00,,---,0.00,VWS V14.01,2013-07-26 23:26:00,
2013-07-26 18:27:00,94.0,63.0,29.85,SE,135,4.0,4.0,36,0.00,,---,0.00,VWS V14.01,2013-07-26 23:27:00,
2013-07-26 18:28:00,94.0,63.0,29.85,SE,135,1.3,4.0,36,0.00,,---,0.00,VWS V14.01,2013-07-26 23:28:00,
2013-07-26 18:29:00,94.0,63.0,29.85,SSE,158,2.9,5.6,36,0.00,,---,0.00,VWS V14.01,2013-07-26 23:29:00,
2013-07-26 18:30:00,94.0,63.0,29.85,SSW,202,2.2,4.9,36,0.00,,---,0.00,VWS V14.01,2013-07-26 23:30:00,
2013-07-26 18:31:00,93.8,62.9,29.88,South,180,2.0,4.7,36,0.00,,---,0.00,VWS V14.01,2013-07-26 23:31:00,
2013-07-26 18:32:00,93.8,62.9,29.88,ESE,112,8.5,8.5,36,0.00,,---,0.00,VWS V14.01,2013-07-26 23:32:00,
2013-07-26 18:33:00,93.8,62.9,29.88,SSE,158,2.0,8.5,36,0.00,,---,0.00,VWS V14.01,2013-07-26 23:33:00,
2013-07-26 18:34:00,93.7,62.7,29.88,East,90,2.7,4.5,36,0.00,,---,0.00,VWS V14.01,2013-07-26 23:34:00,
2013-07-26 18:35:00,93.7,62.7,29.88,ESE,112,1.3,3.6,36,0.00,,---,0.00,VWS V14.01,2013-07-26 23:35:00,
2013-07-26 18:36:00,93.7,62.7,29.88,ENE,68,1.6,4.3,36,0.00,,---,0.00,VWS V14.01,2013-07-26 23:36:00,
2013-07-26 18:37:00,93.5,62.6,29.88,SSE,158,4.9,4.9,36,0.00,,---,0.00,VWS V14.01,2013-07-26 23:37:00,
2013-07-26 18:38:00,93.5,62.6,29.88,SW,225,3.4,6.0,36,0.00,,---,0.00,VWS V14.01,2013-07-26 23:38:00,
2013-07-26 18:39:00,93.3,62.4,29.88,ESE,112,2.9,3.4,36,0.00,,---,0.00,VWS V14.01,2013-07-26 23:39:00,
2013-07-26 18:40:00,93.3,62.4,29.88,SW,225,2.0,2.9,36,0.00,,---,0.00,VWS V14.01,2013-07-26 23:40:00,
2013-07-26 18:41:00,93.1,62.2,29.88,South,180,1.6,3.1,36,0.00,,---,0.00,VWS V14.01,2013-07-26 23:41:00,
2013-07-26 18:42:00,93.1,62.2,29.88,SE,135,4.9,8.7,36,0.00,,---,0.00,VWS V14.01,2013-07-26 23:42:00,
2013-07-26 18:43:00,93.0,62.9,29.88,ESE,112,5.6,5.6,37,0.00,,---,0.00,VWS V14.01,2013-07-26 23:43:00,
2013-07-26 18:44:00,93.0,62.9,29.88,South,180,3.1,5.6,37,0.00,,---,0.00,VWS V14.01,2013-07-26 23:44:00,
2013-07-26 18:45:00,92.8,62.7,29.88,SE,135,2.2,3.4,37,0.00,,---,0.00,VWS V14.01,2013-07-26 23:45:00,
2013-07-26 18:46:00,92.6,62.6,29.88,SE,135,5.6,5.6,37,0.00,,---,0.00,VWS V14.01,2013-07-26 23:46:00,
2013-07-26 18:47:00,92.4,62.4,29.88,ESE,112,3.1,5.6,37,0.00,,---,0.00,VWS V14.01,2013-07-26 23:47:00,
2013-07-26 18:48:00,92.4,62.4,29.88,ESE,112,2.7,3.1,37,0.00,,---,0.00,VWS V14.01,2013-07-26 23:48:00,
2013-07-26 18:49:00,92.2,62.2,29.88,SSE,158,4.3,4.7,37,0.00,,---,0.00,VWS V14.01,2013-07-26 23:49:00,
2013-07-26 18:50:00,92.2,62.2,29.88,SE,135,7.2,7.6,37,0.00,,---,0.00,VWS V14.01,2013-07-26 23:50:00,
2013-07-26 18:51:00,92.1,62.1,29.88,SE,135,3.8,7.2,37,0.00,,---,0.00,VWS V14.01,2013-07-26 23:51:00,
2013-07-26 18:52:00,91.9,61.9,29.88,SSW,202,7.2,8.5,37,0.00,,---,0.00,VWS V14.01,2013-07-26 23:52:00,
2013-07-26 18:53:00,91.9,61.9,29.88,SE,135,4.5,7.2,37,0.00,,---,0.00,VWS V14.01,2013-07-26 23:53:00,
2013-07-26 18:54:00,91.7,61.8,29.88,East,90,4.0,5.6,37,0.00,,---,0.00,VWS V14.01,2013-07-26 23:54:00,
2013-07-26 18:55:00,91.7,61.8,29.88,South,180,1.6,5.6,37,0.00,,---,0.00,VWS V14.01,2013-07-26 23:55:00,
2013-07-26 18:56:00,91.7,61.8,29.88,SSE,158,4.0,4.0,37,0.00,,---,0.00,VWS V14.01,2013-07-26 23:56:00,
2013-07-26 18:57:00,91.7,61.8,29.88,ESE,112,3.8,4.0,37,0.00,,---,0.00,VWS V14.01,2013-07-26 23:57:00,
2013-07-26 18:58:00,91.5,61.6,29.88,ESE,112,1.6,3.8,37,0.00,,---,0.00,VWS V14.01,2013-07-26 23:58:00,
2013-07-26 18:59:00,91.5,61.6,29.88,South,180,5.8,5.8,37,0.00,,---,0.00,VWS V14.01,2013-07-26 23:59:00,
2013-07-26 19:00:00,91.4,61.5,29.88,South,180,2.7,2.7,37,0.00,,---,0.00,VWS V14.01,2013-07-27 00:00:00,
2013-07-26 19:01:00,91.4,61.5,29.88,South,180,3.4,3.4,37,0.00,,---,0.00,VWS V14.01,2013-07-27 00:01:00,
2013-07-26 19:02:00,91.4,61.5,29.88,SE,135,4.5,4.5,37,0.00,,---,0.00,VWS V14.01,2013-07-27 00:02:00,
2013-07-26 19:03:00,91.4,61.5,29.88,SE,135,2.5,5.6,37,0.00,,---,0.00,VWS V14.01,2013-07-27 00:03:00,
2013-07-26 19:04:00,91.2,61.3,29.88,East,90,1.6,3.1,37,0.00,,---,0.00,VWS V14.01,2013-07-27 00:04:00,
2013-07-26 19:05:00,91.2,61.3,29.88,SE,135,1.6,6.5,37,0.00,,---,0.00,VWS V14.01,2013-07-27 00:05:00,
2013-07-26 19:06:00,91.2,61.3,29.88,South,180,2.7,6.5,37,0.00,,---,0.00,VWS V14.01,2013-07-27 00:06:00,
2013-07-26 19:07:00,91.0,61.9,29.88,South,180,2.7,3.1,38,0.00,,---,0.00,VWS V14.01,2013-07-27 00:07:00,
2013-07-26 19:08:00,90.8,61.8,29.88,SE,135,1.3,3.1,38,0.00,,---,0.00,VWS V14.01,2013-07-27 00:08:00,
2013-07-26 19:09:00,90.7,61.6,29.88,SE,135,3.6,3.6,38,0.00,,---,0.00,VWS V14.01,2013-07-27 00:09:00,
2013-07-26 19:10:00,90.7,61.6,29.88,East,90,3.4,8.5,38,0.00,,---,0.00,VWS V14.01,2013-07-27 00:10:00,
2013-07-26 19:11:00,90.5,61.4,29.88,SE,135,2.5,4.0,38,0.00,,---,0.00,VWS V14.01,2013-07-27 00:11:00,
2013-07-26 19:12:00,90.5,61.4,29.88,South,180,3.1,3.8,38,0.00,,---,0.00,VWS V14.01,2013-07-27 00:12:00,
2013-07-26 19:13:00,90.3,61.3,29.88,NE,45,1.1,3.1,38,0.00,,---,0.00,VWS V14.01,2013-07-27 00:13:00,
2013-07-26 19:14:00,90.3,61.3,29.88,SE,135,1.1,3.1,38,0.00,,---,0.00,VWS V14.01,2013-07-27 00:14:00,
2013-07-26 19:15:00,90.1,61.8,29.88,SW,225,2.0,4.0,39,0.00,,---,0.00,VWS V14.01,2013-07-27 00:15:00,
2013-07-26 19:16:00,89.9,61.0,29.88,South,180,2.0,4.0,38,0.00,,---,0.00,VWS V14.01,2013-07-27 00:16:00,
2013-07-26 19:17:00,89.9,61.0,29.88,SSE,158,0.9,2.0,38,0.00,,---,0.00,VWS V14.01,2013-07-27 00:17:00,
2013-07-26 19:18:00,89.8,60.8,29.88,East,90,2.2,2.7,38,0.00,,---,0.00,VWS V14.01,2013-07-27 00:18:00,
2013-07-26 19:19:00,89.6,61.4,29.88,SE,135,0.0,2.2,39,0.00,,---,0.00,VWS V14.01,2013-07-27 00:19:00,
2013-07-26 19:20:00,89.6,61.4,29.88,SE,135,2.2,2.2,39,0.00,,---,0.00,VWS V14.01,2013-07-27 00:20:00,
2013-07-26 19:21:00,89.6,61.4,29.88,SSE,158,1.3,2.2,39,0.00,,---,0.00,VWS V14.01,2013-07-27 00:21:00,
2013-07-26 19:22:00,89.4,61.2,29.88,SSE,158,2.0,2.0,39,0.00,,---,0.00,VWS V14.01,2013-07-27 00:22:00,
2013-07-26 19:23:00,89.2,61.1,29.88,SE,135,3.1,3.1,39,0.00,,---,0.00,VWS V14.01,2013-07-27 00:23:00,
2013-07-26 19:24:00,89.2,61.1,29.88,East,90,1.3,3.4,39,0.00,,---,0.00,VWS V14.01,2013-07-27 00:24:00,
2013-07-26 19:25:00,89.2,61.1,29.88,East,90,1.3,2.2,39,0.00,,---,0.00,VWS V14.01,2013-07-27 00:25:00,
2013-07-26 19:26:00,89.1,60.9,29.88,South,180,3.6,4.9,39,0.00,,---,0.00,VWS V14.01,2013-07-27 00:26:00,
2013-07-26 19:27:00,89.1,60.9,29.88,SSE,158,2.7,3.6,39,0.00,,---,0.00,VWS V14.01,2013-07-27 00:27:00,
2013-07-26 19:28:00,88.9,60.8,29.88,ESE,112,1.6,4.3,39,0.00,,---,0.00,VWS V14.01,2013-07-27 00:28:00,
2013-07-26 19:29:00,88.9,60.8,29.88,ESE,112,0.0,2.7,39,0.00,,---,0.00,VWS V14.01,2013-07-27 00:29:00,
2013-07-26 19:30:00,88.7,60.6,29.88,ENE,68,0.0,0.0,39,0.00,,---,0.00,VWS V14.01,2013-07-27 00:30:00,
2013-07-26 19:31:00,88.7,60.6,29.88,East,90,1.1,2.2,39,0.00,,---,0.00,VWS V14.01,2013-07-27 00:31:00,
2013-07-26 19:32:00,88.7,60.6,29.91,SSE,158,1.1,1.1,39,0.00,,---,0.00,VWS V14.01,2013-07-27 00:32:00,
2013-07-26 19:33:00,88.5,60.4,29.91,SSE,158,2.7,3.4,39,0.00,,---,0.00,VWS V14.01,2013-07-27 00:33:00,
2013-07-26 19:34:00,88.5,60.4,29.91,ESE,112,0.0,4.7,39,0.00,,---,0.00,VWS V14.01,2013-07-27 00:34:00,
2013-07-26 19:35:00,88.3,61.0,29.91,ESE,112,1.1,1.1,40,0.00,,---,0.00,VWS V14.01,2013-07-27 00:35:00,
2013-07-26 19:36:00,88.3,61.0,29.91,ESE,112,1.6,1.6,40,0.00,,---,0.00,VWS V14.01,2013-07-27 00:36:00,
2013-07-26 19:37:00,88.3,61.0,29.91,SSW,202,1.6,2.0,40,0.00,,---,0.00,VWS V14.01,2013-07-27 00:37:00,
2013-07-26 19:38:00,88.3,61.0,29.91,ENE,68,0.9,2.0,40,0.00,,---,0.00,VWS V14.01,2013-07-27 00:38:00,
2013-07-26 19:39:00,88.2,60.8,29.91,SSW,202,0.0,0.9,40,0.00,,---,0.00,VWS V14.01,2013-07-27 00:39:00,
2013-07-26 19:40:00,88.2,60.8,29.91,South,180,2.5,2.5,40,0.00,,---,0.00,VWS V14.01,2013-07-27 00:40:00,
2013-07-26 19:41:00,88.2,60.8,29.91,East,90,1.3,2.5,40,0.00,,---,0.00,VWS V14.01,2013-07-27 00:41:00,
2013-07-26 19:42:00,88.0,60.7,29.91,SE,135,0.0,1.3,40,0.00,,---,0.00,VWS V14.01,2013-07-27 00:42:00,
2013-07-26 19:43:00,87.8,60.5,29.91,SE,135,0.0,1.3,40,0.00,,---,0.00,VWS V14.01,2013-07-27 00:43:00,
2013-07-26 19:44:00,87.8,60.5,29.91,SE,135,2.0,2.0,40,0.00,,---,0.00,VWS V14.01,2013-07-27 00:44:00,
2013-07-26 19:45:00,87.8,60.5,29.91,SSE,158,0.9,2.7,40,0.00,,---,0.00,VWS V14.01,2013-07-27 00:45:00,
2013-07-26 19:46:00,87.6,60.4,29.91,East,90,2.0,2.0,40,0.00,,---,0.00,VWS V14.01,2013-07-27 00:46:00,
2013-07-26 19:47:00,87.5,60.9,29.88,ESE,112,0.9,2.0,41,0.00,,---,0.00,VWS V14.01,2013-07-27 00:47:00,
2013-07-26 19:48:00,87.5,60.9,29.88,East,90,2.0,2.0,41,0.00,,---,0.00,VWS V14.01,2013-07-27 00:48:00,
2013-07-26 19:49:00,87.3,60.7,29.88,SE,135,2.5,2.5,41,0.00,,---,0.00,VWS V14.01,2013-07-27 00:49:00,
2013-07-26 19:50:00,87.3,60.7,29.88,SE,135,1.3,2.5,41,0.00,,---,0.00,VWS V14.01,2013-07-27 00:50:00,
2013-07-26 19:51:00,87.3,60.7,29.88,SE,135,2.9,3.8,41,0.00,,---,0.00,VWS V14.01,2013-07-27 00:51:00,
2013-07-26 19:52:00,87.1,60.6,29.88,SE,135,0.0,2.9,41,0.00,,---,0.00,VWS V14.01,2013-07-27 00:52:00,
2013-07-26 19:53:00,87.1,60.6,29.88,ESE,112,2.7,2.7,41,0.00,,---,0.00,VWS V14.01,2013-07-27 00:53:00,
2013-07-26 19:54:00,87.1,60.6,29.88,East,90,3.4,4.9,41,0.00,,---,0.00,VWS V14.01,2013-07-27 00:54:00,
2013-07-26 19:55:00,86.9,61.1,29.88,ESE,112,1.3,3.4,42,0.00,,---,0.00,VWS V14.01,2013-07-27 00:55:00,
2013-07-26 19:56:00,86.9,61.1,29.88,ESE,112,0.9,2.5,42,0.00,,---,0.00,VWS V14.01,2013-07-27 00:56:00,
2013-07-26 19:57:00,86.9,61.1,29.88,ESE,112,2.0,3.4,42,0.00,,---,0.00,VWS V14.01,2013-07-27 00:57:00,
2013-07-26 19:58:00,86.9,61.1,29.88,East,90,0.9,2.2,42,0.00,,---,0.00,VWS V14.01,2013-07-27 00:58:00,
2013-07-26 19:59:00,86.8,60.9,29.88,ESE,112,1.6,2.9,42,0.00,,---,0.00,VWS V14.01,2013-07-27 00:59:00,
2013-07-26 20:00:00,86.8,60.9,29.88,East,90,2.7,2.7,42,0.00,,---,0.00,VWS V14.01,2013-07-27 01:00:00,
2013-07-26 20:01:00,86.8,60.9,29.88,ESE,112,3.1,3.6,42,0.00,,---,0.00,VWS V14.01,2013-07-27 01:01:00,
2013-07-26 20:02:00,86.6,60.8,29.88,ESE,112,1.6,3.1,42,0.00,,---,0.00,VWS V14.01,2013-07-27 01:02:00,
2013-07-26 20:03:00,86.6,60.8,29.88,ESE,112,2.2,3.4,42,0.00,,---,0.00,VWS V14.01,2013-07-27 01:03:00,
2013-07-26 20:04:00,86.6,60.8,29.88,South,180,3.8,3.8,42,0.00,,---,0.00,VWS V14.01,2013-07-27 01:04:00,
2013-07-26 20:05:00,86.6,60.8,29.88,ENE,68,1.3,3.8,42,0.00,,---,0.00,VWS V14.01,2013-07-27 01:05:00,
2013-07-26 20:06:00,86.6,60.8,29.88,ESE,112,2.0,2.7,42,0.00,,---,0.00,VWS V14.01,2013-07-27 01:06:00,
2013-07-26 20:07:00,86.6,60.8,29.88,South,180,3.8,3.8,42,0.00,,---,0.00,VWS V14.01,2013-07-27 01:07:00,
2013-07-26 20:08:00,86.6,61.4,29.88,SSW,202,1.6,3.8,43,0.00,,---,0.00,VWS V14.01,2013-07-27 01:08:00,
2013-07-26 20:09:00,86.6,61.4,29.88,ESE,112,4.0,4.0,43,0.00,,---,0.00,VWS V14.01,2013-07-27 01:09:00,
2013-07-26 20:10:00,86.6,61.4,29.88,SE,135,1.1,4.0,43,0.00,,---,0.00,VWS V14.01,2013-07-27 01:10:00,
2013-07-26 20:11:00,86.6,61.4,29.88,East,90,4.0,4.0,43,0.00,,---,0.00,VWS V14.01,2013-07-27 01:11:00,
2013-07-26 20:12:00,86.6,61.4,29.88,ESE,112,1.3,4.0,43,0.00,,---,0.00,VWS V14.01,2013-07-27 01:12:00,
2013-07-26 20:13:00,86.6,61.4,29.88,SE,135,2.5,3.6,43,0.00,,---,0.00,VWS V14.01,2013-07-27 01:13:00,
2013-07-26 20:14:00,86.6,61.4,29.88,SSW,202,2.9,5.8,43,0.00,,---,0.00,VWS V14.01,2013-07-27 01:14:00,
2013-07-26 20:15:00,86.6,61.4,29.88,SE,135,2.5,2.9,43,0.00,,---,0.00,VWS V14.01,2013-07-27 01:15:00,
2013-07-26 20:16:00,86.4,61.3,29.88,ESE,112,2.7,2.7,43,0.00,,---,0.00,VWS V14.01,2013-07-27 01:16:00,
2013-07-26 20:17:00,86.4,61.3,29.88,South,180,1.6,3.1,43,0.00,,---,0.00,VWS V14.01,2013-07-27 01:17:00,
2013-07-26 20:18:00,86.4,61.3,29.88,East,90,1.1,2.9,43,0.00,,---,0.00,VWS V14.01,2013-07-27 01:18:00,
2013-07-26 20:19:00,86.4,61.9,29.88,ESE,112,2.5,2.5,44,0.00,,---,0.00,VWS V14.01,2013-07-27 01:19:00,
2013-07-26 20:20:00,86.4,61.9,29.88,SE,135,2.9,3.1,44,0.00,,---,0.00,VWS V14.01,2013-07-27 01:20:00,
2013-07-26 20:21:00,86.4,61.9,29.88,SE,135,2.7,2.9,44,0.00,,---,0.00,VWS V14.01,2013-07-27 01:21:00,
2013-07-26 20:22:00,86.2,61.8,29.88,South,180,3.6,3.6,44,0.00,,---,0.00,VWS V14.01,2013-07-27 01:22:00,
2013-07-26 20:23:00,86.2,61.8,29.88,SSE,158,2.0,3.6,44,0.00,,---,0.00,VWS V14.01,2013-07-27 01:23:00,
2013-07-26 20:24:00,86.2,61.8,29.88,SE,135,1.3,2.0,44,0.00,,---,0.00,VWS V14.01,2013-07-27 01:24:00,
2013-07-26 20:25:00,86.1,61.6,29.88,SE,135,1.3,1.3,44,0.00,,---,0.00,VWS V14.01,2013-07-27 01:25:00,
2013-07-26 20:26:00,86.1,61.6,29.88,ESE,112,0.0,1.6,44,0.00,,---,0.00,VWS V14.01,2013-07-27 01:26:00,
2013-07-26 20:27:00,85.9,61.5,29.88,East,90,1.3,2.0,44,0.00,,---,0.00,VWS V14.01,2013-07-27 01:27:00,
2013-07-26 20:28:00,85.9,61.5,29.88,South,180,1.3,2.2,44,0.00,,---,0.00,VWS V14.01,2013-07-27 01:28:00,
2013-07-26 20:29:00,85.9,61.5,29.88,South,180,2.0,2.0,44,0.00,,---,0.00,VWS V14.01,2013-07-27 01:29:00,
2013-07-26 20:30:00,85.9,61.5,29.88,East,90,1.3,2.0,44,0.00,,---,0.00,VWS V14.01,2013-07-27 01:30:00,
2013-07-26 20:31:00,85.9,62.1,29.88,ESE,112,1.1,2.5,45,0.00,,---,0.00,VWS V14.01,2013-07-27 01:31:00,
2013-07-26 20:32:00,85.7,61.9,29.88,ESE,112,0.0,1.3,45,0.00,,---,0.00,VWS V14.01,2013-07-27 01:32:00,
2013-07-26 20:33:00,85.7,61.9,29.88,South,180,0.0,1.1,45,0.00,,---,0.00,VWS V14.01,2013-07-27 01:33:00,
2013-07-26 20:34:00,85.5,61.8,29.88,SE,135,0.0,1.1,45,0.00,,---,0.00,VWS V14.01,2013-07-27 01:34:00,
2013-07-26 20:35:00,85.5,61.8,29.88,SE,135,0.0,2.2,45,0.00,,---,0.00,VWS V14.01,2013-07-27 01:35:00,
2013-07-26 20:36:00,85.5,62.4,29.88,SSW,202,0.9,2.0,46,0.00,,---,0.00,VWS V14.01,2013-07-27 01:36:00,
2013-07-26 20:37:00,85.5,62.4,29.88,SSE,158,0.0,0.9,46,0.00,,---,0.00,VWS V14.01,2013-07-27 01:37:00,
2013-07-26 20:38:00,85.3,62.2,29.88,SE,135,0.0,2.7,46,0.00,,---,0.00,VWS V14.01,2013-07-27 01:38:00,
2013-07-26 20:39:00,85.3,62.2,29.88,East,90,0.9,2.5,46,0.00,,---,0.00,VWS V14.01,2013-07-27 01:39:00,
2013-07-26 20:40:00,85.3,62.2,29.88,East,90,0.0,0.9,46,0.00,,---,0.00,VWS V14.01,2013-07-27 01:40:00,
2013-07-26 20:41:00,85.3,62.2,29.88,SE,135,0.9,2.5,46,0.00,,---,0.00,VWS V14.01,2013-07-27 01:41:00,
2013-07-26 20:42:00,85.3,62.2,29.88,East,90,0.0,3.8,46,0.00,,---,0.00,VWS V14.01,2013-07-27 01:42:00,
2013-07-26 20:43:00,85.3,62.2,29.88,SE,135,1.6,1.6,46,0.00,,---,0.00,VWS V14.01,2013-07-27 01:43:00,
2013-07-26 20:44:00,85.3,62.2,29.88,ESE,112,1.3,1.6,46,0.00,,---,0.00,VWS V14.01,2013-07-27 01:44:00,
2013-07-26 20:45:00,85.3,62.2,29.88,South,180,2.7,2.7,46,0.00,,---,0.00,VWS V14.01,2013-07-27 01:45:00,
2013-07-26 20:46:00,85.3,62.2,29.88,SE,135,0.0,2.7,46,0.00,,---,0.00,VWS V14.01,2013-07-27 01:46:00,
2013-07-26 20:47:00,85.3,62.2,29.88,ESE,112,1.6,2.0,46,0.00,,---,0.00,VWS V14.01,2013-07-27 01:47:00,
2013-07-26 20:48:00,85.2,62.1,29.88,ESE,112,2.0,2.7,46,0.00,,---,0.00,VWS V14.01,2013-07-27 01:48:00,
2013-07-26 20:49:00,85.2,62.1,29.88,ESE,112,1.3,2.9,46,0.00,,---,0.00,VWS V14.01,2013-07-27 01:49:00,
2013-07-26 20:50:00,85.2,62.1,29.88,South,180,1.1,2.5,46,0.00,,---,0.00,VWS V14.01,2013-07-27 01:50:00,
2013-07-26 20:51:00,85.2,62.1,29.88,ESE,112,0.9,1.1,46,0.00,,---,0.00,VWS V14.01,2013-07-27 01:51:00,
2013-07-26 20:52:00,85.2,62.7,29.88,ESE,112,1.6,2.2,47,0.00,,---,0.00,VWS V14.01,2013-07-27 01:52:00,
2013-07-26 20:53:00,85.2,62.7,29.88,South,180,1.1,1.6,47,0.00,,---,0.00,VWS V14.01,2013-07-27 01:53:00,
2013-07-26 20:54:00,85.2,62.7,29.88,South,180,0.0,3.1,47,0.00,,---,0.00,VWS V14.01,2013-07-27 01:54:00,
2013-07-26 20:55:00,85.2,62.7,29.88,SE,135,2.2,2.5,47,0.00,,---,0.00,VWS V14.01,2013-07-27 01:55:00,
2013-07-26 20:56:00,85.2,62.7,29.88,SSW,202,0.9,2.7,47,0.00,,---,0.00,VWS V14.01,2013-07-27 01:56:00,
2013-07-26 20:57:00,85.0,62.5,29.88,South,180,1.3,1.3,47,0.00,,---,0.00,VWS V14.01,2013-07-27 01:57:00,
2013-07-26 20:58:00,85.0,62.5,29.88,South,180,0.0,1.3,47,0.00,,---,0.00,VWS V14.01,2013-07-27 01:58:00,
2013-07-26 20:59:00,85.0,62.5,29.88,South,180,0.0,0.0,47,0.00,,---,0.00,VWS V14.01,2013-07-27 01:59:00,
2013-07-26 21:00:00,85.0,62.5,29.88,SSE,158,1.6,2.0,47,0.00,,---,0.29,VWS V14.01,2013-07-27 02:00:00,
2013-07-26 21:01:00,84.8,63.0,29.88,ESE,112,2.2,2.5,48,0.00,,---,0.00,VWS V14.01,2013-07-27 02:01:00,
2013-07-26 21:02:00,84.8,63.0,29.91,ESE,112,1.1,2.2,48,0.00,,---,0.00,VWS V14.01,2013-07-27 02:02:00,
2013-07-26 21:03:00,84.8,63.0,29.91,ESE,112,0.9,1.3,48,0.00,,---,0.00,VWS V14.01,2013-07-27 02:03:00,
2013-07-26 21:04:00,84.8,63.0,29.91,SE,135,1.6,1.6,48,0.00,,---,0.00,VWS V14.01,2013-07-27 02:04:00,
2013-07-26 21:05:00,84.8,63.0,29.91,SE,135,0.0,1.6,48,0.00,,---,0.00,VWS V14.01,2013-07-27 02:05:00,
2013-07-26 21:06:00,84.8,63.0,29.91,SSE,158,0.0,0.9,48,0.00,,---,0.00,VWS V14.01,2013-07-27 02:06:00,
2013-07-26 21:07:00,84.8,63.0,29.91,SSE,158,2.0,2.0,48,0.00,,---,0.00,VWS V14.01,2013-07-27 02:07:00,
2013-07-26 21:08:00,84.8,63.0,29.91,SE,135,1.6,2.0,48,0.00,,---,0.00,VWS V14.01,2013-07-27 02:08:00,
2013-07-26 21:09:00,84.8,63.0,29.91,ESE,112,0.9,2.7,48,0.00,,---,0.00,VWS V14.01,2013-07-27 02:09:00,
2013-07-26 21:10:00,84.8,63.0,29.91,East,90,1.3,1.3,48,0.00,,---,0.00,VWS V14.01,2013-07-27 02:10:00,
2013-07-26 21:11:00,84.8,63.0,29.91,South,180,2.5,3.1,48,0.00,,---,0.00,VWS V14.01,2013-07-27 02:11:00,
2013-07-26 21:12:00,84.8,63.0,29.91,South,180,0.0,2.5,48,0.00,,---,0.00,VWS V14.01,2013-07-27 02:12:00,
2013-07-26 21:13:00,84.8,63.0,29.91,South,180,0.0,0.0,48,0.00,,---,0.00,VWS V14.01,2013-07-27 02:13:00,
2013-07-26 21:14:00,84.8,63.0,29.91,ESE,112,1.3,2.2,48,0.00,,---,0.00,VWS V14.01,2013-07-27 02:14:00,
2013-07-26 21:15:00,84.8,63.0,29.91,SE,135,1.1,1.6,48,0.00,,---,0.00,VWS V14.01,2013-07-27 02:15:00,
2013-07-26 21:16:00,84.8,63.0,29.91,NNE,22,0.0,1.1,48,0.00,,---,0.00,VWS V14.01,2013-07-27 02:16:00,
2013-07-26 21:17:00,84.8,63.0,29.91,SE,135,1.1,2.2,48,0.00,,---,0.00,VWS V14.01,2013-07-27 02:17:00,
2013-07-26 21:18:00,84.8,63.0,29.91,SE,135,0.0,1.3,48,0.00,,---,0.00,VWS V14.01,2013-07-27 02:18:00,
2013-07-26 21:19:00,84.8,63.0,29.91,SE,135,1.6,2.2,48,0.00,,---,0.00,VWS V14.01,2013-07-27 02:19:00,
2013-07-26 21:20:00,85.0,62.5,29.91,SE,135,0.0,2.5,47,0.00,,---,0.00,VWS V14.01,2013-07-27 02:20:00,
2013-07-26 21:21:00,85.0,62.5,29.91,East,90,0.0,0.0,47,0.00,,---,0.00,VWS V14.01,2013-07-27 02:21:00,
2013-07-26 21:22:00,85.0,62.5,29.91,SE,135,1.6,2.5,47,0.00,,---,0.00,VWS V14.01,2013-07-27 02:22:00,
2013-07-26 21:23:00,85.0,62.5,29.91,SSE,158,1.1,2.0,47,0.00,,---,0.00,VWS V14.01,2013-07-27 02:23:00,
2013-07-26 21:24:00,85.0,62.5,29.91,SE,135,1.1,2.2,47,0.00,,---,0.00,VWS V14.01,2013-07-27 02:24:00,
2013-07-26 21:25:00,85.0,62.5,29.91,ESE,112,1.1,1.6,47,0.00,,---,0.00,VWS V14.01,2013-07-27 02:25:00,
2013-07-26 21:26:00,85.0,62.5,29.91,East,90,1.3,2.0,47,0.00,,---,0.00,VWS V14.01,2013-07-27 02:26:00,
2013-07-26 21:27:00,85.0,62.5,29.91,SE,135,0.0,1.3,47,0.00,,---,0.00,VWS V14.01,2013-07-27 02:27:00,
2013-07-26 21:28:00,85.0,62.5,29.91,ESE,112,1.6,2.2,47,0.00,,---,0.00,VWS V14.01,2013-07-27 02:28:00,
2013-07-26 21:29:00,85.0,62.5,29.91,ESE,112,0.0,1.6,47,0.00,,---,0.00,VWS V14.01,2013-07-27 02:29:00,
2013-07-26 21:30:00,85.0,62.5,29.91,ESE,112,0.0,0.0,47,0.00,,---,0.00,VWS V14.01,2013-07-27 02:30:00,
2013-07-26 21:31:00,85.0,62.5,29.91,ESE,112,0.0,0.0,47,0.00,,---,0.00,VWS V14.01,2013-07-27 02:31:00,
2013-07-26 21:32:00,85.0,62.5,29.91,ESE,112,0.0,0.0,47,0.00,,---,0.00,VWS V14.01,2013-07-27 02:32:00,
2013-07-26 21:33:00,85.0,62.5,29.91,ESE,112,1.3,1.3,47,0.00,,---,0.00,VWS V14.01,2013-07-27 02:33:00,
2013-07-26 21:34:00,85.0,62.5,29.91,NW,315,2.0,2.0,47,0.00,,---,0.00,VWS V14.01,2013-07-27 02:34:00,
2013-07-26 21:35:00,85.0,62.5,29.91,NW,315,2.0,2.0,47,0.00,,---,0.00,VWS V14.01,2013-07-27 02:35:00,
2013-07-26 21:36:00,85.0,63.1,29.91,NW,315,2.7,3.1,48,0.00,,---,0.00,VWS V14.01,2013-07-27 02:36:00,
2013-07-26 21:37:00,85.0,62.5,29.91,NW,315,2.9,2.9,47,0.00,,---,0.00,VWS V14.01,2013-07-27 02:37:00,
2013-07-26 21:38:00,85.0,62.5,29.91,NW,315,2.5,2.9,47,0.00,,---,0.00,VWS V14.01,2013-07-27 02:38:00,
2013-07-26 21:39:00,85.0,62.5,29.91,NNW,338,2.9,2.9,47,0.00,,---,0.00,VWS V14.01,2013-07-27 02:39:00,
2013-07-26 21:40:00,85.0,63.1,29.91,NNW,338,2.9,3.8,48,0.00,,---,0.00,VWS V14.01,2013-07-27 02:40:00,
2013-07-26 21:41:00,85.0,63.1,29.91,NNW,338,3.8,3.8,48,0.00,,---,0.00,VWS V14.01,2013-07-27 02:41:00,
2013-07-26 21:42:00,85.2,62.7,29.91,NNW,338,5.4,5.4,47,0.00,,---,0.00,VWS V14.01,2013-07-27 02:42:00,
2013-07-26 21:43:00,85.3,62.8,29.91,NW,315,5.6,5.6,47,0.00,,---,0.00,VWS V14.01,2013-07-27 02:43:00,
2013-07-26 21:44:00,85.3,62.8,29.91,North,0,5.6,6.5,47,0.00,,---,0.00,VWS V14.01,2013-07-27 02:44:00,
2013-07-26 21:45:00,85.5,63.0,29.91,North,0,6.5,7.2,47,0.00,,---,0.00,VWS V14.01,2013-07-27 02:45:00,
2013-07-26 21:46:00,85.5,63.0,29.91,NNW,338,4.0,6.5,47,0.00,,---,0.00,VWS V14.01,2013-07-27 02:46:00,
2013-07-26 21:47:00,85.7,63.8,29.91,NNW,338,3.6,8.7,48,0.00,,---,0.00,VWS V14.01,2013-07-27 02:47:00,
2013-07-26 21:48:00,85.7,63.8,29.91,NNW,338,5.8,6.0,48,0.00,,---,0.00,VWS V14.01,2013-07-27 02:48:00,
2013-07-26 21:49:00,85.7,63.8,29.91,North,0,7.6,7.6,48,0.00,,---,0.00,VWS V14.01,2013-07-27 02:49:00,
2013-07-26 21:50:00,85.7,63.8,29.91,NNW,338,10.1,12.8,48,0.00,,---,0.00,VWS V14.01,2013-07-27 02:50:00,
2013-07-26 21:51:00,85.7,63.8,29.91,NNW,338,7.8,10.1,48,0.00,,---,0.00,VWS V14.01,2013-07-27 02:51:00,
2013-07-26 21:52:00,85.7,63.8,29.91,North,0,5.6,7.8,48,0.00,,---,0.00,VWS V14.01,2013-07-27 02:52:00,
2013-07-26 21:53:00,85.7,64.3,29.91,North,0,6.9,6.9,49,0.00,,---,0.00,VWS V14.01,2013-07-27 02:53:00,
2013-07-26 21:54:00,85.7,63.8,29.91,North,0,7.6,7.6,48,0.00,,---,0.00,VWS V14.01,2013-07-27 02:54:00,
2013-07-26 21:55:00,85.7,63.8,29.91,North,0,3.1,7.6,48,0.00,,---,0.00,VWS V14.01,2013-07-27 02:55:00,
2013-07-26 21:56:00,85.7,63.8,29.91,North,0,0.9,3.6,48,0.00,,---,0.00,VWS V14.01,2013-07-27 02:56:00,
2013-07-26 21:57:00,85.7,63.8,29.91,South,180,1.6,1.6,48,0.00,,---,0.00,VWS V14.01,2013-07-27 02:57:00,
2013-07-26 21:58:00,85.7,63.8,29.91,South,180,2.5,2.9,48,0.00,,---,0.00,VWS V14.01,2013-07-27 02:58:00,
2013-07-26 21:59:00,85.7,63.8,29.91,SE,135,3.1,3.8,48,0.00,,---,0.00,VWS V14.01,2013-07-27 02:59:00,
2013-07-26 22:00:00,85.7,63.8,29.91,South,180,2.9,4.3,48,0.00,,---,0.00,VWS V14.01,2013-07-27 03:00:00,
2013-07-26 22:01:00,85.5,63.6,29.91,SSW,202,2.2,3.6,48,0.00,,---,0.00,VWS V14.01,2013-07-27 03:01:00,
2013-07-26 22:02:00,85.5,63.6,29.94,ESE,112,0.0,2.2,48,0.00,,---,0.00,VWS V14.01,2013-07-27 03:02:00,
2013-07-26 22:03:00,85.5,63.6,29.94,SE,135,2.9,2.9,48,0.00,,---,0.00,VWS V14.01,2013-07-27 03:03:00,
2013-07-26 22:04:00,85.5,63.6,29.94,SE,135,4.9,4.9,48,0.00,,---,0.00,VWS V14.01,2013-07-27 03:04:00,
2013-07-26 22:05:00,85.5,63.6,29.94,NNW,338,2.5,4.9,48,0.00,,---,0.00,VWS V14.01,2013-07-27 03:05:00,
2013-07-26 22:06:00,85.5,63.6,29.94,East,90,3.1,3.1,48,0.00,,---,0.00,VWS V14.01,2013-07-27 03:06:00,
2013-07-26 22:07:00,85.5,64.2,29.94,East,90,4.3,6.5,49,0.00,,---,0.00,VWS V14.01,2013-07-27 03:07:00,
2013-07-26 22:08:00,85.5,64.2,29.94,NE,45,8.1,8.1,49,0.00,,---,0.00,VWS V14.01,2013-07-27 03:08:00,
2013-07-26 22:09:00,85.3,64.0,29.94,NE,45,7.8,10.1,49,0.00,,---,0.00,VWS V14.01,2013-07-27 03:09:00,
2013-07-26 22:10:00,85.0,64.3,29.94,NNE,22,4.0,4.0,50,0.00,,---,0.00,VWS V14.01,2013-07-27 03:10:00,
2013-07-26 22:11:00,84.8,64.7,29.94,ESE,112,6.3,6.3,51,0.00,,---,0.00,VWS V14.01,2013-07-27 03:11:00,
2013-07-26 22:12:00,84.6,64.5,29.94,NE,45,2.5,6.3,51,0.00,,---,0.00,VWS V14.01,2013-07-27 03:12:00,
2013-07-26 22:13:00,84.4,64.4,29.94,NNE,22,1.1,3.6,51,0.00,,---,0.00,VWS V14.01,2013-07-27 03:13:00,
2013-07-26 22:14:00,84.4,64.4,29.94,SE,135,3.4,4.3,51,0.00,,---,0.00,VWS V14.01,2013-07-27 03:14:00,
2013-07-26 22:15:00,84.3,64.2,29.94,SSE,158,1.1,1.1,51,0.00,,---,0.00,VWS V14.01,2013-07-27 03:15:00,
2013-07-26 22:16:00,84.3,64.2,29.94,NE,45,1.3,2.5,51,0.00,,---,0.00,VWS V14.01,2013-07-27 03:16:00,
2013-07-26 22:17:00,84.1,64.0,29.94,NW,315,3.1,3.6,51,0.00,,---,0.00,VWS V14.01,2013-07-27 03:17:00,
2013-07-26 22:18:00,83.9,65.0,29.94,NNW,338,3.8,6.3,53,0.00,,---,0.00,VWS V14.01,2013-07-27 03:18:00,
2013-07-26 22:19:00,83.7,64.8,29.94,NNW,338,3.4,4.7,53,0.00,,---,0.00,VWS V14.01,2013-07-27 03:19:00,
2013-07-26 22:20:00,83.7,64.8,29.94,NW,315,2.7,4.9,53,0.00,,---,0.00,VWS V14.01,2013-07-27 03:20:00,
2013-07-26 22:21:00,83.7,64.8,29.94,North,0,2.0,2.7,53,0.00,,---,0.00,VWS V14.01,2013-07-27 03:21:00,
2013-07-26 22:22:00,83.6,64.6,29.94,NNW,338,1.6,2.0,53,0.00,,---,0.00,VWS V14.01,2013-07-27 03:22:00,
2013-07-26 22:23:00,83.6,64.6,29.94,North,0,3.8,3.8,53,0.00,,---,0.00,VWS V14.01,2013-07-27 03:23:00,
2013-07-26 22:24:00,83.6,65.2,29.94,North,0,4.0,6.5,54,0.00,,---,0.00,VWS V14.01,2013-07-27 03:24:00,
2013-07-26 22:25:00,83.2,65.4,29.94,NNE,22,3.8,7.4,55,0.00,,---,0.00,VWS V14.01,2013-07-27 03:25:00,
2013-07-26 22:26:00,83.2,65.4,29.94,North,0,3.1,3.8,55,0.00,,---,0.00,VWS V14.01,2013-07-27 03:26:00,
2013-07-26 22:27:00,83.0,65.2,29.94,NNW,338,1.6,4.3,55,0.00,,---,0.00,VWS V14.01,2013-07-27 03:27:00,
2013-07-26 22:28:00,82.9,65.6,29.94,SE,135,2.5,2.9,56,0.00,,---,0.00,VWS V14.01,2013-07-27 03:28:00,
2013-07-26 22:29:00,82.7,65.4,29.94,WSW,248,0.0,2.5,56,0.00,,---,0.00,VWS V14.01,2013-07-27 03:29:00,
2013-07-26 22:30:00,82.7,65.4,29.94,WSW,248,2.2,2.5,56,0.00,,---,0.00,VWS V14.01,2013-07-27 03:30:00,
2013-07-26 22:31:00,82.7,65.9,29.94,SW,225,2.7,3.4,57,0.00,,---,0.00,VWS V14.01,2013-07-27 03:31:00,
2013-07-26 22:32:00,82.7,66.4,29.97,West,270,3.1,3.6,58,0.00,,---,0.00,VWS V14.01,2013-07-27 03:32:00,
2013-07-26 22:33:00,82.5,66.7,29.97,West,270,2.7,3.1,59,0.00,,---,0.00,VWS V14.01,2013-07-27 03:33:00,
2013-07-26 22:34:00,82.3,67.1,29.97,NW,315,3.6,5.4,60,0.00,,---,0.00,VWS V14.01,2013-07-27 03:34:00,
2013-07-26 22:35:00,82.0,66.7,29.97,SW,225,9.8,9.8,60,0.00,,---,0.00,VWS V14.01,2013-07-27 03:35:00,
2013-07-26 22:36:00,81.8,67.0,29.97,West,270,4.3,9.8,61,0.00,,---,0.00,VWS V14.01,2013-07-27 03:36:00,
2013-07-26 22:37:00,81.8,66.6,29.97,NW,315,2.9,5.6,60,0.00,,---,0.00,VWS V14.01,2013-07-27 03:37:00,
2013-07-26 22:38:00,81.6,66.4,29.97,NW,315,3.6,5.6,60,0.00,,---,0.00,VWS V14.01,2013-07-27 03:38:00,
2013-07-26 22:39:00,81.3,67.0,29.97,North,0,2.5,4.9,62,0.00,,---,0.00,VWS V14.01,2013-07-27 03:39:00,
2013-07-26 22:40:00,80.9,66.7,29.97,NNW,338,5.6,5.6,62,0.00,,---,0.00,VWS V14.01,2013-07-27 03:40:00,
2013-07-26 22:41:00,80.7,66.5,29.97,ENE,68,2.0,5.6,62,0.00,,---,0.00,VWS V14.01,2013-07-27 03:41:00,
2013-07-26 22:42:00,80.4,67.1,29.97,NNW,338,2.7,2.7,64,0.00,,---,0.00,VWS V14.01,2013-07-27 03:42:00,
2013-07-26 22:43:00,80.0,66.3,29.97,North,0,0.0,2.7,63,0.00,,---,0.00,VWS V14.01,2013-07-27 03:43:00,
2013-07-26 22:44:00,79.7,66.0,29.97,West,270,0.0,0.0,63,0.00,,---,0.00,VWS V14.01,2013-07-27 03:44:00,
2013-07-26 22:45:00,79.5,66.2,29.97,WSW,248,2.7,3.4,64,0.00,,---,0.00,VWS V14.01,2013-07-27 03:45:00,
2013-07-26 22:46:00,79.3,66.5,29.97,NW,315,0.0,2.7,65,0.00,,---,0.00,VWS V14.01,2013-07-27 03:46:00,
2013-07-26 22:47:00,79.1,66.8,29.97,SE,135,1.1,1.1,66,0.00,,---,0.00,VWS V14.01,2013-07-27 03:47:00,
2013-07-26 22:48:00,78.9,66.2,29.97,NNW,338,0.9,1.1,65,0.00,,---,0.00,VWS V14.01,2013-07-27 03:48:00,
2013-07-26 22:49:00,78.8,66.0,29.97,NW,315,2.2,2.2,65,0.00,,---,0.00,VWS V14.01,2013-07-27 03:49:00,
2013-07-26 22:50:00,78.8,66.5,29.97,West,270,0.0,2.5,66,0.00,,---,0.00,VWS V14.01,2013-07-27 03:50:00,
2013-07-26 22:51:00,78.6,66.3,29.97,West,270,0.0,0.0,66,0.00,,---,0.00,VWS V14.01,2013-07-27 03:51:00,
2013-07-26 22:52:00,78.6,66.3,29.97,West,270,0.0,0.0,66,0.00,,---,0.00,VWS V14.01,2013-07-27 03:52:00,
2013-07-26 22:53:00,78.4,66.6,29.97,West,270,0.0,0.0,67,0.00,,---,0.00,VWS V14.01,2013-07-27 03:53:00,
2013-07-26 22:54:00,78.4,66.6,29.97,West,270,0.0,0.0,67,0.00,,---,0.00,VWS V14.01,2013-07-27 03:54:00,
2013-07-26 22:55:00,78.1,66.2,29.97,West,270,0.0,0.0,67,0.00,,---,0.00,VWS V14.01,2013-07-27 03:55:00,
2013-07-26 22:56:00,78.1,66.7,29.97,West,270,0.0,0.0,68,0.00,,---,0.00,VWS V14.01,2013-07-27 03:56:00,
2013-07-26 22:57:00,77.9,66.9,29.97,West,270,0.0,0.0,69,0.00,,---,0.00,VWS V14.01,2013-07-27 03:57:00,
2013-07-26 22:58:00,77.7,66.7,29.97,West,270,0.0,0.0,69,0.00,,---,0.00,VWS V14.01,2013-07-27 03:58:00,
2013-07-26 22:59:00,77.7,66.7,29.97,West,270,0.0,0.0,69,0.00,,---,0.00,VWS V14.01,2013-07-27 03:59:00,
2013-07-26 23:00:00,77.5,66.2,29.97,West,270,0.0,0.0,68,0.00,,---,0.00,VWS V14.01,2013-07-27 04:00:00,
2013-07-26 23:01:00,77.5,66.6,29.97,West,270,0.0,0.0,69,0.00,,---,0.00,VWS V14.01,2013-07-27 04:01:00,
2013-07-26 23:02:00,77.5,66.6,29.97,East,90,0.0,0.0,69,0.00,,---,0.00,VWS V14.01,2013-07-27 04:02:00,
2013-07-26 23:03:00,77.4,66.4,29.97,East,90,0.0,0.0,69,0.00,,---,0.00,VWS V14.01,2013-07-27 04:03:00,
2013-07-26 23:04:00,77.4,66.4,29.97,East,90,0.0,0.0,69,0.00,,---,0.00,VWS V14.01,2013-07-27 04:04:00,
2013-07-26 23:05:00,77.4,66.4,29.97,East,90,2.0,2.5,69,0.00,,---,0.00,VWS V14.01,2013-07-27 04:05:00,
2013-07-26 23:06:00,77.4,67.2,29.97,East,90,2.0,2.2,71,0.00,,---,0.00,VWS V14.01,2013-07-27 04:06:00,
2013-07-26 23:07:00,77.4,67.2,29.97,East,90,1.3,2.2,71,0.00,,---,0.00,VWS V14.01,2013-07-27 04:07:00,
2013-07-26 23:08:00,77.4,67.2,29.97,East,90,2.2,2.2,71,0.00,,---,0.00,VWS V14.01,2013-07-27 04:08:00,
2013-07-26 23:09:00,77.2,68.3,29.97,East,90,2.0,3.1,74,0.00,,---,0.00,VWS V14.01,2013-07-27 04:09:00,
2013-07-26 23:10:00,77.0,68.1,29.97,East,90,2.0,2.5,74,0.00,,---,0.00,VWS V14.01,2013-07-27 04:10:00,
2013-07-26 23:11:00,76.8,69.1,29.97,East,90,4.0,4.3,77,0.00,,---,0.00,VWS V14.01,2013-07-27 04:11:00,
2013-07-26 23:12:00,76.8,69.4,29.97,East,90,5.4,5.8,78,0.00,,---,0.00,VWS V14.01,2013-07-27 04:12:00,
2013-07-26 23:13:00,76.7,69.3,29.97,East,90,3.8,5.4,78,0.00,,---,0.00,VWS V14.01,2013-07-27 04:13:00,
2013-07-26 23:14:00,76.5,69.1,29.97,East,90,2.5,3.8,78,0.00,,---,0.00,VWS V14.01,2013-07-27 04:14:00,
2013-07-26 23:15:00,76.5,69.1,29.97,East,90,2.0,3.4,78,0.00,,---,0.00,VWS V14.01,2013-07-27 04:15:00,
2013-07-26 23:16:00,76.3,68.9,29.97,East,90,3.8,3.8,78,0.00,,---,0.00,VWS V14.01,2013-07-27 04:16:00,
2013-07-26 23:17:00,76.3,68.9,29.97,East,90,2.9,3.8,78,0.00,,---,0.00,VWS V14.01,2013-07-27 04:17:00,
2013-07-26 23:18:00,76.3,68.9,29.97,East,90,2.7,4.0,78,0.00,,---,0.00,VWS V14.01,2013-07-27 04:18:00,
2013-07-26 23:19:00,75.9,69.3,29.97,ESE,112,2.9,3.6,80,0.00,,---,0.00,VWS V14.01,2013-07-27 04:19:00,
2013-07-26 23:20:00,75.9,69.0,29.97,East,90,2.5,3.4,79,0.00,,---,0.00,VWS V14.01,2013-07-27 04:20:00,
2013-07-26 23:21:00,75.8,68.8,29.97,SE,135,2.9,3.1,79,0.00,,---,0.00,VWS V14.01,2013-07-27 04:21:00,
2013-07-26 23:22:00,75.8,68.8,29.97,East,90,1.1,2.9,79,0.00,,---,0.00,VWS V14.01,2013-07-27 04:22:00,
2013-07-26 23:23:00,75.6,68.6,29.97,East,90,0.0,1.1,79,0.00,,---,0.00,VWS V14.01,2013-07-27 04:23:00,
2013-07-26 23:24:00,75.6,68.6,29.97,East,90,1.3,1.6,79,0.00,,---,0.00,VWS V14.01,2013-07-27 04:24:00,
2013-07-26 23:25:00,75.6,68.6,29.97,East,90,0.9,1.6,79,0.00,,---,0.00,VWS V14.01,2013-07-27 04:25:00,
2013-07-26 23:26:00,75.4,68.4,29.97,ENE,68,0.0,0.9,79,0.00,,---,0.00,VWS V14.01,2013-07-27 04:26:00,
2013-07-26 23:27:00,75.4,68.4,29.97,ESE,112,0.0,0.0,79,0.00,,---,0.00,VWS V14.01,2013-07-27 04:27:00,
2013-07-26 23:28:00,75.4,68.4,29.97,East,90,0.0,0.0,79,0.00,,---,0.00,VWS V14.01,2013-07-27 04:28:00,
2013-07-26 23:29:00,75.4,68.4,29.97,ESE,112,2.0,2.5,79,0.00,,---,0.00,VWS V14.01,2013-07-27 04:29:00,
2013-07-26 23:30:00,75.2,68.3,29.97,ESE,112,0.0,2.2,79,0.00,,---,0.00,VWS V14.01,2013-07-27 04:30:00,
2013-07-26 23:31:00,75.2,68.6,29.97,North,0,2.7,2.7,80,0.00,,---,0.00,VWS V14.01,2013-07-27 04:31:00,
2013-07-26 23:32:00,75.2,68.3,29.97,North,0,4.0,4.0,79,0.00,,---,0.00,VWS V14.01,2013-07-27 04:32:00,
2013-07-26 23:33:00,75.4,70.2,29.97,NNW,338,3.1,4.3,84,0.00,,---,0.00,VWS V14.01,2013-07-27 04:33:00,
2013-07-26 23:34:00,75.2,70.1,29.97,NNE,22,2.5,3.1,84,0.00,,---,0.00,VWS V14.01,2013-07-27 04:34:00,
2013-07-26 23:35:00,75.2,70.4,29.97,NNE,22,3.4,4.9,85,0.00,,---,0.00,VWS V14.01,2013-07-27 04:35:00,
2013-07-26 23:36:00,75.2,70.1,29.97,NNE,22,0.9,3.4,84,0.00,,---,0.00,VWS V14.01,2013-07-27 04:36:00,
2013-07-26 23:37:00,75.2,69.7,29.97,NE,45,2.5,2.5,83,0.00,,---,0.00,VWS V14.01,2013-07-27 04:37:00,
2013-07-26 23:38:00,75.2,69.7,29.97,ENE,68,0.9,2.9,83,0.00,,---,0.00,VWS V14.01,2013-07-27 04:38:00,
2013-07-26 23:39:00,75.2,69.7,29.97,East,90,2.9,2.9,83,0.00,,---,0.00,VWS V14.01,2013-07-27 04:39:00,
2013-07-26 23:40:00,75.2,69.7,29.97,East,90,2.7,3.1,83,0.00,,---,0.00,VWS V14.01,2013-07-27 04:40:00,
2013-07-26 23:41:00,75.2,69.7,29.97,ESE,112,1.6,2.9,83,0.00,,---,0.00,VWS V14.01,2013-07-27 04:41:00,
2013-07-26 23:42:00,75.2,69.7,29.97,East,90,2.2,2.7,83,0.00,,---,0.00,VWS V14.01,2013-07-27 04:42:00,
2013-07-26 23:43:00,75.1,69.5,29.97,East,90,3.1,3.1,83,0.00,,---,0.00,VWS V14.01,2013-07-27 04:43:00,
2013-07-26 23:44:00,75.1,69.5,29.97,East,90,2.0,3.1,83,0.00,,---,0.00,VWS V14.01,2013-07-27 04:44:00,
2013-07-26 23:45:00,75.1,69.5,29.97,NE,45,2.0,3.4,83,0.00,,---,0.00,VWS V14.01,2013-07-27 04:45:00,
2013-07-26 23:46:00,75.1,69.5,29.97,East,90,2.7,3.4,83,0.00,,---,0.00,VWS V14.01,2013-07-27 04:46:00,
2013-07-26 23:47:00,75.1,69.5,30.00,East,90,2.5,2.7,83,0.00,,---,0.00,VWS V14.01,2013-07-27 04:47:00,
2013-07-26 23:48:00,75.1,69.9,30.00,SE,135,2.7,3.4,84,0.00,,---,0.00,VWS V14.01,2013-07-27 04:48:00,
2013-07-26 23:49:00,75.1,69.9,30.00,ESE,112,3.4,3.4,84,0.00,,---,0.00,VWS V14.01,2013-07-27 04:49:00,
2013-07-26 23:50:00,75.1,69.9,30.00,East,90,2.5,3.6,84,0.00,,---,0.00,VWS V14.01,2013-07-27 04:50:00,
2013-07-26 23:51:00,75.1,70.2,30.00,SE,135,3.6,4.0,85,0.00,,---,0.00,VWS V14.01,2013-07-27 04:51:00,
2013-07-26 23:52:00,75.1,70.2,30.00,ESE,112,2.5,3.6,85,0.00,,---,0.00,VWS V14.01,2013-07-27 04:52:00,
2013-07-26 23:53:00,75.1,70.2,30.00,East,90,4.0,5.4,85,0.00,,---,0.00,VWS V14.01,2013-07-27 04:53:00,
2013-07-26 23:54:00,75.1,70.2,30.00,ESE,112,2.5,6.0,85,0.00,,---,0.00,VWS V14.01,2013-07-27 04:54:00,
2013-07-26 23:55:00,75.1,70.6,30.00,ESE,112,3.6,3.6,86,0.00,,---,0.29,VWS V14.01,2013-07-27 04:55:00,
2013-07-26 23:56:00,74.9,70.4,30.00,East,90,3.1,3.6,86,0.00,,---,0.00,VWS V14.01,2013-07-27 04:56:00,
2013-07-26 23:57:00,74.9,70.4,30.00,ESE,112,2.5,3.1,86,0.00,,---,0.00,VWS V14.01,2013-07-27 04:57:00,
2013-07-26 23:58:00,75.1,70.9,30.00,ESE,112,3.8,5.8,87,0.00,,---,0.00,VWS V14.01,2013-07-27 04:58:00,
2013-07-26 23:59:00,74.9,70.8,30.00,East,90,2.7,3.8,87,0.00,,---,0.00,VWS V14.01,2013-07-27 04:59:00,